<?xml version="1.0" encoding="UTF-8" standalone="no" ?>
<gpx xmlns="http://www.topografix.com/GPX/1/1" xmlns:xsi="http://www.w3.org/2001/XMLSchema-instance" xsi:schemaLocation="http://www.topografix.com/GPX/1/1 http://www.topografix.com/GPX/1/1/gpx.xsd" version="1.1" creator="VisuGPX - https://www.visugpx.com">
  <metadata>
    <name>Marianette-Pene Arrouye</name>
    <desc><![CDATA[Soum de Marianette et ascension du Pène Arrouye]]></desc>
  </metadata>
  <trk>
    <name><![CDATA[2014-12-04 15:54:08]]></name>
    <trkseg>
      <trkpt lat="42.91684" lon="0.20945">
        <ele>1416.03</ele>
        <time>2014-12-04T07:39:17Z</time>
      </trkpt>
      <trkpt lat="42.91684" lon="0.20945">
        <ele>1416.03</ele>
        <time>2014-12-04T07:39:18Z</time>
      </trkpt>
      <trkpt lat="42.91684" lon="0.20943">
        <ele>1415.89</ele>
        <time>2014-12-04T07:39:40Z</time>
      </trkpt>
      <trkpt lat="42.91684" lon="0.20946">
        <ele>1415.32</ele>
        <time>2014-12-04T07:39:54Z</time>
      </trkpt>
      <trkpt lat="42.91682" lon="0.20947">
        <ele>1415.07</ele>
        <time>2014-12-04T07:40:16Z</time>
      </trkpt>
      <trkpt lat="42.91682" lon="0.20946">
        <ele>1414.91</ele>
        <time>2014-12-04T07:40:44Z</time>
      </trkpt>
      <trkpt lat="42.91683" lon="0.20942">
        <ele>1414.74</ele>
        <time>2014-12-04T07:41:00Z</time>
      </trkpt>
      <trkpt lat="42.91683" lon="0.20944">
        <ele>1414.69</ele>
        <time>2014-12-04T07:41:26Z</time>
      </trkpt>
      <trkpt lat="42.9168" lon="0.20941">
        <ele>1414.48</ele>
        <time>2014-12-04T07:41:47Z</time>
      </trkpt>
      <trkpt lat="42.91676" lon="0.20937">
        <ele>1415.08</ele>
        <time>2014-12-04T07:42:00Z</time>
      </trkpt>
      <trkpt lat="42.91671" lon="0.20936">
        <ele>1415.41</ele>
        <time>2014-12-04T07:42:12Z</time>
      </trkpt>
      <trkpt lat="42.91666" lon="0.20933">
        <ele>1415.18</ele>
        <time>2014-12-04T07:42:27Z</time>
      </trkpt>
      <trkpt lat="42.91661" lon="0.20924">
        <ele>1413.88</ele>
        <time>2014-12-04T07:42:42Z</time>
      </trkpt>
      <trkpt lat="42.91656" lon="0.20923">
        <ele>1410.69</ele>
        <time>2014-12-04T07:42:54Z</time>
      </trkpt>
      <trkpt lat="42.91656" lon="0.2093">
        <ele>1407.79</ele>
        <time>2014-12-04T07:43:08Z</time>
      </trkpt>
      <trkpt lat="42.91655" lon="0.20928">
        <ele>1407.06</ele>
        <time>2014-12-04T07:43:27Z</time>
      </trkpt>
      <trkpt lat="42.91655" lon="0.20927">
        <ele>1407.05</ele>
        <time>2014-12-04T07:43:48Z</time>
      </trkpt>
      <trkpt lat="42.91654" lon="0.20927">
        <ele>1407.01</ele>
        <time>2014-12-04T07:44:08Z</time>
      </trkpt>
      <trkpt lat="42.91656" lon="0.20922">
        <ele>1406.56</ele>
        <time>2014-12-04T07:44:26Z</time>
      </trkpt>
      <trkpt lat="42.91654" lon="0.20918">
        <ele>1406.26</ele>
        <time>2014-12-04T07:44:53Z</time>
      </trkpt>
      <trkpt lat="42.91654" lon="0.20922">
        <ele>1406.48</ele>
        <time>2014-12-04T07:45:09Z</time>
      </trkpt>
      <trkpt lat="42.91655" lon="0.20923">
        <ele>1405.83</ele>
        <time>2014-12-04T07:45:29Z</time>
      </trkpt>
      <trkpt lat="42.91655" lon="0.20922">
        <ele>1405.76</ele>
        <time>2014-12-04T07:45:47Z</time>
      </trkpt>
      <trkpt lat="42.91654" lon="0.20921">
        <ele>1405.92</ele>
        <time>2014-12-04T07:46:10Z</time>
      </trkpt>
      <trkpt lat="42.91656" lon="0.20921">
        <ele>1405.84</ele>
        <time>2014-12-04T07:46:32Z</time>
      </trkpt>
      <trkpt lat="42.91656" lon="0.20922">
        <ele>1406.05</ele>
        <time>2014-12-04T07:46:51Z</time>
      </trkpt>
      <trkpt lat="42.91659" lon="0.20927">
        <ele>1405.63</ele>
        <time>2014-12-04T07:47:13Z</time>
      </trkpt>
      <trkpt lat="42.9166" lon="0.20925">
        <ele>1405.3</ele>
        <time>2014-12-04T07:47:34Z</time>
      </trkpt>
      <trkpt lat="42.91661" lon="0.20932">
        <ele>1405.31</ele>
        <time>2014-12-04T07:47:54Z</time>
      </trkpt>
      <trkpt lat="42.9166" lon="0.20947">
        <ele>1402.69</ele>
        <time>2014-12-04T07:48:08Z</time>
      </trkpt>
      <trkpt lat="42.91645" lon="0.20955">
        <ele>1401.87</ele>
        <time>2014-12-04T07:48:24Z</time>
      </trkpt>
      <trkpt lat="42.9164" lon="0.20965">
        <ele>1403.83</ele>
        <time>2014-12-04T07:48:38Z</time>
      </trkpt>
      <trkpt lat="42.91638" lon="0.20975">
        <ele>1406.47</ele>
        <time>2014-12-04T07:48:51Z</time>
      </trkpt>
      <trkpt lat="42.91629" lon="0.20983">
        <ele>1408.97</ele>
        <time>2014-12-04T07:49:06Z</time>
      </trkpt>
      <trkpt lat="42.91622" lon="0.20993">
        <ele>1411.95</ele>
        <time>2014-12-04T07:49:21Z</time>
      </trkpt>
      <trkpt lat="42.91617" lon="0.21003">
        <ele>1413.3</ele>
        <time>2014-12-04T07:49:33Z</time>
      </trkpt>
      <trkpt lat="42.91611" lon="0.21008">
        <ele>1412.99</ele>
        <time>2014-12-04T07:49:38Z</time>
      </trkpt>
      <trkpt lat="42.91606" lon="0.21024">
        <ele>1412.73</ele>
        <time>2014-12-04T07:49:50Z</time>
      </trkpt>
      <trkpt lat="42.91602" lon="0.21043">
        <ele>1413.81</ele>
        <time>2014-12-04T07:50:04Z</time>
      </trkpt>
      <trkpt lat="42.916" lon="0.21058">
        <ele>1415.89</ele>
        <time>2014-12-04T07:50:19Z</time>
      </trkpt>
      <trkpt lat="42.91599" lon="0.21074">
        <ele>1418.3</ele>
        <time>2014-12-04T07:50:34Z</time>
      </trkpt>
      <trkpt lat="42.91599" lon="0.21075">
        <ele>1418.52</ele>
        <time>2014-12-04T07:50:35Z</time>
      </trkpt>
      <trkpt lat="42.91598" lon="0.21093">
        <ele>1420.71</ele>
        <time>2014-12-04T07:50:50Z</time>
      </trkpt>
      <trkpt lat="42.91593" lon="0.21105">
        <ele>1423.26</ele>
        <time>2014-12-04T07:51:07Z</time>
      </trkpt>
      <trkpt lat="42.9159" lon="0.21117">
        <ele>1425.65</ele>
        <time>2014-12-04T07:51:22Z</time>
      </trkpt>
      <trkpt lat="42.91587" lon="0.21129">
        <ele>1428.53</ele>
        <time>2014-12-04T07:51:39Z</time>
      </trkpt>
      <trkpt lat="42.91586" lon="0.21142">
        <ele>1431.74</ele>
        <time>2014-12-04T07:51:55Z</time>
      </trkpt>
      <trkpt lat="42.9158" lon="0.21143">
        <ele>1434.44</ele>
        <time>2014-12-04T07:52:10Z</time>
      </trkpt>
      <trkpt lat="42.91579" lon="0.2115">
        <ele>1437.51</ele>
        <time>2014-12-04T07:52:25Z</time>
      </trkpt>
      <trkpt lat="42.9158" lon="0.2116">
        <ele>1439.87</ele>
        <time>2014-12-04T07:52:42Z</time>
      </trkpt>
      <trkpt lat="42.91576" lon="0.21163">
        <ele>1442.99</ele>
        <time>2014-12-04T07:52:57Z</time>
      </trkpt>
      <trkpt lat="42.91574" lon="0.21167">
        <ele>1445.93</ele>
        <time>2014-12-04T07:53:14Z</time>
      </trkpt>
      <trkpt lat="42.91566" lon="0.21169">
        <ele>1448.15</ele>
        <time>2014-12-04T07:53:30Z</time>
      </trkpt>
      <trkpt lat="42.91564" lon="0.21176">
        <ele>1451.37</ele>
        <time>2014-12-04T07:53:44Z</time>
      </trkpt>
      <trkpt lat="42.91566" lon="0.21183">
        <ele>1453.45</ele>
        <time>2014-12-04T07:53:58Z</time>
      </trkpt>
      <trkpt lat="42.91567" lon="0.2119">
        <ele>1456.11</ele>
        <time>2014-12-04T07:54:12Z</time>
      </trkpt>
      <trkpt lat="42.91562" lon="0.21196">
        <ele>1458.78</ele>
        <time>2014-12-04T07:54:27Z</time>
      </trkpt>
      <trkpt lat="42.91566" lon="0.21205">
        <ele>1461.31</ele>
        <time>2014-12-04T07:54:42Z</time>
      </trkpt>
      <trkpt lat="42.91569" lon="0.21216">
        <ele>1464.27</ele>
        <time>2014-12-04T07:54:56Z</time>
      </trkpt>
      <trkpt lat="42.91569" lon="0.21226">
        <ele>1467.46</ele>
        <time>2014-12-04T07:55:12Z</time>
      </trkpt>
      <trkpt lat="42.91561" lon="0.21232">
        <ele>1470.53</ele>
        <time>2014-12-04T07:55:28Z</time>
      </trkpt>
      <trkpt lat="42.91557" lon="0.21239">
        <ele>1473.54</ele>
        <time>2014-12-04T07:55:42Z</time>
      </trkpt>
      <trkpt lat="42.91561" lon="0.21254">
        <ele>1475.77</ele>
        <time>2014-12-04T07:55:59Z</time>
      </trkpt>
      <trkpt lat="42.91565" lon="0.21267">
        <ele>1478.82</ele>
        <time>2014-12-04T07:56:16Z</time>
      </trkpt>
      <trkpt lat="42.91567" lon="0.21279">
        <ele>1481.95</ele>
        <time>2014-12-04T07:56:32Z</time>
      </trkpt>
      <trkpt lat="42.91572" lon="0.21288">
        <ele>1485.08</ele>
        <time>2014-12-04T07:56:46Z</time>
      </trkpt>
      <trkpt lat="42.9158" lon="0.213">
        <ele>1488.17</ele>
        <time>2014-12-04T07:57:02Z</time>
      </trkpt>
      <trkpt lat="42.91586" lon="0.21309">
        <ele>1491.19</ele>
        <time>2014-12-04T07:57:18Z</time>
      </trkpt>
      <trkpt lat="42.91589" lon="0.21315">
        <ele>1494.02</ele>
        <time>2014-12-04T07:57:31Z</time>
      </trkpt>
      <trkpt lat="42.91588" lon="0.21325">
        <ele>1497.3</ele>
        <time>2014-12-04T07:57:46Z</time>
      </trkpt>
      <trkpt lat="42.9159" lon="0.21334">
        <ele>1500.08</ele>
        <time>2014-12-04T07:58:00Z</time>
      </trkpt>
      <trkpt lat="42.91592" lon="0.2134">
        <ele>1503.2</ele>
        <time>2014-12-04T07:58:14Z</time>
      </trkpt>
      <trkpt lat="42.91583" lon="0.21344">
        <ele>1505.69</ele>
        <time>2014-12-04T07:58:28Z</time>
      </trkpt>
      <trkpt lat="42.91585" lon="0.21352">
        <ele>1508.11</ele>
        <time>2014-12-04T07:58:42Z</time>
      </trkpt>
      <trkpt lat="42.91586" lon="0.21359">
        <ele>1511.3</ele>
        <time>2014-12-04T07:58:57Z</time>
      </trkpt>
      <trkpt lat="42.91587" lon="0.21367">
        <ele>1514.3</ele>
        <time>2014-12-04T07:59:10Z</time>
      </trkpt>
      <trkpt lat="42.91593" lon="0.21375">
        <ele>1516.32</ele>
        <time>2014-12-04T07:59:25Z</time>
      </trkpt>
      <trkpt lat="42.91587" lon="0.21381">
        <ele>1519.12</ele>
        <time>2014-12-04T07:59:38Z</time>
      </trkpt>
      <trkpt lat="42.91588" lon="0.21388">
        <ele>1521.59</ele>
        <time>2014-12-04T07:59:50Z</time>
      </trkpt>
      <trkpt lat="42.91587" lon="0.21395">
        <ele>1523.95</ele>
        <time>2014-12-04T08:00:02Z</time>
      </trkpt>
      <trkpt lat="42.91582" lon="0.21405">
        <ele>1527.3</ele>
        <time>2014-12-04T08:00:18Z</time>
      </trkpt>
      <trkpt lat="42.91578" lon="0.21413">
        <ele>1529.89</ele>
        <time>2014-12-04T08:00:32Z</time>
      </trkpt>
      <trkpt lat="42.91576" lon="0.21426">
        <ele>1532.34</ele>
        <time>2014-12-04T08:00:45Z</time>
      </trkpt>
      <trkpt lat="42.91573" lon="0.2144">
        <ele>1535.36</ele>
        <time>2014-12-04T08:01:02Z</time>
      </trkpt>
      <trkpt lat="42.91573" lon="0.21444">
        <ele>1536.12</ele>
        <time>2014-12-04T08:01:06Z</time>
      </trkpt>
      <trkpt lat="42.91569" lon="0.21454">
        <ele>1537.81</ele>
        <time>2014-12-04T08:01:17Z</time>
      </trkpt>
      <trkpt lat="42.91569" lon="0.21455">
        <ele>1537.94</ele>
        <time>2014-12-04T08:01:18Z</time>
      </trkpt>
      <trkpt lat="42.9157" lon="0.21459">
        <ele>1538.48</ele>
        <time>2014-12-04T08:01:23Z</time>
      </trkpt>
      <trkpt lat="42.91571" lon="0.21462">
        <ele>1538.63</ele>
        <time>2014-12-04T08:01:26Z</time>
      </trkpt>
      <trkpt lat="42.91568" lon="0.21469">
        <ele>1539.07</ele>
        <time>2014-12-04T08:01:31Z</time>
      </trkpt>
      <trkpt lat="42.91568" lon="0.21474">
        <ele>1539.33</ele>
        <time>2014-12-04T08:01:34Z</time>
      </trkpt>
      <trkpt lat="42.91568" lon="0.21479">
        <ele>1539.97</ele>
        <time>2014-12-04T08:01:39Z</time>
      </trkpt>
      <trkpt lat="42.91567" lon="0.21483">
        <ele>1540.28</ele>
        <time>2014-12-04T08:01:42Z</time>
      </trkpt>
      <trkpt lat="42.9156" lon="0.21502">
        <ele>1540.7</ele>
        <time>2014-12-04T08:01:54Z</time>
      </trkpt>
      <trkpt lat="42.91555" lon="0.21514">
        <ele>1541.29</ele>
        <time>2014-12-04T08:02:03Z</time>
      </trkpt>
      <trkpt lat="42.9155" lon="0.21528">
        <ele>1542.68</ele>
        <time>2014-12-04T08:02:14Z</time>
      </trkpt>
      <trkpt lat="42.9155" lon="0.21538">
        <ele>1543.64</ele>
        <time>2014-12-04T08:02:24Z</time>
      </trkpt>
      <trkpt lat="42.91547" lon="0.21548">
        <ele>1544.51</ele>
        <time>2014-12-04T08:02:32Z</time>
      </trkpt>
      <trkpt lat="42.91542" lon="0.21562">
        <ele>1545.31</ele>
        <time>2014-12-04T08:02:45Z</time>
      </trkpt>
      <trkpt lat="42.91536" lon="0.21579">
        <ele>1545.79</ele>
        <time>2014-12-04T08:02:58Z</time>
      </trkpt>
      <trkpt lat="42.91531" lon="0.21593">
        <ele>1546.35</ele>
        <time>2014-12-04T08:03:09Z</time>
      </trkpt>
      <trkpt lat="42.91525" lon="0.21608">
        <ele>1546.59</ele>
        <time>2014-12-04T08:03:20Z</time>
      </trkpt>
      <trkpt lat="42.91519" lon="0.21624">
        <ele>1546.36</ele>
        <time>2014-12-04T08:03:31Z</time>
      </trkpt>
      <trkpt lat="42.91516" lon="0.21635">
        <ele>1545.59</ele>
        <time>2014-12-04T08:03:41Z</time>
      </trkpt>
      <trkpt lat="42.91513" lon="0.21646">
        <ele>1544.33</ele>
        <time>2014-12-04T08:03:51Z</time>
      </trkpt>
      <trkpt lat="42.91512" lon="0.21648">
        <ele>1543.99</ele>
        <time>2014-12-04T08:03:53Z</time>
      </trkpt>
      <trkpt lat="42.91509" lon="0.21667">
        <ele>1542.49</ele>
        <time>2014-12-04T08:04:06Z</time>
      </trkpt>
      <trkpt lat="42.91508" lon="0.21679">
        <ele>1542.83</ele>
        <time>2014-12-04T08:04:17Z</time>
      </trkpt>
      <trkpt lat="42.91504" lon="0.21686">
        <ele>1542.26</ele>
        <time>2014-12-04T08:04:27Z</time>
      </trkpt>
      <trkpt lat="42.91498" lon="0.21692">
        <ele>1542.41</ele>
        <time>2014-12-04T08:04:36Z</time>
      </trkpt>
      <trkpt lat="42.91495" lon="0.21694">
        <ele>1542.4</ele>
        <time>2014-12-04T08:04:39Z</time>
      </trkpt>
      <trkpt lat="42.91489" lon="0.21698">
        <ele>1542.62</ele>
        <time>2014-12-04T08:04:46Z</time>
      </trkpt>
      <trkpt lat="42.91489" lon="0.21707">
        <ele>1542.68</ele>
        <time>2014-12-04T08:04:56Z</time>
      </trkpt>
      <trkpt lat="42.91491" lon="0.21713">
        <ele>1542.91</ele>
        <time>2014-12-04T08:05:02Z</time>
      </trkpt>
      <trkpt lat="42.91491" lon="0.21716">
        <ele>1543.01</ele>
        <time>2014-12-04T08:05:04Z</time>
      </trkpt>
      <trkpt lat="42.91488" lon="0.21721">
        <ele>1543.76</ele>
        <time>2014-12-04T08:05:16Z</time>
      </trkpt>
      <trkpt lat="42.91488" lon="0.21721">
        <ele>1544.34</ele>
        <time>2014-12-04T08:05:40Z</time>
      </trkpt>
      <trkpt lat="42.91488" lon="0.21721">
        <ele>1544.29</ele>
        <time>2014-12-04T08:06:06Z</time>
      </trkpt>
      <trkpt lat="42.91487" lon="0.21722">
        <ele>1544.06</ele>
        <time>2014-12-04T08:06:21Z</time>
      </trkpt>
      <trkpt lat="42.91488" lon="0.21723">
        <ele>1544.23</ele>
        <time>2014-12-04T08:06:43Z</time>
      </trkpt>
      <trkpt lat="42.91488" lon="0.21723">
        <ele>1543.84</ele>
        <time>2014-12-04T08:07:02Z</time>
      </trkpt>
      <trkpt lat="42.91487" lon="0.21723">
        <ele>1543.94</ele>
        <time>2014-12-04T08:07:16Z</time>
      </trkpt>
      <trkpt lat="42.91488" lon="0.21724">
        <ele>1544.03</ele>
        <time>2014-12-04T08:07:29Z</time>
      </trkpt>
      <trkpt lat="42.91489" lon="0.21723">
        <ele>1543.94</ele>
        <time>2014-12-04T08:07:49Z</time>
      </trkpt>
      <trkpt lat="42.91489" lon="0.2172">
        <ele>1543.92</ele>
        <time>2014-12-04T08:08:04Z</time>
      </trkpt>
      <trkpt lat="42.91491" lon="0.2172">
        <ele>1543.85</ele>
        <time>2014-12-04T08:08:25Z</time>
      </trkpt>
      <trkpt lat="42.91491" lon="0.2172">
        <ele>1543.58</ele>
        <time>2014-12-04T08:08:48Z</time>
      </trkpt>
      <trkpt lat="42.91489" lon="0.21725">
        <ele>1543.52</ele>
        <time>2014-12-04T08:09:19Z</time>
      </trkpt>
      <trkpt lat="42.91482" lon="0.2174">
        <ele>1544.34</ele>
        <time>2014-12-04T08:09:34Z</time>
      </trkpt>
      <trkpt lat="42.91478" lon="0.21754">
        <ele>1546.04</ele>
        <time>2014-12-04T08:09:49Z</time>
      </trkpt>
      <trkpt lat="42.91473" lon="0.21771">
        <ele>1547.7</ele>
        <time>2014-12-04T08:10:04Z</time>
      </trkpt>
      <trkpt lat="42.91468" lon="0.21784">
        <ele>1549.74</ele>
        <time>2014-12-04T08:10:18Z</time>
      </trkpt>
      <trkpt lat="42.91466" lon="0.21799">
        <ele>1551.6</ele>
        <time>2014-12-04T08:10:32Z</time>
      </trkpt>
      <trkpt lat="42.91461" lon="0.21809">
        <ele>1554.12</ele>
        <time>2014-12-04T08:10:47Z</time>
      </trkpt>
      <trkpt lat="42.91456" lon="0.21818">
        <ele>1555.82</ele>
        <time>2014-12-04T08:11:03Z</time>
      </trkpt>
      <trkpt lat="42.91455" lon="0.21832">
        <ele>1558.2</ele>
        <time>2014-12-04T08:11:20Z</time>
      </trkpt>
      <trkpt lat="42.91455" lon="0.21847">
        <ele>1559.78</ele>
        <time>2014-12-04T08:11:35Z</time>
      </trkpt>
      <trkpt lat="42.9145" lon="0.2186">
        <ele>1562.22</ele>
        <time>2014-12-04T08:11:48Z</time>
      </trkpt>
      <trkpt lat="42.91442" lon="0.21864">
        <ele>1564.17</ele>
        <time>2014-12-04T08:12:03Z</time>
      </trkpt>
      <trkpt lat="42.91436" lon="0.21868">
        <ele>1566.31</ele>
        <time>2014-12-04T08:12:17Z</time>
      </trkpt>
      <trkpt lat="42.91432" lon="0.21872">
        <ele>1568.62</ele>
        <time>2014-12-04T08:12:32Z</time>
      </trkpt>
      <trkpt lat="42.91432" lon="0.21884">
        <ele>1571.19</ele>
        <time>2014-12-04T08:12:50Z</time>
      </trkpt>
      <trkpt lat="42.91423" lon="0.21888">
        <ele>1574.03</ele>
        <time>2014-12-04T08:13:06Z</time>
      </trkpt>
      <trkpt lat="42.91418" lon="0.21895">
        <ele>1576.27</ele>
        <time>2014-12-04T08:13:21Z</time>
      </trkpt>
      <trkpt lat="42.91419" lon="0.21904">
        <ele>1578.78</ele>
        <time>2014-12-04T08:13:37Z</time>
      </trkpt>
      <trkpt lat="42.91417" lon="0.21913">
        <ele>1581.8</ele>
        <time>2014-12-04T08:13:53Z</time>
      </trkpt>
      <trkpt lat="42.91411" lon="0.21917">
        <ele>1584.2</ele>
        <time>2014-12-04T08:14:10Z</time>
      </trkpt>
      <trkpt lat="42.91407" lon="0.21923">
        <ele>1587.2</ele>
        <time>2014-12-04T08:14:26Z</time>
      </trkpt>
      <trkpt lat="42.91404" lon="0.21929">
        <ele>1590.31</ele>
        <time>2014-12-04T08:14:42Z</time>
      </trkpt>
      <trkpt lat="42.91412" lon="0.21936">
        <ele>1593.26</ele>
        <time>2014-12-04T08:14:59Z</time>
      </trkpt>
      <trkpt lat="42.91419" lon="0.21942">
        <ele>1595.96</ele>
        <time>2014-12-04T08:15:14Z</time>
      </trkpt>
      <trkpt lat="42.91428" lon="0.21946">
        <ele>1598.42</ele>
        <time>2014-12-04T08:15:30Z</time>
      </trkpt>
      <trkpt lat="42.91438" lon="0.21949">
        <ele>1600.98</ele>
        <time>2014-12-04T08:15:46Z</time>
      </trkpt>
      <trkpt lat="42.91445" lon="0.21953">
        <ele>1603.89</ele>
        <time>2014-12-04T08:16:02Z</time>
      </trkpt>
      <trkpt lat="42.91454" lon="0.21958">
        <ele>1606.84</ele>
        <time>2014-12-04T08:16:21Z</time>
      </trkpt>
      <trkpt lat="42.91462" lon="0.21965">
        <ele>1609.67</ele>
        <time>2014-12-04T08:16:40Z</time>
      </trkpt>
      <trkpt lat="42.91467" lon="0.21971">
        <ele>1612.11</ele>
        <time>2014-12-04T08:16:57Z</time>
      </trkpt>
      <trkpt lat="42.91474" lon="0.21979">
        <ele>1615.13</ele>
        <time>2014-12-04T08:17:14Z</time>
      </trkpt>
      <trkpt lat="42.91479" lon="0.21986">
        <ele>1618.15</ele>
        <time>2014-12-04T08:17:30Z</time>
      </trkpt>
      <trkpt lat="42.91482" lon="0.21994">
        <ele>1621.24</ele>
        <time>2014-12-04T08:17:50Z</time>
      </trkpt>
      <trkpt lat="42.91486" lon="0.22001">
        <ele>1624.28</ele>
        <time>2014-12-04T08:18:07Z</time>
      </trkpt>
      <trkpt lat="42.91488" lon="0.22009">
        <ele>1627.49</ele>
        <time>2014-12-04T08:18:25Z</time>
      </trkpt>
      <trkpt lat="42.91494" lon="0.22015">
        <ele>1630.3</ele>
        <time>2014-12-04T08:18:41Z</time>
      </trkpt>
      <trkpt lat="42.91492" lon="0.2202">
        <ele>1632.95</ele>
        <time>2014-12-04T08:18:57Z</time>
      </trkpt>
      <trkpt lat="42.91485" lon="0.22027">
        <ele>1635.62</ele>
        <time>2014-12-04T08:19:16Z</time>
      </trkpt>
      <trkpt lat="42.91484" lon="0.22033">
        <ele>1638.63</ele>
        <time>2014-12-04T08:19:30Z</time>
      </trkpt>
      <trkpt lat="42.91489" lon="0.22042">
        <ele>1641.44</ele>
        <time>2014-12-04T08:19:47Z</time>
      </trkpt>
      <trkpt lat="42.91495" lon="0.22051">
        <ele>1644.4</ele>
        <time>2014-12-04T08:20:06Z</time>
      </trkpt>
      <trkpt lat="42.91493" lon="0.22055">
        <ele>1646.69</ele>
        <time>2014-12-04T08:20:19Z</time>
      </trkpt>
      <trkpt lat="42.91487" lon="0.22059">
        <ele>1649.02</ele>
        <time>2014-12-04T08:20:35Z</time>
      </trkpt>
      <trkpt lat="42.91477" lon="0.22063">
        <ele>1651.98</ele>
        <time>2014-12-04T08:20:51Z</time>
      </trkpt>
      <trkpt lat="42.91468" lon="0.22064">
        <ele>1653.61</ele>
        <time>2014-12-04T08:21:05Z</time>
      </trkpt>
      <trkpt lat="42.9146" lon="0.22068">
        <ele>1656.03</ele>
        <time>2014-12-04T08:21:20Z</time>
      </trkpt>
      <trkpt lat="42.91451" lon="0.22074">
        <ele>1658.38</ele>
        <time>2014-12-04T08:21:36Z</time>
      </trkpt>
      <trkpt lat="42.91443" lon="0.22081">
        <ele>1660.82</ele>
        <time>2014-12-04T08:21:52Z</time>
      </trkpt>
      <trkpt lat="42.91438" lon="0.22088">
        <ele>1663.83</ele>
        <time>2014-12-04T08:22:08Z</time>
      </trkpt>
      <trkpt lat="42.91445" lon="0.22092">
        <ele>1665.9</ele>
        <time>2014-12-04T08:22:21Z</time>
      </trkpt>
      <trkpt lat="42.91455" lon="0.22096">
        <ele>1666.64</ele>
        <time>2014-12-04T08:22:34Z</time>
      </trkpt>
      <trkpt lat="42.91464" lon="0.22105">
        <ele>1668.96</ele>
        <time>2014-12-04T08:22:53Z</time>
      </trkpt>
      <trkpt lat="42.91471" lon="0.2211">
        <ele>1671.64</ele>
        <time>2014-12-04T08:23:07Z</time>
      </trkpt>
      <trkpt lat="42.91479" lon="0.22115">
        <ele>1673.48</ele>
        <time>2014-12-04T08:23:20Z</time>
      </trkpt>
      <trkpt lat="42.91485" lon="0.2212">
        <ele>1675.62</ele>
        <time>2014-12-04T08:23:33Z</time>
      </trkpt>
      <trkpt lat="42.91492" lon="0.22123">
        <ele>1677.77</ele>
        <time>2014-12-04T08:23:46Z</time>
      </trkpt>
      <trkpt lat="42.91498" lon="0.22124">
        <ele>1678.5</ele>
        <time>2014-12-04T08:23:53Z</time>
      </trkpt>
      <trkpt lat="42.91509" lon="0.22123">
        <ele>1679.24</ele>
        <time>2014-12-04T08:24:05Z</time>
      </trkpt>
      <trkpt lat="42.91518" lon="0.22119">
        <ele>1679.86</ele>
        <time>2014-12-04T08:24:15Z</time>
      </trkpt>
      <trkpt lat="42.9153" lon="0.22114">
        <ele>1680.63</ele>
        <time>2014-12-04T08:24:29Z</time>
      </trkpt>
      <trkpt lat="42.91544" lon="0.22107">
        <ele>1681.45</ele>
        <time>2014-12-04T08:24:45Z</time>
      </trkpt>
      <trkpt lat="42.91551" lon="0.22109">
        <ele>1682.96</ele>
        <time>2014-12-04T08:25:00Z</time>
      </trkpt>
      <trkpt lat="42.91559" lon="0.2211">
        <ele>1685.63</ele>
        <time>2014-12-04T08:25:15Z</time>
      </trkpt>
      <trkpt lat="42.91567" lon="0.22111">
        <ele>1688.2</ele>
        <time>2014-12-04T08:25:32Z</time>
      </trkpt>
      <trkpt lat="42.91575" lon="0.22115">
        <ele>1691.21</ele>
        <time>2014-12-04T08:25:50Z</time>
      </trkpt>
      <trkpt lat="42.91579" lon="0.22123">
        <ele>1694.33</ele>
        <time>2014-12-04T08:26:06Z</time>
      </trkpt>
      <trkpt lat="42.91584" lon="0.2213">
        <ele>1697.06</ele>
        <time>2014-12-04T08:26:20Z</time>
      </trkpt>
      <trkpt lat="42.91586" lon="0.22137">
        <ele>1699.97</ele>
        <time>2014-12-04T08:26:35Z</time>
      </trkpt>
      <trkpt lat="42.9158" lon="0.22146">
        <ele>1702.48</ele>
        <time>2014-12-04T08:26:51Z</time>
      </trkpt>
      <trkpt lat="42.91583" lon="0.22152">
        <ele>1704.41</ele>
        <time>2014-12-04T08:27:04Z</time>
      </trkpt>
      <trkpt lat="42.91591" lon="0.22156">
        <ele>1706.16</ele>
        <time>2014-12-04T08:27:17Z</time>
      </trkpt>
      <trkpt lat="42.91599" lon="0.22159">
        <ele>1707.17</ele>
        <time>2014-12-04T08:27:29Z</time>
      </trkpt>
      <trkpt lat="42.91606" lon="0.22164">
        <ele>1709.24</ele>
        <time>2014-12-04T08:27:42Z</time>
      </trkpt>
      <trkpt lat="42.91615" lon="0.2217">
        <ele>1711.79</ele>
        <time>2014-12-04T08:27:58Z</time>
      </trkpt>
      <trkpt lat="42.91624" lon="0.22173">
        <ele>1714.46</ele>
        <time>2014-12-04T08:28:14Z</time>
      </trkpt>
      <trkpt lat="42.91625" lon="0.2218">
        <ele>1716.42</ele>
        <time>2014-12-04T08:28:27Z</time>
      </trkpt>
      <trkpt lat="42.91631" lon="0.22187">
        <ele>1719.32</ele>
        <time>2014-12-04T08:28:45Z</time>
      </trkpt>
      <trkpt lat="42.91636" lon="0.22194">
        <ele>1722.39</ele>
        <time>2014-12-04T08:28:59Z</time>
      </trkpt>
      <trkpt lat="42.91641" lon="0.222">
        <ele>1725.31</ele>
        <time>2014-12-04T08:29:15Z</time>
      </trkpt>
      <trkpt lat="42.91645" lon="0.22205">
        <ele>1728.25</ele>
        <time>2014-12-04T08:29:30Z</time>
      </trkpt>
      <trkpt lat="42.91644" lon="0.22214">
        <ele>1731.33</ele>
        <time>2014-12-04T08:29:46Z</time>
      </trkpt>
      <trkpt lat="42.91649" lon="0.22217">
        <ele>1733.39</ele>
        <time>2014-12-04T08:29:58Z</time>
      </trkpt>
      <trkpt lat="42.91659" lon="0.22215">
        <ele>1735.17</ele>
        <time>2014-12-04T08:30:13Z</time>
      </trkpt>
      <trkpt lat="42.91666" lon="0.22217">
        <ele>1737.53</ele>
        <time>2014-12-04T08:30:27Z</time>
      </trkpt>
      <trkpt lat="42.91665" lon="0.22229">
        <ele>1739.14</ele>
        <time>2014-12-04T08:30:40Z</time>
      </trkpt>
      <trkpt lat="42.91664" lon="0.22242">
        <ele>1741.14</ele>
        <time>2014-12-04T08:30:56Z</time>
      </trkpt>
      <trkpt lat="42.91659" lon="0.22255">
        <ele>1743.26</ele>
        <time>2014-12-04T08:31:12Z</time>
      </trkpt>
      <trkpt lat="42.91656" lon="0.22265">
        <ele>1745.35</ele>
        <time>2014-12-04T08:31:26Z</time>
      </trkpt>
      <trkpt lat="42.9165" lon="0.22275">
        <ele>1747.73</ele>
        <time>2014-12-04T08:31:41Z</time>
      </trkpt>
      <trkpt lat="42.91656" lon="0.22281">
        <ele>1749.93</ele>
        <time>2014-12-04T08:31:54Z</time>
      </trkpt>
      <trkpt lat="42.91663" lon="0.22284">
        <ele>1751.44</ele>
        <time>2014-12-04T08:32:04Z</time>
      </trkpt>
      <trkpt lat="42.91667" lon="0.22284">
        <ele>1751.96</ele>
        <time>2014-12-04T08:32:08Z</time>
      </trkpt>
      <trkpt lat="42.91677" lon="0.22283">
        <ele>1753.49</ele>
        <time>2014-12-04T08:32:20Z</time>
      </trkpt>
      <trkpt lat="42.91686" lon="0.22283">
        <ele>1755.17</ele>
        <time>2014-12-04T08:32:34Z</time>
      </trkpt>
      <trkpt lat="42.91695" lon="0.22285">
        <ele>1757.66</ele>
        <time>2014-12-04T08:32:48Z</time>
      </trkpt>
      <trkpt lat="42.91704" lon="0.22285">
        <ele>1760.27</ele>
        <time>2014-12-04T08:33:03Z</time>
      </trkpt>
      <trkpt lat="42.91713" lon="0.22283">
        <ele>1762.17</ele>
        <time>2014-12-04T08:33:16Z</time>
      </trkpt>
      <trkpt lat="42.91721" lon="0.22277">
        <ele>1763.63</ele>
        <time>2014-12-04T08:33:28Z</time>
      </trkpt>
      <trkpt lat="42.91732" lon="0.22276">
        <ele>1765.68</ele>
        <time>2014-12-04T08:33:45Z</time>
      </trkpt>
      <trkpt lat="42.9174" lon="0.22278">
        <ele>1768.28</ele>
        <time>2014-12-04T08:34:01Z</time>
      </trkpt>
      <trkpt lat="42.9175" lon="0.2228">
        <ele>1771.3</ele>
        <time>2014-12-04T08:34:18Z</time>
      </trkpt>
      <trkpt lat="42.91761" lon="0.22282">
        <ele>1774.26</ele>
        <time>2014-12-04T08:34:34Z</time>
      </trkpt>
      <trkpt lat="42.91769" lon="0.22286">
        <ele>1776.47</ele>
        <time>2014-12-04T08:34:47Z</time>
      </trkpt>
      <trkpt lat="42.91779" lon="0.22294">
        <ele>1778.51</ele>
        <time>2014-12-04T08:35:02Z</time>
      </trkpt>
      <trkpt lat="42.91783" lon="0.22303">
        <ele>1780.6</ele>
        <time>2014-12-04T08:35:15Z</time>
      </trkpt>
      <trkpt lat="42.91792" lon="0.22312">
        <ele>1783.49</ele>
        <time>2014-12-04T08:35:31Z</time>
      </trkpt>
      <trkpt lat="42.918" lon="0.22322">
        <ele>1785.39</ele>
        <time>2014-12-04T08:35:45Z</time>
      </trkpt>
      <trkpt lat="42.91805" lon="0.22332">
        <ele>1787.66</ele>
        <time>2014-12-04T08:36:00Z</time>
      </trkpt>
      <trkpt lat="42.91811" lon="0.2234">
        <ele>1789.26</ele>
        <time>2014-12-04T08:36:15Z</time>
      </trkpt>
      <trkpt lat="42.91815" lon="0.22351">
        <ele>1790.96</ele>
        <time>2014-12-04T08:36:30Z</time>
      </trkpt>
      <trkpt lat="42.91811" lon="0.22361">
        <ele>1793.06</ele>
        <time>2014-12-04T08:36:44Z</time>
      </trkpt>
      <trkpt lat="42.91803" lon="0.22368">
        <ele>1793.97</ele>
        <time>2014-12-04T08:36:57Z</time>
      </trkpt>
      <trkpt lat="42.91792" lon="0.22378">
        <ele>1795.49</ele>
        <time>2014-12-04T08:37:13Z</time>
      </trkpt>
      <trkpt lat="42.91785" lon="0.22389">
        <ele>1797.65</ele>
        <time>2014-12-04T08:37:29Z</time>
      </trkpt>
      <trkpt lat="42.91778" lon="0.22398">
        <ele>1798.9</ele>
        <time>2014-12-04T08:37:40Z</time>
      </trkpt>
      <trkpt lat="42.91773" lon="0.22411">
        <ele>1800.03</ele>
        <time>2014-12-04T08:37:54Z</time>
      </trkpt>
      <trkpt lat="42.91768" lon="0.22423">
        <ele>1801.22</ele>
        <time>2014-12-04T08:38:07Z</time>
      </trkpt>
      <trkpt lat="42.91763" lon="0.22435">
        <ele>1802.39</ele>
        <time>2014-12-04T08:38:18Z</time>
      </trkpt>
      <trkpt lat="42.91758" lon="0.22449">
        <ele>1803.45</ele>
        <time>2014-12-04T08:38:30Z</time>
      </trkpt>
      <trkpt lat="42.91753" lon="0.22467">
        <ele>1804.8</ele>
        <time>2014-12-04T08:38:44Z</time>
      </trkpt>
      <trkpt lat="42.9175" lon="0.22481">
        <ele>1805.4</ele>
        <time>2014-12-04T08:38:56Z</time>
      </trkpt>
      <trkpt lat="42.91743" lon="0.22496">
        <ele>1807</ele>
        <time>2014-12-04T08:39:11Z</time>
      </trkpt>
      <trkpt lat="42.91739" lon="0.22512">
        <ele>1808.37</ele>
        <time>2014-12-04T08:39:25Z</time>
      </trkpt>
      <trkpt lat="42.91736" lon="0.22525">
        <ele>1809.36</ele>
        <time>2014-12-04T08:39:38Z</time>
      </trkpt>
      <trkpt lat="42.91733" lon="0.2254">
        <ele>1810.72</ele>
        <time>2014-12-04T08:39:52Z</time>
      </trkpt>
      <trkpt lat="42.91729" lon="0.22554">
        <ele>1811.46</ele>
        <time>2014-12-04T08:40:06Z</time>
      </trkpt>
      <trkpt lat="42.91725" lon="0.22556">
        <ele>1811.71</ele>
        <time>2014-12-04T08:40:17Z</time>
      </trkpt>
      <trkpt lat="42.91726" lon="0.22556">
        <ele>1811.82</ele>
        <time>2014-12-04T08:40:40Z</time>
      </trkpt>
      <trkpt lat="42.91726" lon="0.22555">
        <ele>1811.86</ele>
        <time>2014-12-04T08:41:09Z</time>
      </trkpt>
      <trkpt lat="42.91725" lon="0.22555">
        <ele>1811.63</ele>
        <time>2014-12-04T08:41:37Z</time>
      </trkpt>
      <trkpt lat="42.91725" lon="0.22555">
        <ele>1811.89</ele>
        <time>2014-12-04T08:42:02Z</time>
      </trkpt>
      <trkpt lat="42.91725" lon="0.22556">
        <ele>1811.87</ele>
        <time>2014-12-04T08:42:29Z</time>
      </trkpt>
      <trkpt lat="42.91725" lon="0.22556">
        <ele>1812.04</ele>
        <time>2014-12-04T08:42:58Z</time>
      </trkpt>
      <trkpt lat="42.91724" lon="0.22555">
        <ele>1811.52</ele>
        <time>2014-12-04T08:43:20Z</time>
      </trkpt>
      <trkpt lat="42.91725" lon="0.22555">
        <ele>1812.16</ele>
        <time>2014-12-04T08:43:53Z</time>
      </trkpt>
      <trkpt lat="42.91724" lon="0.22555">
        <ele>1812.04</ele>
        <time>2014-12-04T08:44:23Z</time>
      </trkpt>
      <trkpt lat="42.91724" lon="0.22556">
        <ele>1812.28</ele>
        <time>2014-12-04T08:44:47Z</time>
      </trkpt>
      <trkpt lat="42.91725" lon="0.22554">
        <ele>1812.12</ele>
        <time>2014-12-04T08:45:29Z</time>
      </trkpt>
      <trkpt lat="42.91725" lon="0.22554">
        <ele>1811.43</ele>
        <time>2014-12-04T08:46:01Z</time>
      </trkpt>
      <trkpt lat="42.91725" lon="0.22553">
        <ele>1811.79</ele>
        <time>2014-12-04T08:46:26Z</time>
      </trkpt>
      <trkpt lat="42.91724" lon="0.22554">
        <ele>1811.27</ele>
        <time>2014-12-04T08:46:56Z</time>
      </trkpt>
      <trkpt lat="42.91718" lon="0.22554">
        <ele>1811.37</ele>
        <time>2014-12-04T08:47:16Z</time>
      </trkpt>
      <trkpt lat="42.91708" lon="0.22554">
        <ele>1812.76</ele>
        <time>2014-12-04T08:47:32Z</time>
      </trkpt>
      <trkpt lat="42.91699" lon="0.22557">
        <ele>1815.69</ele>
        <time>2014-12-04T08:47:50Z</time>
      </trkpt>
      <trkpt lat="42.91695" lon="0.2255">
        <ele>1817.82</ele>
        <time>2014-12-04T08:48:03Z</time>
      </trkpt>
      <trkpt lat="42.91687" lon="0.22541">
        <ele>1820.83</ele>
        <time>2014-12-04T08:48:19Z</time>
      </trkpt>
      <trkpt lat="42.91676" lon="0.22541">
        <ele>1823.18</ele>
        <time>2014-12-04T08:48:35Z</time>
      </trkpt>
      <trkpt lat="42.91673" lon="0.22542">
        <ele>1823.79</ele>
        <time>2014-12-04T08:48:40Z</time>
      </trkpt>
      <trkpt lat="42.91657" lon="0.22548">
        <ele>1824.85</ele>
        <time>2014-12-04T08:48:57Z</time>
      </trkpt>
      <trkpt lat="42.91646" lon="0.22556">
        <ele>1825.68</ele>
        <time>2014-12-04T08:49:11Z</time>
      </trkpt>
      <trkpt lat="42.9164" lon="0.22559">
        <ele>1826.19</ele>
        <time>2014-12-04T08:49:18Z</time>
      </trkpt>
      <trkpt lat="42.91626" lon="0.22564">
        <ele>1827.59</ele>
        <time>2014-12-04T08:49:33Z</time>
      </trkpt>
      <trkpt lat="42.91615" lon="0.22567">
        <ele>1828.58</ele>
        <time>2014-12-04T08:49:45Z</time>
      </trkpt>
      <trkpt lat="42.91605" lon="0.22569">
        <ele>1830.07</ele>
        <time>2014-12-04T08:49:58Z</time>
      </trkpt>
      <trkpt lat="42.91598" lon="0.22568">
        <ele>1830.3</ele>
        <time>2014-12-04T08:50:05Z</time>
      </trkpt>
      <trkpt lat="42.91595" lon="0.22568">
        <ele>1830.43</ele>
        <time>2014-12-04T08:50:10Z</time>
      </trkpt>
      <trkpt lat="42.91587" lon="0.2257">
        <ele>1829.88</ele>
        <time>2014-12-04T08:50:19Z</time>
      </trkpt>
      <trkpt lat="42.91574" lon="0.2257">
        <ele>1828.09</ele>
        <time>2014-12-04T08:50:32Z</time>
      </trkpt>
      <trkpt lat="42.91562" lon="0.22572">
        <ele>1827.27</ele>
        <time>2014-12-04T08:50:43Z</time>
      </trkpt>
      <trkpt lat="42.91547" lon="0.22572">
        <ele>1827.11</ele>
        <time>2014-12-04T08:50:58Z</time>
      </trkpt>
      <trkpt lat="42.91544" lon="0.22573">
        <ele>1827.41</ele>
        <time>2014-12-04T08:51:02Z</time>
      </trkpt>
      <trkpt lat="42.91541" lon="0.22574">
        <ele>1827.58</ele>
        <time>2014-12-04T08:51:05Z</time>
      </trkpt>
      <trkpt lat="42.91525" lon="0.22575">
        <ele>1828.76</ele>
        <time>2014-12-04T08:51:22Z</time>
      </trkpt>
      <trkpt lat="42.91514" lon="0.22576">
        <ele>1830.58</ele>
        <time>2014-12-04T08:51:37Z</time>
      </trkpt>
      <trkpt lat="42.91503" lon="0.22576">
        <ele>1832.41</ele>
        <time>2014-12-04T08:51:53Z</time>
      </trkpt>
      <trkpt lat="42.9149" lon="0.22576">
        <ele>1834.19</ele>
        <time>2014-12-04T08:52:08Z</time>
      </trkpt>
      <trkpt lat="42.91479" lon="0.22577">
        <ele>1836.19</ele>
        <time>2014-12-04T08:52:22Z</time>
      </trkpt>
      <trkpt lat="42.91468" lon="0.22577">
        <ele>1838.5</ele>
        <time>2014-12-04T08:52:39Z</time>
      </trkpt>
      <trkpt lat="42.91459" lon="0.22579">
        <ele>1840.48</ele>
        <time>2014-12-04T08:52:51Z</time>
      </trkpt>
      <trkpt lat="42.91451" lon="0.2258">
        <ele>1842.7</ele>
        <time>2014-12-04T08:53:09Z</time>
      </trkpt>
      <trkpt lat="42.91443" lon="0.22581">
        <ele>1845.29</ele>
        <time>2014-12-04T08:53:26Z</time>
      </trkpt>
      <trkpt lat="42.91435" lon="0.22584">
        <ele>1847.99</ele>
        <time>2014-12-04T08:53:43Z</time>
      </trkpt>
      <trkpt lat="42.91431" lon="0.22588">
        <ele>1850.34</ele>
        <time>2014-12-04T08:53:59Z</time>
      </trkpt>
      <trkpt lat="42.91425" lon="0.22595">
        <ele>1853.44</ele>
        <time>2014-12-04T08:54:16Z</time>
      </trkpt>
      <trkpt lat="42.91414" lon="0.22601">
        <ele>1856.21</ele>
        <time>2014-12-04T08:54:34Z</time>
      </trkpt>
      <trkpt lat="42.91404" lon="0.22603">
        <ele>1857.78</ele>
        <time>2014-12-04T08:54:47Z</time>
      </trkpt>
      <trkpt lat="42.91394" lon="0.22603">
        <ele>1860.15</ele>
        <time>2014-12-04T08:55:03Z</time>
      </trkpt>
      <trkpt lat="42.91382" lon="0.22598">
        <ele>1862.6</ele>
        <time>2014-12-04T08:55:23Z</time>
      </trkpt>
      <trkpt lat="42.91372" lon="0.22595">
        <ele>1864.84</ele>
        <time>2014-12-04T08:55:39Z</time>
      </trkpt>
      <trkpt lat="42.91361" lon="0.22591">
        <ele>1867.29</ele>
        <time>2014-12-04T08:55:56Z</time>
      </trkpt>
      <trkpt lat="42.91353" lon="0.2259">
        <ele>1868.22</ele>
        <time>2014-12-04T08:56:07Z</time>
      </trkpt>
      <trkpt lat="42.91349" lon="0.2259">
        <ele>1868.46</ele>
        <time>2014-12-04T08:56:11Z</time>
      </trkpt>
      <trkpt lat="42.9134" lon="0.2259">
        <ele>1868.47</ele>
        <time>2014-12-04T08:56:23Z</time>
      </trkpt>
      <trkpt lat="42.91331" lon="0.22589">
        <ele>1868.06</ele>
        <time>2014-12-04T08:56:34Z</time>
      </trkpt>
      <trkpt lat="42.91329" lon="0.22589">
        <ele>1868.06</ele>
        <time>2014-12-04T08:56:36Z</time>
      </trkpt>
      <trkpt lat="42.91319" lon="0.22592">
        <ele>1868.71</ele>
        <time>2014-12-04T08:56:48Z</time>
      </trkpt>
      <trkpt lat="42.91308" lon="0.22592">
        <ele>1869.02</ele>
        <time>2014-12-04T08:56:59Z</time>
      </trkpt>
      <trkpt lat="42.91302" lon="0.22596">
        <ele>1869.13</ele>
        <time>2014-12-04T08:57:09Z</time>
      </trkpt>
      <trkpt lat="42.91298" lon="0.22598">
        <ele>1869.28</ele>
        <time>2014-12-04T08:57:13Z</time>
      </trkpt>
      <trkpt lat="42.91287" lon="0.22603">
        <ele>1869.18</ele>
        <time>2014-12-04T08:57:26Z</time>
      </trkpt>
      <trkpt lat="42.91278" lon="0.22604">
        <ele>1868.12</ele>
        <time>2014-12-04T08:57:38Z</time>
      </trkpt>
      <trkpt lat="42.91266" lon="0.22606">
        <ele>1866.48</ele>
        <time>2014-12-04T08:57:53Z</time>
      </trkpt>
      <trkpt lat="42.91251" lon="0.22608">
        <ele>1865.74</ele>
        <time>2014-12-04T08:58:09Z</time>
      </trkpt>
      <trkpt lat="42.91239" lon="0.2261">
        <ele>1865.69</ele>
        <time>2014-12-04T08:58:22Z</time>
      </trkpt>
      <trkpt lat="42.91236" lon="0.2261">
        <ele>1865.62</ele>
        <time>2014-12-04T08:58:25Z</time>
      </trkpt>
      <trkpt lat="42.91223" lon="0.22614">
        <ele>1865.47</ele>
        <time>2014-12-04T08:58:39Z</time>
      </trkpt>
      <trkpt lat="42.91212" lon="0.22616">
        <ele>1866.06</ele>
        <time>2014-12-04T08:58:51Z</time>
      </trkpt>
      <trkpt lat="42.91199" lon="0.22619">
        <ele>1865.23</ele>
        <time>2014-12-04T08:59:05Z</time>
      </trkpt>
      <trkpt lat="42.91188" lon="0.22622">
        <ele>1864.84</ele>
        <time>2014-12-04T08:59:18Z</time>
      </trkpt>
      <trkpt lat="42.91176" lon="0.22628">
        <ele>1863.6</ele>
        <time>2014-12-04T08:59:33Z</time>
      </trkpt>
      <trkpt lat="42.91166" lon="0.22638">
        <ele>1862.33</ele>
        <time>2014-12-04T08:59:45Z</time>
      </trkpt>
      <trkpt lat="42.91152" lon="0.22648">
        <ele>1860.82</ele>
        <time>2014-12-04T09:00:01Z</time>
      </trkpt>
      <trkpt lat="42.91142" lon="0.22658">
        <ele>1860.42</ele>
        <time>2014-12-04T09:00:14Z</time>
      </trkpt>
      <trkpt lat="42.91132" lon="0.2267">
        <ele>1860.29</ele>
        <time>2014-12-04T09:00:27Z</time>
      </trkpt>
      <trkpt lat="42.91121" lon="0.22683">
        <ele>1860.59</ele>
        <time>2014-12-04T09:00:42Z</time>
      </trkpt>
      <trkpt lat="42.9111" lon="0.22695">
        <ele>1861.29</ele>
        <time>2014-12-04T09:00:58Z</time>
      </trkpt>
      <trkpt lat="42.91099" lon="0.22706">
        <ele>1862.77</ele>
        <time>2014-12-04T09:01:13Z</time>
      </trkpt>
      <trkpt lat="42.91095" lon="0.22712">
        <ele>1863.43</ele>
        <time>2014-12-04T09:01:20Z</time>
      </trkpt>
      <trkpt lat="42.91088" lon="0.22724">
        <ele>1864.99</ele>
        <time>2014-12-04T09:01:35Z</time>
      </trkpt>
      <trkpt lat="42.91082" lon="0.22733">
        <ele>1866.37</ele>
        <time>2014-12-04T09:01:48Z</time>
      </trkpt>
      <trkpt lat="42.91074" lon="0.22745">
        <ele>1868.38</ele>
        <time>2014-12-04T09:02:04Z</time>
      </trkpt>
      <trkpt lat="42.91066" lon="0.22757">
        <ele>1870.6</ele>
        <time>2014-12-04T09:02:21Z</time>
      </trkpt>
      <trkpt lat="42.91059" lon="0.22771">
        <ele>1872.92</ele>
        <time>2014-12-04T09:02:39Z</time>
      </trkpt>
      <trkpt lat="42.91049" lon="0.22779">
        <ele>1875.66</ele>
        <time>2014-12-04T09:02:56Z</time>
      </trkpt>
      <trkpt lat="42.9104" lon="0.22789">
        <ele>1878.66</ele>
        <time>2014-12-04T09:03:14Z</time>
      </trkpt>
      <trkpt lat="42.91029" lon="0.22798">
        <ele>1881.83</ele>
        <time>2014-12-04T09:03:36Z</time>
      </trkpt>
      <trkpt lat="42.9102" lon="0.2281">
        <ele>1884.64</ele>
        <time>2014-12-04T09:03:54Z</time>
      </trkpt>
      <trkpt lat="42.91012" lon="0.2282">
        <ele>1887.71</ele>
        <time>2014-12-04T09:04:13Z</time>
      </trkpt>
      <trkpt lat="42.91007" lon="0.22829">
        <ele>1889.72</ele>
        <time>2014-12-04T09:04:26Z</time>
      </trkpt>
      <trkpt lat="42.91001" lon="0.22839">
        <ele>1892.31</ele>
        <time>2014-12-04T09:04:43Z</time>
      </trkpt>
      <trkpt lat="42.90993" lon="0.22847">
        <ele>1895.12</ele>
        <time>2014-12-04T09:05:01Z</time>
      </trkpt>
      <trkpt lat="42.90985" lon="0.22857">
        <ele>1898.22</ele>
        <time>2014-12-04T09:05:20Z</time>
      </trkpt>
      <trkpt lat="42.90977" lon="0.22865">
        <ele>1900.28</ele>
        <time>2014-12-04T09:05:37Z</time>
      </trkpt>
      <trkpt lat="42.90969" lon="0.22868">
        <ele>1903.38</ele>
        <time>2014-12-04T09:05:53Z</time>
      </trkpt>
      <trkpt lat="42.90961" lon="0.22869">
        <ele>1906.27</ele>
        <time>2014-12-04T09:06:09Z</time>
      </trkpt>
      <trkpt lat="42.90954" lon="0.22871">
        <ele>1909.04</ele>
        <time>2014-12-04T09:06:26Z</time>
      </trkpt>
      <trkpt lat="42.90946" lon="0.22871">
        <ele>1912.15</ele>
        <time>2014-12-04T09:06:45Z</time>
      </trkpt>
      <trkpt lat="42.90941" lon="0.22861">
        <ele>1914.75</ele>
        <time>2014-12-04T09:07:05Z</time>
      </trkpt>
      <trkpt lat="42.90935" lon="0.22853">
        <ele>1917.69</ele>
        <time>2014-12-04T09:07:23Z</time>
      </trkpt>
      <trkpt lat="42.90928" lon="0.22846">
        <ele>1920.73</ele>
        <time>2014-12-04T09:07:43Z</time>
      </trkpt>
      <trkpt lat="42.90924" lon="0.22837">
        <ele>1923.15</ele>
        <time>2014-12-04T09:08:00Z</time>
      </trkpt>
      <trkpt lat="42.90918" lon="0.22836">
        <ele>1925.68</ele>
        <time>2014-12-04T09:08:15Z</time>
      </trkpt>
      <trkpt lat="42.90914" lon="0.22831">
        <ele>1928.71</ele>
        <time>2014-12-04T09:08:31Z</time>
      </trkpt>
      <trkpt lat="42.90909" lon="0.22824">
        <ele>1931.74</ele>
        <time>2014-12-04T09:08:48Z</time>
      </trkpt>
      <trkpt lat="42.90904" lon="0.22824">
        <ele>1933.73</ele>
        <time>2014-12-04T09:09:07Z</time>
      </trkpt>
      <trkpt lat="42.90898" lon="0.22825">
        <ele>1936</ele>
        <time>2014-12-04T09:09:24Z</time>
      </trkpt>
      <trkpt lat="42.90891" lon="0.22827">
        <ele>1938.55</ele>
        <time>2014-12-04T09:09:42Z</time>
      </trkpt>
      <trkpt lat="42.90885" lon="0.22828">
        <ele>1940.29</ele>
        <time>2014-12-04T09:09:55Z</time>
      </trkpt>
      <trkpt lat="42.90875" lon="0.22827">
        <ele>1943.28</ele>
        <time>2014-12-04T09:10:17Z</time>
      </trkpt>
      <trkpt lat="42.90874" lon="0.22825">
        <ele>1945.3</ele>
        <time>2014-12-04T09:10:37Z</time>
      </trkpt>
      <trkpt lat="42.90873" lon="0.22825">
        <ele>1945.32</ele>
        <time>2014-12-04T09:10:57Z</time>
      </trkpt>
      <trkpt lat="42.90872" lon="0.22822">
        <ele>1945.13</ele>
        <time>2014-12-04T09:11:15Z</time>
      </trkpt>
      <trkpt lat="42.90871" lon="0.22818">
        <ele>1946.44</ele>
        <time>2014-12-04T09:11:35Z</time>
      </trkpt>
      <trkpt lat="42.90869" lon="0.22817">
        <ele>1946.67</ele>
        <time>2014-12-04T09:11:59Z</time>
      </trkpt>
      <trkpt lat="42.9087" lon="0.22817">
        <ele>1947.39</ele>
        <time>2014-12-04T09:12:23Z</time>
      </trkpt>
      <trkpt lat="42.90869" lon="0.22816">
        <ele>1948.1</ele>
        <time>2014-12-04T09:12:48Z</time>
      </trkpt>
      <trkpt lat="42.90863" lon="0.22814">
        <ele>1949.27</ele>
        <time>2014-12-04T09:13:07Z</time>
      </trkpt>
      <trkpt lat="42.90857" lon="0.22807">
        <ele>1952.28</ele>
        <time>2014-12-04T09:13:25Z</time>
      </trkpt>
      <trkpt lat="42.90851" lon="0.22799">
        <ele>1955.47</ele>
        <time>2014-12-04T09:13:45Z</time>
      </trkpt>
      <trkpt lat="42.90846" lon="0.22793">
        <ele>1958.55</ele>
        <time>2014-12-04T09:14:02Z</time>
      </trkpt>
      <trkpt lat="42.90845" lon="0.22784">
        <ele>1961.41</ele>
        <time>2014-12-04T09:14:19Z</time>
      </trkpt>
      <trkpt lat="42.90842" lon="0.22777">
        <ele>1963.9</ele>
        <time>2014-12-04T09:14:37Z</time>
      </trkpt>
      <trkpt lat="42.90837" lon="0.22775">
        <ele>1966.18</ele>
        <time>2014-12-04T09:14:55Z</time>
      </trkpt>
      <trkpt lat="42.90832" lon="0.22773">
        <ele>1968.94</ele>
        <time>2014-12-04T09:15:14Z</time>
      </trkpt>
      <trkpt lat="42.90824" lon="0.22772">
        <ele>1971.52</ele>
        <time>2014-12-04T09:15:30Z</time>
      </trkpt>
      <trkpt lat="42.90822" lon="0.22767">
        <ele>1973.73</ele>
        <time>2014-12-04T09:15:45Z</time>
      </trkpt>
      <trkpt lat="42.90823" lon="0.22757">
        <ele>1975.62</ele>
        <time>2014-12-04T09:16:04Z</time>
      </trkpt>
      <trkpt lat="42.90821" lon="0.22749">
        <ele>1977.71</ele>
        <time>2014-12-04T09:16:20Z</time>
      </trkpt>
      <trkpt lat="42.90815" lon="0.22743">
        <ele>1979.89</ele>
        <time>2014-12-04T09:16:36Z</time>
      </trkpt>
      <trkpt lat="42.90811" lon="0.22737">
        <ele>1982.97</ele>
        <time>2014-12-04T09:16:56Z</time>
      </trkpt>
      <trkpt lat="42.90806" lon="0.22729">
        <ele>1985.55</ele>
        <time>2014-12-04T09:17:14Z</time>
      </trkpt>
      <trkpt lat="42.908" lon="0.22723">
        <ele>1988.65</ele>
        <time>2014-12-04T09:17:33Z</time>
      </trkpt>
      <trkpt lat="42.90792" lon="0.22725">
        <ele>1991.31</ele>
        <time>2014-12-04T09:17:51Z</time>
      </trkpt>
      <trkpt lat="42.90787" lon="0.22724">
        <ele>1993.89</ele>
        <time>2014-12-04T09:18:09Z</time>
      </trkpt>
      <trkpt lat="42.90784" lon="0.22718">
        <ele>1996.75</ele>
        <time>2014-12-04T09:18:31Z</time>
      </trkpt>
      <trkpt lat="42.90779" lon="0.22717">
        <ele>1999.73</ele>
        <time>2014-12-04T09:18:48Z</time>
      </trkpt>
      <trkpt lat="42.90775" lon="0.22711">
        <ele>2002.57</ele>
        <time>2014-12-04T09:19:10Z</time>
      </trkpt>
      <trkpt lat="42.90768" lon="0.22713">
        <ele>2005.66</ele>
        <time>2014-12-04T09:19:27Z</time>
      </trkpt>
      <trkpt lat="42.90764" lon="0.22709">
        <ele>2008.25</ele>
        <time>2014-12-04T09:19:43Z</time>
      </trkpt>
      <trkpt lat="42.90761" lon="0.22704">
        <ele>2011.25</ele>
        <time>2014-12-04T09:20:02Z</time>
      </trkpt>
      <trkpt lat="42.90756" lon="0.22696">
        <ele>2013.39</ele>
        <time>2014-12-04T09:20:20Z</time>
      </trkpt>
      <trkpt lat="42.9075" lon="0.22689">
        <ele>2016.44</ele>
        <time>2014-12-04T09:20:39Z</time>
      </trkpt>
      <trkpt lat="42.90744" lon="0.22685">
        <ele>2019.21</ele>
        <time>2014-12-04T09:21:01Z</time>
      </trkpt>
      <trkpt lat="42.9074" lon="0.22676">
        <ele>2021.7</ele>
        <time>2014-12-04T09:21:21Z</time>
      </trkpt>
      <trkpt lat="42.90736" lon="0.22667">
        <ele>2023.77</ele>
        <time>2014-12-04T09:21:41Z</time>
      </trkpt>
      <trkpt lat="42.9073" lon="0.22661">
        <ele>2026.82</ele>
        <time>2014-12-04T09:22:01Z</time>
      </trkpt>
      <trkpt lat="42.90724" lon="0.22656">
        <ele>2029.44</ele>
        <time>2014-12-04T09:22:20Z</time>
      </trkpt>
      <trkpt lat="42.90719" lon="0.22651">
        <ele>2031.98</ele>
        <time>2014-12-04T09:22:38Z</time>
      </trkpt>
      <trkpt lat="42.90711" lon="0.22649">
        <ele>2034.82</ele>
        <time>2014-12-04T09:22:57Z</time>
      </trkpt>
      <trkpt lat="42.90706" lon="0.22658">
        <ele>2037.63</ele>
        <time>2014-12-04T09:23:15Z</time>
      </trkpt>
      <trkpt lat="42.90702" lon="0.22662">
        <ele>2040.15</ele>
        <time>2014-12-04T09:23:33Z</time>
      </trkpt>
      <trkpt lat="42.90699" lon="0.22666">
        <ele>2041.74</ele>
        <time>2014-12-04T09:23:50Z</time>
      </trkpt>
      <trkpt lat="42.90698" lon="0.22663">
        <ele>2044.22</ele>
        <time>2014-12-04T09:24:09Z</time>
      </trkpt>
      <trkpt lat="42.90695" lon="0.22658">
        <ele>2046.93</ele>
        <time>2014-12-04T09:24:30Z</time>
      </trkpt>
      <trkpt lat="42.9069" lon="0.22653">
        <ele>2049.21</ele>
        <time>2014-12-04T09:24:50Z</time>
      </trkpt>
      <trkpt lat="42.90685" lon="0.2265">
        <ele>2052.19</ele>
        <time>2014-12-04T09:25:10Z</time>
      </trkpt>
      <trkpt lat="42.90679" lon="0.22644">
        <ele>2054.89</ele>
        <time>2014-12-04T09:25:29Z</time>
      </trkpt>
      <trkpt lat="42.90674" lon="0.22641">
        <ele>2057.32</ele>
        <time>2014-12-04T09:25:50Z</time>
      </trkpt>
      <trkpt lat="42.90671" lon="0.22637">
        <ele>2059.99</ele>
        <time>2014-12-04T09:26:07Z</time>
      </trkpt>
      <trkpt lat="42.90665" lon="0.22633">
        <ele>2062.26</ele>
        <time>2014-12-04T09:26:27Z</time>
      </trkpt>
      <trkpt lat="42.9066" lon="0.22624">
        <ele>2064.5</ele>
        <time>2014-12-04T09:26:47Z</time>
      </trkpt>
      <trkpt lat="42.90655" lon="0.22613">
        <ele>2066.31</ele>
        <time>2014-12-04T09:27:09Z</time>
      </trkpt>
      <trkpt lat="42.90654" lon="0.22612">
        <ele>2066.5</ele>
        <time>2014-12-04T09:27:13Z</time>
      </trkpt>
      <trkpt lat="42.90647" lon="0.22609">
        <ele>2069.12</ele>
        <time>2014-12-04T09:27:33Z</time>
      </trkpt>
      <trkpt lat="42.90642" lon="0.22609">
        <ele>2070.93</ele>
        <time>2014-12-04T09:27:52Z</time>
      </trkpt>
      <trkpt lat="42.90638" lon="0.22616">
        <ele>2073.03</ele>
        <time>2014-12-04T09:28:11Z</time>
      </trkpt>
      <trkpt lat="42.90638" lon="0.22616">
        <ele>2074.83</ele>
        <time>2014-12-04T09:28:29Z</time>
      </trkpt>
      <trkpt lat="42.90635" lon="0.22615">
        <ele>2076.53</ele>
        <time>2014-12-04T09:28:49Z</time>
      </trkpt>
      <trkpt lat="42.90633" lon="0.22613">
        <ele>2078.39</ele>
        <time>2014-12-04T09:29:09Z</time>
      </trkpt>
      <trkpt lat="42.90631" lon="0.22617">
        <ele>2080.61</ele>
        <time>2014-12-04T09:29:27Z</time>
      </trkpt>
      <trkpt lat="42.90631" lon="0.22616">
        <ele>2081.65</ele>
        <time>2014-12-04T09:29:45Z</time>
      </trkpt>
      <trkpt lat="42.9063" lon="0.22616">
        <ele>2082.85</ele>
        <time>2014-12-04T09:30:03Z</time>
      </trkpt>
      <trkpt lat="42.90627" lon="0.22614">
        <ele>2084.97</ele>
        <time>2014-12-04T09:30:23Z</time>
      </trkpt>
      <trkpt lat="42.90624" lon="0.22612">
        <ele>2086.12</ele>
        <time>2014-12-04T09:30:42Z</time>
      </trkpt>
      <trkpt lat="42.9062" lon="0.22609">
        <ele>2088.3</ele>
        <time>2014-12-04T09:31:01Z</time>
      </trkpt>
      <trkpt lat="42.90616" lon="0.22607">
        <ele>2089.63</ele>
        <time>2014-12-04T09:31:19Z</time>
      </trkpt>
      <trkpt lat="42.90614" lon="0.22609">
        <ele>2090.94</ele>
        <time>2014-12-04T09:31:39Z</time>
      </trkpt>
      <trkpt lat="42.90611" lon="0.22607">
        <ele>2092.18</ele>
        <time>2014-12-04T09:31:55Z</time>
      </trkpt>
      <trkpt lat="42.90606" lon="0.22603">
        <ele>2093.53</ele>
        <time>2014-12-04T09:32:15Z</time>
      </trkpt>
      <trkpt lat="42.90602" lon="0.22598">
        <ele>2095.88</ele>
        <time>2014-12-04T09:32:34Z</time>
      </trkpt>
      <trkpt lat="42.906" lon="0.22596">
        <ele>2097.37</ele>
        <time>2014-12-04T09:32:54Z</time>
      </trkpt>
      <trkpt lat="42.90595" lon="0.22599">
        <ele>2099.21</ele>
        <time>2014-12-04T09:33:12Z</time>
      </trkpt>
      <trkpt lat="42.90595" lon="0.226">
        <ele>2101.09</ele>
        <time>2014-12-04T09:33:30Z</time>
      </trkpt>
      <trkpt lat="42.90592" lon="0.22608">
        <ele>2103.28</ele>
        <time>2014-12-04T09:33:47Z</time>
      </trkpt>
      <trkpt lat="42.90591" lon="0.22617">
        <ele>2104.56</ele>
        <time>2014-12-04T09:34:06Z</time>
      </trkpt>
      <trkpt lat="42.90594" lon="0.22625">
        <ele>2106.09</ele>
        <time>2014-12-04T09:34:24Z</time>
      </trkpt>
      <trkpt lat="42.90596" lon="0.22627">
        <ele>2107.94</ele>
        <time>2014-12-04T09:34:43Z</time>
      </trkpt>
      <trkpt lat="42.90592" lon="0.22622">
        <ele>2109.81</ele>
        <time>2014-12-04T09:35:03Z</time>
      </trkpt>
      <trkpt lat="42.90588" lon="0.2262">
        <ele>2111.93</ele>
        <time>2014-12-04T09:35:22Z</time>
      </trkpt>
      <trkpt lat="42.90586" lon="0.22616">
        <ele>2113.22</ele>
        <time>2014-12-04T09:35:40Z</time>
      </trkpt>
      <trkpt lat="42.90583" lon="0.22614">
        <ele>2114.57</ele>
        <time>2014-12-04T09:35:56Z</time>
      </trkpt>
      <trkpt lat="42.90578" lon="0.22618">
        <ele>2116.14</ele>
        <time>2014-12-04T09:36:13Z</time>
      </trkpt>
      <trkpt lat="42.90578" lon="0.22621">
        <ele>2117.25</ele>
        <time>2014-12-04T09:36:32Z</time>
      </trkpt>
      <trkpt lat="42.90575" lon="0.2262">
        <ele>2119.12</ele>
        <time>2014-12-04T09:36:53Z</time>
      </trkpt>
      <trkpt lat="42.90573" lon="0.22617">
        <ele>2121.39</ele>
        <time>2014-12-04T09:37:13Z</time>
      </trkpt>
      <trkpt lat="42.90573" lon="0.22616">
        <ele>2121.35</ele>
        <time>2014-12-04T09:37:37Z</time>
      </trkpt>
      <trkpt lat="42.90573" lon="0.22617">
        <ele>2121.29</ele>
        <time>2014-12-04T09:37:57Z</time>
      </trkpt>
      <trkpt lat="42.90573" lon="0.22619">
        <ele>2121.28</ele>
        <time>2014-12-04T09:38:21Z</time>
      </trkpt>
      <trkpt lat="42.90572" lon="0.22621">
        <ele>2121.1</ele>
        <time>2014-12-04T09:38:48Z</time>
      </trkpt>
      <trkpt lat="42.90572" lon="0.22621">
        <ele>2121.32</ele>
        <time>2014-12-04T09:39:13Z</time>
      </trkpt>
      <trkpt lat="42.90573" lon="0.22622">
        <ele>2121.09</ele>
        <time>2014-12-04T09:39:33Z</time>
      </trkpt>
      <trkpt lat="42.90574" lon="0.22621">
        <ele>2120.86</ele>
        <time>2014-12-04T09:40:04Z</time>
      </trkpt>
      <trkpt lat="42.90574" lon="0.22619">
        <ele>2120.73</ele>
        <time>2014-12-04T09:40:31Z</time>
      </trkpt>
      <trkpt lat="42.90574" lon="0.22618">
        <ele>2120.81</ele>
        <time>2014-12-04T09:40:51Z</time>
      </trkpt>
      <trkpt lat="42.90571" lon="0.2262">
        <ele>2121.8</ele>
        <time>2014-12-04T09:41:49Z</time>
      </trkpt>
      <trkpt lat="42.90573" lon="0.22616">
        <ele>2121.86</ele>
        <time>2014-12-04T09:41:51Z</time>
      </trkpt>
      <trkpt lat="42.90574" lon="0.22619">
        <ele>2120.65</ele>
        <time>2014-12-04T09:42:14Z</time>
      </trkpt>
      <trkpt lat="42.90573" lon="0.22619">
        <ele>2120.41</ele>
        <time>2014-12-04T09:42:38Z</time>
      </trkpt>
      <trkpt lat="42.90573" lon="0.22619">
        <ele>2120.85</ele>
        <time>2014-12-04T09:43:04Z</time>
      </trkpt>
      <trkpt lat="42.90573" lon="0.22619">
        <ele>2120.4</ele>
        <time>2014-12-04T09:43:24Z</time>
      </trkpt>
      <trkpt lat="42.90574" lon="0.2262">
        <ele>2120.4</ele>
        <time>2014-12-04T09:43:49Z</time>
      </trkpt>
      <trkpt lat="42.90574" lon="0.22619">
        <ele>2120.29</ele>
        <time>2014-12-04T09:44:11Z</time>
      </trkpt>
      <trkpt lat="42.90573" lon="0.2262">
        <ele>2120.93</ele>
        <time>2014-12-04T09:44:33Z</time>
      </trkpt>
      <trkpt lat="42.90574" lon="0.22621">
        <ele>2120.78</ele>
        <time>2014-12-04T09:45:17Z</time>
      </trkpt>
      <trkpt lat="42.90574" lon="0.22621">
        <ele>2121.18</ele>
        <time>2014-12-04T09:45:42Z</time>
      </trkpt>
      <trkpt lat="42.90574" lon="0.2262">
        <ele>2121.07</ele>
        <time>2014-12-04T09:46:12Z</time>
      </trkpt>
      <trkpt lat="42.90574" lon="0.2262">
        <ele>2121.01</ele>
        <time>2014-12-04T09:46:30Z</time>
      </trkpt>
      <trkpt lat="42.90573" lon="0.2262">
        <ele>2120.89</ele>
        <time>2014-12-04T09:46:49Z</time>
      </trkpt>
      <trkpt lat="42.90571" lon="0.22619">
        <ele>2120.83</ele>
        <time>2014-12-04T09:47:14Z</time>
      </trkpt>
      <trkpt lat="42.90568" lon="0.22618">
        <ele>2123.14</ele>
        <time>2014-12-04T09:47:33Z</time>
      </trkpt>
      <trkpt lat="42.90566" lon="0.22614">
        <ele>2124.35</ele>
        <time>2014-12-04T09:47:56Z</time>
      </trkpt>
      <trkpt lat="42.9056" lon="0.22611">
        <ele>2126.16</ele>
        <time>2014-12-04T09:48:16Z</time>
      </trkpt>
      <trkpt lat="42.90555" lon="0.22609">
        <ele>2128</ele>
        <time>2014-12-04T09:48:36Z</time>
      </trkpt>
      <trkpt lat="42.9055" lon="0.22605">
        <ele>2130.55</ele>
        <time>2014-12-04T09:48:55Z</time>
      </trkpt>
      <trkpt lat="42.90544" lon="0.2261">
        <ele>2132.18</ele>
        <time>2014-12-04T09:49:15Z</time>
      </trkpt>
      <trkpt lat="42.90542" lon="0.22614">
        <ele>2134.99</ele>
        <time>2014-12-04T09:49:36Z</time>
      </trkpt>
      <trkpt lat="42.90538" lon="0.2261">
        <ele>2136.85</ele>
        <time>2014-12-04T09:49:56Z</time>
      </trkpt>
      <trkpt lat="42.90534" lon="0.22604">
        <ele>2139.21</ele>
        <time>2014-12-04T09:50:15Z</time>
      </trkpt>
      <trkpt lat="42.90529" lon="0.22599">
        <ele>2141.99</ele>
        <time>2014-12-04T09:50:37Z</time>
      </trkpt>
      <trkpt lat="42.90523" lon="0.22603">
        <ele>2144.4</ele>
        <time>2014-12-04T09:50:57Z</time>
      </trkpt>
      <trkpt lat="42.90517" lon="0.22601">
        <ele>2146.43</ele>
        <time>2014-12-04T09:51:15Z</time>
      </trkpt>
      <trkpt lat="42.90515" lon="0.22604">
        <ele>2149.1</ele>
        <time>2014-12-04T09:51:34Z</time>
      </trkpt>
      <trkpt lat="42.90512" lon="0.22599">
        <ele>2151.43</ele>
        <time>2014-12-04T09:51:52Z</time>
      </trkpt>
      <trkpt lat="42.90506" lon="0.22598">
        <ele>2154.45</ele>
        <time>2014-12-04T09:52:09Z</time>
      </trkpt>
      <trkpt lat="42.90502" lon="0.22601">
        <ele>2156.67</ele>
        <time>2014-12-04T09:52:28Z</time>
      </trkpt>
      <trkpt lat="42.90501" lon="0.22611">
        <ele>2158.69</ele>
        <time>2014-12-04T09:52:48Z</time>
      </trkpt>
      <trkpt lat="42.90498" lon="0.22618">
        <ele>2161.83</ele>
        <time>2014-12-04T09:53:06Z</time>
      </trkpt>
      <trkpt lat="42.90497" lon="0.22617">
        <ele>2164.49</ele>
        <time>2014-12-04T09:53:22Z</time>
      </trkpt>
      <trkpt lat="42.90488" lon="0.22607">
        <ele>2167.43</ele>
        <time>2014-12-04T09:53:44Z</time>
      </trkpt>
      <trkpt lat="42.90482" lon="0.22605">
        <ele>2169.63</ele>
        <time>2014-12-04T09:54:02Z</time>
      </trkpt>
      <trkpt lat="42.90476" lon="0.22602">
        <ele>2172.31</ele>
        <time>2014-12-04T09:54:20Z</time>
      </trkpt>
      <trkpt lat="42.9047" lon="0.226">
        <ele>2174.42</ele>
        <time>2014-12-04T09:54:39Z</time>
      </trkpt>
      <trkpt lat="42.90462" lon="0.22594">
        <ele>2176.85</ele>
        <time>2014-12-04T09:54:58Z</time>
      </trkpt>
      <trkpt lat="42.90458" lon="0.22603">
        <ele>2179.25</ele>
        <time>2014-12-04T09:55:17Z</time>
      </trkpt>
      <trkpt lat="42.90457" lon="0.22616">
        <ele>2182.06</ele>
        <time>2014-12-04T09:55:38Z</time>
      </trkpt>
      <trkpt lat="42.90457" lon="0.22625">
        <ele>2184.36</ele>
        <time>2014-12-04T09:55:57Z</time>
      </trkpt>
      <trkpt lat="42.90456" lon="0.22635">
        <ele>2187.47</ele>
        <time>2014-12-04T09:56:16Z</time>
      </trkpt>
      <trkpt lat="42.90456" lon="0.22648">
        <ele>2190.22</ele>
        <time>2014-12-04T09:56:33Z</time>
      </trkpt>
      <trkpt lat="42.90455" lon="0.22658">
        <ele>2192.75</ele>
        <time>2014-12-04T09:56:48Z</time>
      </trkpt>
      <trkpt lat="42.90454" lon="0.22671">
        <ele>2195.85</ele>
        <time>2014-12-04T09:57:08Z</time>
      </trkpt>
      <trkpt lat="42.90452" lon="0.22669">
        <ele>2197.82</ele>
        <time>2014-12-04T09:57:26Z</time>
      </trkpt>
      <trkpt lat="42.90444" lon="0.22665">
        <ele>2200</ele>
        <time>2014-12-04T09:57:43Z</time>
      </trkpt>
      <trkpt lat="42.90437" lon="0.22658">
        <ele>2202.57</ele>
        <time>2014-12-04T09:58:03Z</time>
      </trkpt>
      <trkpt lat="42.90429" lon="0.22657">
        <ele>2205.01</ele>
        <time>2014-12-04T09:58:20Z</time>
      </trkpt>
      <trkpt lat="42.90423" lon="0.22655">
        <ele>2208.03</ele>
        <time>2014-12-04T09:58:39Z</time>
      </trkpt>
      <trkpt lat="42.90418" lon="0.22663">
        <ele>2211.1</ele>
        <time>2014-12-04T09:58:59Z</time>
      </trkpt>
      <trkpt lat="42.90416" lon="0.22674">
        <ele>2213.83</ele>
        <time>2014-12-04T09:59:16Z</time>
      </trkpt>
      <trkpt lat="42.90415" lon="0.22681">
        <ele>2216.35</ele>
        <time>2014-12-04T09:59:33Z</time>
      </trkpt>
      <trkpt lat="42.90413" lon="0.22682">
        <ele>2218.79</ele>
        <time>2014-12-04T09:59:53Z</time>
      </trkpt>
      <trkpt lat="42.90409" lon="0.22685">
        <ele>2219.68</ele>
        <time>2014-12-04T10:00:09Z</time>
      </trkpt>
      <trkpt lat="42.9041" lon="0.22691">
        <ele>2220.22</ele>
        <time>2014-12-04T10:00:33Z</time>
      </trkpt>
      <trkpt lat="42.90411" lon="0.22689">
        <ele>2220.27</ele>
        <time>2014-12-04T10:00:59Z</time>
      </trkpt>
      <trkpt lat="42.90409" lon="0.2269">
        <ele>2220.48</ele>
        <time>2014-12-04T10:01:24Z</time>
      </trkpt>
      <trkpt lat="42.9041" lon="0.22691">
        <ele>2218.71</ele>
        <time>2014-12-04T10:01:46Z</time>
      </trkpt>
      <trkpt lat="42.90408" lon="0.22685">
        <ele>2220.4</ele>
        <time>2014-12-04T10:02:03Z</time>
      </trkpt>
      <trkpt lat="42.90409" lon="0.22692">
        <ele>2221.26</ele>
        <time>2014-12-04T10:02:24Z</time>
      </trkpt>
      <trkpt lat="42.90407" lon="0.22693">
        <ele>2221.42</ele>
        <time>2014-12-04T10:02:45Z</time>
      </trkpt>
      <trkpt lat="42.90406" lon="0.22692">
        <ele>2221.36</ele>
        <time>2014-12-04T10:03:10Z</time>
      </trkpt>
      <trkpt lat="42.90405" lon="0.22691">
        <ele>2221.25</ele>
        <time>2014-12-04T10:03:31Z</time>
      </trkpt>
      <trkpt lat="42.90406" lon="0.22693">
        <ele>2220.99</ele>
        <time>2014-12-04T10:03:53Z</time>
      </trkpt>
      <trkpt lat="42.90407" lon="0.22692">
        <ele>2221</ele>
        <time>2014-12-04T10:04:17Z</time>
      </trkpt>
      <trkpt lat="42.90407" lon="0.22691">
        <ele>2221.15</ele>
        <time>2014-12-04T10:04:21Z</time>
      </trkpt>
      <trkpt lat="42.90406" lon="0.22689">
        <ele>2221.03</ele>
        <time>2014-12-04T10:04:43Z</time>
      </trkpt>
      <trkpt lat="42.90406" lon="0.22688">
        <ele>2220.96</ele>
        <time>2014-12-04T10:05:05Z</time>
      </trkpt>
      <trkpt lat="42.90405" lon="0.22689">
        <ele>2221.01</ele>
        <time>2014-12-04T10:05:30Z</time>
      </trkpt>
      <trkpt lat="42.90405" lon="0.22687">
        <ele>2220.98</ele>
        <time>2014-12-04T10:05:53Z</time>
      </trkpt>
      <trkpt lat="42.90405" lon="0.22688">
        <ele>2221.08</ele>
        <time>2014-12-04T10:06:23Z</time>
      </trkpt>
      <trkpt lat="42.90406" lon="0.22689">
        <ele>2221</ele>
        <time>2014-12-04T10:06:45Z</time>
      </trkpt>
      <trkpt lat="42.90406" lon="0.22689">
        <ele>2220.81</ele>
        <time>2014-12-04T10:07:07Z</time>
      </trkpt>
      <trkpt lat="42.90405" lon="0.22689">
        <ele>2220.81</ele>
        <time>2014-12-04T10:07:30Z</time>
      </trkpt>
      <trkpt lat="42.90405" lon="0.22688">
        <ele>2220.94</ele>
        <time>2014-12-04T10:07:51Z</time>
      </trkpt>
      <trkpt lat="42.90407" lon="0.22688">
        <ele>2221.2</ele>
        <time>2014-12-04T10:08:15Z</time>
      </trkpt>
      <trkpt lat="42.90407" lon="0.22692">
        <ele>2221.28</ele>
        <time>2014-12-04T10:08:38Z</time>
      </trkpt>
      <trkpt lat="42.90406" lon="0.22689">
        <ele>2221.48</ele>
        <time>2014-12-04T10:08:59Z</time>
      </trkpt>
      <trkpt lat="42.90405" lon="0.22689">
        <ele>2220.92</ele>
        <time>2014-12-04T10:09:26Z</time>
      </trkpt>
      <trkpt lat="42.90406" lon="0.22689">
        <ele>2221.01</ele>
        <time>2014-12-04T10:09:51Z</time>
      </trkpt>
      <trkpt lat="42.90406" lon="0.22689">
        <ele>2220.95</ele>
        <time>2014-12-04T10:10:18Z</time>
      </trkpt>
      <trkpt lat="42.90406" lon="0.22687">
        <ele>2221.09</ele>
        <time>2014-12-04T10:10:45Z</time>
      </trkpt>
      <trkpt lat="42.90405" lon="0.22684">
        <ele>2221.45</ele>
        <time>2014-12-04T10:11:12Z</time>
      </trkpt>
      <trkpt lat="42.90396" lon="0.22676">
        <ele>2223.45</ele>
        <time>2014-12-04T10:11:32Z</time>
      </trkpt>
      <trkpt lat="42.90385" lon="0.22675">
        <ele>2226.08</ele>
        <time>2014-12-04T10:11:51Z</time>
      </trkpt>
      <trkpt lat="42.90375" lon="0.22675">
        <ele>2228.66</ele>
        <time>2014-12-04T10:12:11Z</time>
      </trkpt>
      <trkpt lat="42.90368" lon="0.22672">
        <ele>2231.09</ele>
        <time>2014-12-04T10:12:27Z</time>
      </trkpt>
      <trkpt lat="42.90359" lon="0.22667">
        <ele>2234.09</ele>
        <time>2014-12-04T10:12:45Z</time>
      </trkpt>
      <trkpt lat="42.90349" lon="0.22661">
        <ele>2236.52</ele>
        <time>2014-12-04T10:13:06Z</time>
      </trkpt>
      <trkpt lat="42.9034" lon="0.22656">
        <ele>2238.89</ele>
        <time>2014-12-04T10:13:25Z</time>
      </trkpt>
      <trkpt lat="42.90328" lon="0.22649">
        <ele>2241.67</ele>
        <time>2014-12-04T10:13:46Z</time>
      </trkpt>
      <trkpt lat="42.90318" lon="0.22641">
        <ele>2244.37</ele>
        <time>2014-12-04T10:14:05Z</time>
      </trkpt>
      <trkpt lat="42.9031" lon="0.22636">
        <ele>2246.53</ele>
        <time>2014-12-04T10:14:22Z</time>
      </trkpt>
      <trkpt lat="42.903" lon="0.2263">
        <ele>2249.07</ele>
        <time>2014-12-04T10:14:41Z</time>
      </trkpt>
      <trkpt lat="42.9029" lon="0.22622">
        <ele>2251.42</ele>
        <time>2014-12-04T10:15:02Z</time>
      </trkpt>
      <trkpt lat="42.9028" lon="0.22616">
        <ele>2253.53</ele>
        <time>2014-12-04T10:15:20Z</time>
      </trkpt>
      <trkpt lat="42.9027" lon="0.22611">
        <ele>2256.16</ele>
        <time>2014-12-04T10:15:39Z</time>
      </trkpt>
      <trkpt lat="42.90261" lon="0.226">
        <ele>2258.96</ele>
        <time>2014-12-04T10:16:01Z</time>
      </trkpt>
      <trkpt lat="42.90252" lon="0.22591">
        <ele>2260.93</ele>
        <time>2014-12-04T10:16:18Z</time>
      </trkpt>
      <trkpt lat="42.90241" lon="0.22587">
        <ele>2262.33</ele>
        <time>2014-12-04T10:16:36Z</time>
      </trkpt>
      <trkpt lat="42.90231" lon="0.22582">
        <ele>2264.6</ele>
        <time>2014-12-04T10:16:54Z</time>
      </trkpt>
      <trkpt lat="42.90225" lon="0.22577">
        <ele>2266.23</ele>
        <time>2014-12-04T10:17:09Z</time>
      </trkpt>
      <trkpt lat="42.90211" lon="0.22571">
        <ele>2268.32</ele>
        <time>2014-12-04T10:17:28Z</time>
      </trkpt>
      <trkpt lat="42.90198" lon="0.22564">
        <ele>2271.1</ele>
        <time>2014-12-04T10:17:49Z</time>
      </trkpt>
      <trkpt lat="42.90187" lon="0.22556">
        <ele>2273.08</ele>
        <time>2014-12-04T10:18:07Z</time>
      </trkpt>
      <trkpt lat="42.90176" lon="0.22548">
        <ele>2276.01</ele>
        <time>2014-12-04T10:18:26Z</time>
      </trkpt>
      <trkpt lat="42.90165" lon="0.22541">
        <ele>2278.66</ele>
        <time>2014-12-04T10:18:45Z</time>
      </trkpt>
      <trkpt lat="42.90158" lon="0.22539">
        <ele>2280.93</ele>
        <time>2014-12-04T10:19:01Z</time>
      </trkpt>
      <trkpt lat="42.90151" lon="0.22536">
        <ele>2283.78</ele>
        <time>2014-12-04T10:19:21Z</time>
      </trkpt>
      <trkpt lat="42.90144" lon="0.22529">
        <ele>2286.34</ele>
        <time>2014-12-04T10:19:40Z</time>
      </trkpt>
      <trkpt lat="42.9014" lon="0.22521">
        <ele>2287.96</ele>
        <time>2014-12-04T10:19:52Z</time>
      </trkpt>
      <trkpt lat="42.90133" lon="0.22514">
        <ele>2289.39</ele>
        <time>2014-12-04T10:20:08Z</time>
      </trkpt>
      <trkpt lat="42.90127" lon="0.22513">
        <ele>2292</ele>
        <time>2014-12-04T10:20:26Z</time>
      </trkpt>
      <trkpt lat="42.90126" lon="0.22517">
        <ele>2292.11</ele>
        <time>2014-12-04T10:20:50Z</time>
      </trkpt>
      <trkpt lat="42.90125" lon="0.22518">
        <ele>2292.36</ele>
        <time>2014-12-04T10:21:12Z</time>
      </trkpt>
      <trkpt lat="42.90125" lon="0.22518">
        <ele>2292.05</ele>
        <time>2014-12-04T10:21:35Z</time>
      </trkpt>
      <trkpt lat="42.90125" lon="0.22518">
        <ele>2292.29</ele>
        <time>2014-12-04T10:22:00Z</time>
      </trkpt>
      <trkpt lat="42.90126" lon="0.2252">
        <ele>2291.99</ele>
        <time>2014-12-04T10:22:22Z</time>
      </trkpt>
      <trkpt lat="42.90126" lon="0.22517">
        <ele>2292</ele>
        <time>2014-12-04T10:22:45Z</time>
      </trkpt>
      <trkpt lat="42.90125" lon="0.22518">
        <ele>2292.2</ele>
        <time>2014-12-04T10:23:09Z</time>
      </trkpt>
      <trkpt lat="42.90124" lon="0.22519">
        <ele>2292.05</ele>
        <time>2014-12-04T10:23:32Z</time>
      </trkpt>
      <trkpt lat="42.90124" lon="0.22518">
        <ele>2291.87</ele>
        <time>2014-12-04T10:23:54Z</time>
      </trkpt>
      <trkpt lat="42.90123" lon="0.22516">
        <ele>2291.8</ele>
        <time>2014-12-04T10:24:19Z</time>
      </trkpt>
      <trkpt lat="42.90123" lon="0.22509">
        <ele>2291.8</ele>
        <time>2014-12-04T10:24:39Z</time>
      </trkpt>
      <trkpt lat="42.90117" lon="0.22505">
        <ele>2293.89</ele>
        <time>2014-12-04T10:24:59Z</time>
      </trkpt>
      <trkpt lat="42.90113" lon="0.22501">
        <ele>2296.71</ele>
        <time>2014-12-04T10:25:16Z</time>
      </trkpt>
      <trkpt lat="42.90108" lon="0.22494">
        <ele>2299.49</ele>
        <time>2014-12-04T10:25:33Z</time>
      </trkpt>
      <trkpt lat="42.901" lon="0.22495">
        <ele>2302.19</ele>
        <time>2014-12-04T10:25:52Z</time>
      </trkpt>
      <trkpt lat="42.90098" lon="0.2249">
        <ele>2304.44</ele>
        <time>2014-12-04T10:26:08Z</time>
      </trkpt>
      <trkpt lat="42.90091" lon="0.22482">
        <ele>2307.12</ele>
        <time>2014-12-04T10:26:28Z</time>
      </trkpt>
      <trkpt lat="42.90083" lon="0.22474">
        <ele>2309.69</ele>
        <time>2014-12-04T10:26:47Z</time>
      </trkpt>
      <trkpt lat="42.90076" lon="0.22466">
        <ele>2312.11</ele>
        <time>2014-12-04T10:27:05Z</time>
      </trkpt>
      <trkpt lat="42.90072" lon="0.22469">
        <ele>2313.52</ele>
        <time>2014-12-04T10:27:20Z</time>
      </trkpt>
      <trkpt lat="42.90067" lon="0.22467">
        <ele>2316.56</ele>
        <time>2014-12-04T10:27:39Z</time>
      </trkpt>
      <trkpt lat="42.90063" lon="0.22468">
        <ele>2318.54</ele>
        <time>2014-12-04T10:27:54Z</time>
      </trkpt>
      <trkpt lat="42.90059" lon="0.22466">
        <ele>2320.38</ele>
        <time>2014-12-04T10:28:09Z</time>
      </trkpt>
      <trkpt lat="42.90057" lon="0.22469">
        <ele>2322.84</ele>
        <time>2014-12-04T10:28:27Z</time>
      </trkpt>
      <trkpt lat="42.90053" lon="0.22467">
        <ele>2325.08</ele>
        <time>2014-12-04T10:28:43Z</time>
      </trkpt>
      <trkpt lat="42.90043" lon="0.22457">
        <ele>2327.45</ele>
        <time>2014-12-04T10:29:03Z</time>
      </trkpt>
      <trkpt lat="42.90035" lon="0.22457">
        <ele>2330.22</ele>
        <time>2014-12-04T10:29:23Z</time>
      </trkpt>
      <trkpt lat="42.90027" lon="0.22458">
        <ele>2333.24</ele>
        <time>2014-12-04T10:29:42Z</time>
      </trkpt>
      <trkpt lat="42.90021" lon="0.22454">
        <ele>2335.54</ele>
        <time>2014-12-04T10:30:01Z</time>
      </trkpt>
      <trkpt lat="42.90012" lon="0.22455">
        <ele>2338.26</ele>
        <time>2014-12-04T10:30:21Z</time>
      </trkpt>
      <trkpt lat="42.90004" lon="0.22456">
        <ele>2340.72</ele>
        <time>2014-12-04T10:30:40Z</time>
      </trkpt>
      <trkpt lat="42.89993" lon="0.22462">
        <ele>2342.65</ele>
        <time>2014-12-04T10:30:58Z</time>
      </trkpt>
      <trkpt lat="42.89979" lon="0.22465">
        <ele>2344.02</ele>
        <time>2014-12-04T10:31:17Z</time>
      </trkpt>
      <trkpt lat="42.89966" lon="0.22468">
        <ele>2345.79</ele>
        <time>2014-12-04T10:31:38Z</time>
      </trkpt>
      <trkpt lat="42.89956" lon="0.22469">
        <ele>2346.42</ele>
        <time>2014-12-04T10:31:54Z</time>
      </trkpt>
      <trkpt lat="42.8995" lon="0.22483">
        <ele>2348.41</ele>
        <time>2014-12-04T10:32:11Z</time>
      </trkpt>
      <trkpt lat="42.8994" lon="0.22494">
        <ele>2350.88</ele>
        <time>2014-12-04T10:32:29Z</time>
      </trkpt>
      <trkpt lat="42.89935" lon="0.22506">
        <ele>2352.32</ele>
        <time>2014-12-04T10:32:46Z</time>
      </trkpt>
      <trkpt lat="42.89927" lon="0.22523">
        <ele>2353.95</ele>
        <time>2014-12-04T10:33:05Z</time>
      </trkpt>
      <trkpt lat="42.89926" lon="0.22531">
        <ele>2355.31</ele>
        <time>2014-12-04T10:33:22Z</time>
      </trkpt>
      <trkpt lat="42.89926" lon="0.22533">
        <ele>2356.12</ele>
        <time>2014-12-04T10:33:39Z</time>
      </trkpt>
      <trkpt lat="42.89925" lon="0.22534">
        <ele>2356.43</ele>
        <time>2014-12-04T10:34:06Z</time>
      </trkpt>
      <trkpt lat="42.89925" lon="0.22533">
        <ele>2356.41</ele>
        <time>2014-12-04T10:34:29Z</time>
      </trkpt>
      <trkpt lat="42.89926" lon="0.22532">
        <ele>2356.41</ele>
        <time>2014-12-04T10:34:48Z</time>
      </trkpt>
      <trkpt lat="42.89919" lon="0.22524">
        <ele>2355.25</ele>
        <time>2014-12-04T10:35:02Z</time>
      </trkpt>
      <trkpt lat="42.89912" lon="0.22514">
        <ele>2353.01</ele>
        <time>2014-12-04T10:35:16Z</time>
      </trkpt>
      <trkpt lat="42.89905" lon="0.22513">
        <ele>2351.75</ele>
        <time>2014-12-04T10:35:25Z</time>
      </trkpt>
      <trkpt lat="42.899" lon="0.22514">
        <ele>2351.22</ele>
        <time>2014-12-04T10:35:31Z</time>
      </trkpt>
      <trkpt lat="42.89888" lon="0.2251">
        <ele>2349.74</ele>
        <time>2014-12-04T10:35:45Z</time>
      </trkpt>
      <trkpt lat="42.89878" lon="0.22503">
        <ele>2348.99</ele>
        <time>2014-12-04T10:36:01Z</time>
      </trkpt>
      <trkpt lat="42.8987" lon="0.22495">
        <ele>2347.83</ele>
        <time>2014-12-04T10:36:13Z</time>
      </trkpt>
      <trkpt lat="42.89861" lon="0.22485">
        <ele>2347.85</ele>
        <time>2014-12-04T10:36:27Z</time>
      </trkpt>
      <trkpt lat="42.89853" lon="0.22478">
        <ele>2347.07</ele>
        <time>2014-12-04T10:36:39Z</time>
      </trkpt>
      <trkpt lat="42.89844" lon="0.22465">
        <ele>2345.18</ele>
        <time>2014-12-04T10:36:56Z</time>
      </trkpt>
      <trkpt lat="42.89838" lon="0.22453">
        <ele>2343.51</ele>
        <time>2014-12-04T10:37:10Z</time>
      </trkpt>
      <trkpt lat="42.89837" lon="0.22451">
        <ele>2343.27</ele>
        <time>2014-12-04T10:37:12Z</time>
      </trkpt>
      <trkpt lat="42.89829" lon="0.22439">
        <ele>2341.87</ele>
        <time>2014-12-04T10:37:25Z</time>
      </trkpt>
      <trkpt lat="42.89818" lon="0.22425">
        <ele>2340.75</ele>
        <time>2014-12-04T10:37:42Z</time>
      </trkpt>
      <trkpt lat="42.89812" lon="0.22414">
        <ele>2339.96</ele>
        <time>2014-12-04T10:37:53Z</time>
      </trkpt>
      <trkpt lat="42.89805" lon="0.22404">
        <ele>2340.14</ele>
        <time>2014-12-04T10:38:06Z</time>
      </trkpt>
      <trkpt lat="42.89795" lon="0.22401">
        <ele>2339.78</ele>
        <time>2014-12-04T10:38:21Z</time>
      </trkpt>
      <trkpt lat="42.89786" lon="0.22397">
        <ele>2338.61</ele>
        <time>2014-12-04T10:38:35Z</time>
      </trkpt>
      <trkpt lat="42.89776" lon="0.22389">
        <ele>2336.61</ele>
        <time>2014-12-04T10:38:50Z</time>
      </trkpt>
      <trkpt lat="42.89772" lon="0.22386">
        <ele>2336</ele>
        <time>2014-12-04T10:39:02Z</time>
      </trkpt>
      <trkpt lat="42.89767" lon="0.22381">
        <ele>2337.47</ele>
        <time>2014-12-04T10:39:17Z</time>
      </trkpt>
      <trkpt lat="42.89758" lon="0.22374">
        <ele>2340.54</ele>
        <time>2014-12-04T10:39:38Z</time>
      </trkpt>
      <trkpt lat="42.89753" lon="0.22371">
        <ele>2341.62</ele>
        <time>2014-12-04T10:39:57Z</time>
      </trkpt>
      <trkpt lat="42.89748" lon="0.22368">
        <ele>2343.85</ele>
        <time>2014-12-04T10:40:12Z</time>
      </trkpt>
      <trkpt lat="42.89745" lon="0.22362">
        <ele>2343.46</ele>
        <time>2014-12-04T10:40:26Z</time>
      </trkpt>
      <trkpt lat="42.89738" lon="0.22357">
        <ele>2342.79</ele>
        <time>2014-12-04T10:40:43Z</time>
      </trkpt>
      <trkpt lat="42.89733" lon="0.22353">
        <ele>2340.22</ele>
        <time>2014-12-04T10:40:59Z</time>
      </trkpt>
      <trkpt lat="42.89731" lon="0.2235">
        <ele>2337.81</ele>
        <time>2014-12-04T10:41:13Z</time>
      </trkpt>
      <trkpt lat="42.89731" lon="0.22343">
        <ele>2335.56</ele>
        <time>2014-12-04T10:41:27Z</time>
      </trkpt>
      <trkpt lat="42.89732" lon="0.22333">
        <ele>2332.5</ele>
        <time>2014-12-04T10:41:46Z</time>
      </trkpt>
      <trkpt lat="42.89727" lon="0.22325">
        <ele>2329.35</ele>
        <time>2014-12-04T10:42:03Z</time>
      </trkpt>
      <trkpt lat="42.89718" lon="0.22308">
        <ele>2326.45</ele>
        <time>2014-12-04T10:42:22Z</time>
      </trkpt>
      <trkpt lat="42.89711" lon="0.22296">
        <ele>2325.41</ele>
        <time>2014-12-04T10:42:38Z</time>
      </trkpt>
      <trkpt lat="42.89705" lon="0.22283">
        <ele>2324.24</ele>
        <time>2014-12-04T10:42:55Z</time>
      </trkpt>
      <trkpt lat="42.89702" lon="0.22277">
        <ele>2324.18</ele>
        <time>2014-12-04T10:43:01Z</time>
      </trkpt>
      <trkpt lat="42.89701" lon="0.22274">
        <ele>2324.17</ele>
        <time>2014-12-04T10:43:04Z</time>
      </trkpt>
      <trkpt lat="42.89697" lon="0.22263">
        <ele>2325.78</ele>
        <time>2014-12-04T10:43:19Z</time>
      </trkpt>
      <trkpt lat="42.89694" lon="0.22256">
        <ele>2326.19</ele>
        <time>2014-12-04T10:43:36Z</time>
      </trkpt>
      <trkpt lat="42.89691" lon="0.22257">
        <ele>2326.65</ele>
        <time>2014-12-04T10:43:55Z</time>
      </trkpt>
      <trkpt lat="42.89689" lon="0.22255">
        <ele>2327.7</ele>
        <time>2014-12-04T10:44:15Z</time>
      </trkpt>
      <trkpt lat="42.89685" lon="0.22248">
        <ele>2328.7</ele>
        <time>2014-12-04T10:44:31Z</time>
      </trkpt>
      <trkpt lat="42.89684" lon="0.22246">
        <ele>2330.01</ele>
        <time>2014-12-04T10:44:48Z</time>
      </trkpt>
      <trkpt lat="42.89682" lon="0.22243">
        <ele>2332.25</ele>
        <time>2014-12-04T10:45:05Z</time>
      </trkpt>
      <trkpt lat="42.8968" lon="0.22242">
        <ele>2332.48</ele>
        <time>2014-12-04T10:45:24Z</time>
      </trkpt>
      <trkpt lat="42.89677" lon="0.22239">
        <ele>2333.39</ele>
        <time>2014-12-04T10:45:40Z</time>
      </trkpt>
      <trkpt lat="42.89674" lon="0.22234">
        <ele>2333.96</ele>
        <time>2014-12-04T10:45:57Z</time>
      </trkpt>
      <trkpt lat="42.89672" lon="0.2223">
        <ele>2334.35</ele>
        <time>2014-12-04T10:46:19Z</time>
      </trkpt>
      <trkpt lat="42.89671" lon="0.22228">
        <ele>2335.61</ele>
        <time>2014-12-04T10:46:39Z</time>
      </trkpt>
      <trkpt lat="42.89668" lon="0.22226">
        <ele>2336.66</ele>
        <time>2014-12-04T10:47:02Z</time>
      </trkpt>
      <trkpt lat="42.89665" lon="0.22221">
        <ele>2339.39</ele>
        <time>2014-12-04T10:47:23Z</time>
      </trkpt>
      <trkpt lat="42.89665" lon="0.2222">
        <ele>2340.17</ele>
        <time>2014-12-04T10:47:43Z</time>
      </trkpt>
      <trkpt lat="42.89663" lon="0.22212">
        <ele>2339.28</ele>
        <time>2014-12-04T10:48:05Z</time>
      </trkpt>
      <trkpt lat="42.8966" lon="0.22206">
        <ele>2338.44</ele>
        <time>2014-12-04T10:48:21Z</time>
      </trkpt>
      <trkpt lat="42.89654" lon="0.22201">
        <ele>2337.56</ele>
        <time>2014-12-04T10:48:38Z</time>
      </trkpt>
      <trkpt lat="42.89647" lon="0.22193">
        <ele>2337.15</ele>
        <time>2014-12-04T10:48:53Z</time>
      </trkpt>
      <trkpt lat="42.89641" lon="0.22184">
        <ele>2337.09</ele>
        <time>2014-12-04T10:49:14Z</time>
      </trkpt>
      <trkpt lat="42.89636" lon="0.22176">
        <ele>2338.54</ele>
        <time>2014-12-04T10:49:32Z</time>
      </trkpt>
      <trkpt lat="42.8963" lon="0.22166">
        <ele>2341.62</ele>
        <time>2014-12-04T10:49:51Z</time>
      </trkpt>
      <trkpt lat="42.89627" lon="0.22152">
        <ele>2343.89</ele>
        <time>2014-12-04T10:50:12Z</time>
      </trkpt>
      <trkpt lat="42.89621" lon="0.22142">
        <ele>2345.66</ele>
        <time>2014-12-04T10:50:31Z</time>
      </trkpt>
      <trkpt lat="42.89612" lon="0.22138">
        <ele>2347.7</ele>
        <time>2014-12-04T10:50:52Z</time>
      </trkpt>
      <trkpt lat="42.89608" lon="0.22133">
        <ele>2350.14</ele>
        <time>2014-12-04T10:51:11Z</time>
      </trkpt>
      <trkpt lat="42.89607" lon="0.22127">
        <ele>2353.09</ele>
        <time>2014-12-04T10:51:32Z</time>
      </trkpt>
      <trkpt lat="42.89603" lon="0.22121">
        <ele>2355.15</ele>
        <time>2014-12-04T10:51:50Z</time>
      </trkpt>
      <trkpt lat="42.896" lon="0.22121">
        <ele>2356.99</ele>
        <time>2014-12-04T10:52:06Z</time>
      </trkpt>
      <trkpt lat="42.89596" lon="0.2212">
        <ele>2358.74</ele>
        <time>2014-12-04T10:52:22Z</time>
      </trkpt>
      <trkpt lat="42.89593" lon="0.22122">
        <ele>2360.56</ele>
        <time>2014-12-04T10:52:39Z</time>
      </trkpt>
      <trkpt lat="42.89587" lon="0.22117">
        <ele>2363.13</ele>
        <time>2014-12-04T10:53:02Z</time>
      </trkpt>
      <trkpt lat="42.89584" lon="0.22116">
        <ele>2364.4</ele>
        <time>2014-12-04T10:53:18Z</time>
      </trkpt>
      <trkpt lat="42.89578" lon="0.22113">
        <ele>2367.45</ele>
        <time>2014-12-04T10:53:38Z</time>
      </trkpt>
      <trkpt lat="42.89574" lon="0.22108">
        <ele>2369.11</ele>
        <time>2014-12-04T10:53:56Z</time>
      </trkpt>
      <trkpt lat="42.89573" lon="0.22106">
        <ele>2370.76</ele>
        <time>2014-12-04T10:54:15Z</time>
      </trkpt>
      <trkpt lat="42.89572" lon="0.22103">
        <ele>2371.02</ele>
        <time>2014-12-04T10:54:37Z</time>
      </trkpt>
      <trkpt lat="42.89569" lon="0.22101">
        <ele>2372.45</ele>
        <time>2014-12-04T10:54:57Z</time>
      </trkpt>
      <trkpt lat="42.89566" lon="0.22104">
        <ele>2374.32</ele>
        <time>2014-12-04T10:55:15Z</time>
      </trkpt>
      <trkpt lat="42.89564" lon="0.22107">
        <ele>2375.65</ele>
        <time>2014-12-04T10:55:29Z</time>
      </trkpt>
      <trkpt lat="42.89562" lon="0.2211">
        <ele>2377.66</ele>
        <time>2014-12-04T10:55:50Z</time>
      </trkpt>
      <trkpt lat="42.89567" lon="0.22108">
        <ele>2378.47</ele>
        <time>2014-12-04T10:56:17Z</time>
      </trkpt>
      <trkpt lat="42.89566" lon="0.22108">
        <ele>2378.61</ele>
        <time>2014-12-04T10:56:36Z</time>
      </trkpt>
      <trkpt lat="42.89567" lon="0.22107">
        <ele>2379.32</ele>
        <time>2014-12-04T10:57:04Z</time>
      </trkpt>
      <trkpt lat="42.89567" lon="0.22106">
        <ele>2379.83</ele>
        <time>2014-12-04T10:57:29Z</time>
      </trkpt>
      <trkpt lat="42.89566" lon="0.22107">
        <ele>2379.56</ele>
        <time>2014-12-04T10:57:49Z</time>
      </trkpt>
      <trkpt lat="42.89567" lon="0.22107">
        <ele>2379.3</ele>
        <time>2014-12-04T10:58:15Z</time>
      </trkpt>
      <trkpt lat="42.89568" lon="0.22106">
        <ele>2379.17</ele>
        <time>2014-12-04T10:58:40Z</time>
      </trkpt>
      <trkpt lat="42.89568" lon="0.22104">
        <ele>2379.39</ele>
        <time>2014-12-04T10:59:07Z</time>
      </trkpt>
      <trkpt lat="42.89567" lon="0.22109">
        <ele>2379.37</ele>
        <time>2014-12-04T10:59:34Z</time>
      </trkpt>
      <trkpt lat="42.89567" lon="0.22107">
        <ele>2379.13</ele>
        <time>2014-12-04T10:59:58Z</time>
      </trkpt>
      <trkpt lat="42.8957" lon="0.22104">
        <ele>2379.7</ele>
        <time>2014-12-04T11:00:17Z</time>
      </trkpt>
      <trkpt lat="42.89569" lon="0.22102">
        <ele>2379.1</ele>
        <time>2014-12-04T11:00:48Z</time>
      </trkpt>
      <trkpt lat="42.89567" lon="0.22099">
        <ele>2380.57</ele>
        <time>2014-12-04T11:01:10Z</time>
      </trkpt>
      <trkpt lat="42.89567" lon="0.22098">
        <ele>2381.92</ele>
        <time>2014-12-04T11:01:16Z</time>
      </trkpt>
      <trkpt lat="42.89564" lon="0.221">
        <ele>2385.55</ele>
        <time>2014-12-04T11:01:22Z</time>
      </trkpt>
      <trkpt lat="42.89556" lon="0.22101">
        <ele>2384.23</ele>
        <time>2014-12-04T11:01:43Z</time>
      </trkpt>
      <trkpt lat="42.89552" lon="0.22101">
        <ele>2387.35</ele>
        <time>2014-12-04T11:02:03Z</time>
      </trkpt>
      <trkpt lat="42.89547" lon="0.221">
        <ele>2389.46</ele>
        <time>2014-12-04T11:02:21Z</time>
      </trkpt>
      <trkpt lat="42.89542" lon="0.22101">
        <ele>2391.2</ele>
        <time>2014-12-04T11:02:39Z</time>
      </trkpt>
      <trkpt lat="42.89541" lon="0.22098">
        <ele>2393.85</ele>
        <time>2014-12-04T11:02:59Z</time>
      </trkpt>
      <trkpt lat="42.89538" lon="0.22097">
        <ele>2395.49</ele>
        <time>2014-12-04T11:03:13Z</time>
      </trkpt>
      <trkpt lat="42.89535" lon="0.22098">
        <ele>2397.9</ele>
        <time>2014-12-04T11:03:32Z</time>
      </trkpt>
      <trkpt lat="42.89535" lon="0.22099">
        <ele>2399.2</ele>
        <time>2014-12-04T11:03:49Z</time>
      </trkpt>
      <trkpt lat="42.89537" lon="0.22098">
        <ele>2400.72</ele>
        <time>2014-12-04T11:04:08Z</time>
      </trkpt>
      <trkpt lat="42.89539" lon="0.22099">
        <ele>2401.23</ele>
        <time>2014-12-04T11:04:32Z</time>
      </trkpt>
      <trkpt lat="42.89537" lon="0.22095">
        <ele>2402.07</ele>
        <time>2014-12-04T11:04:53Z</time>
      </trkpt>
      <trkpt lat="42.89535" lon="0.22094">
        <ele>2401.76</ele>
        <time>2014-12-04T11:05:12Z</time>
      </trkpt>
      <trkpt lat="42.8953" lon="0.22096">
        <ele>2402.02</ele>
        <time>2014-12-04T11:05:34Z</time>
      </trkpt>
      <trkpt lat="42.89529" lon="0.22096">
        <ele>2402.48</ele>
        <time>2014-12-04T11:05:58Z</time>
      </trkpt>
      <trkpt lat="42.89531" lon="0.22096">
        <ele>2403.07</ele>
        <time>2014-12-04T11:06:19Z</time>
      </trkpt>
      <trkpt lat="42.89532" lon="0.22096">
        <ele>2403.26</ele>
        <time>2014-12-04T11:06:33Z</time>
      </trkpt>
      <trkpt lat="42.89536" lon="0.22093">
        <ele>2403.71</ele>
        <time>2014-12-04T11:06:53Z</time>
      </trkpt>
      <trkpt lat="42.89535" lon="0.22094">
        <ele>2403.56</ele>
        <time>2014-12-04T11:07:13Z</time>
      </trkpt>
      <trkpt lat="42.89533" lon="0.22093">
        <ele>2403.69</ele>
        <time>2014-12-04T11:07:31Z</time>
      </trkpt>
      <trkpt lat="42.8953" lon="0.22093">
        <ele>2405.02</ele>
        <time>2014-12-04T11:07:51Z</time>
      </trkpt>
      <trkpt lat="42.8953" lon="0.22095">
        <ele>2405.93</ele>
        <time>2014-12-04T11:08:13Z</time>
      </trkpt>
      <trkpt lat="42.89528" lon="0.22093">
        <ele>2407.04</ele>
        <time>2014-12-04T11:08:32Z</time>
      </trkpt>
      <trkpt lat="42.89526" lon="0.2209">
        <ele>2407.19</ele>
        <time>2014-12-04T11:08:53Z</time>
      </trkpt>
      <trkpt lat="42.89523" lon="0.22088">
        <ele>2409.14</ele>
        <time>2014-12-04T11:09:09Z</time>
      </trkpt>
      <trkpt lat="42.8952" lon="0.22085">
        <ele>2411.07</ele>
        <time>2014-12-04T11:09:24Z</time>
      </trkpt>
      <trkpt lat="42.89522" lon="0.2209">
        <ele>2414.1</ele>
        <time>2014-12-04T11:09:39Z</time>
      </trkpt>
      <trkpt lat="42.89521" lon="0.22096">
        <ele>2416.14</ele>
        <time>2014-12-04T11:09:57Z</time>
      </trkpt>
      <trkpt lat="42.89516" lon="0.22095">
        <ele>2418.25</ele>
        <time>2014-12-04T11:10:16Z</time>
      </trkpt>
      <trkpt lat="42.89514" lon="0.22096">
        <ele>2418.43</ele>
        <time>2014-12-04T11:10:34Z</time>
      </trkpt>
      <trkpt lat="42.89513" lon="0.22097">
        <ele>2418.55</ele>
        <time>2014-12-04T11:10:54Z</time>
      </trkpt>
      <trkpt lat="42.89511" lon="0.22096">
        <ele>2419.17</ele>
        <time>2014-12-04T11:11:15Z</time>
      </trkpt>
      <trkpt lat="42.89511" lon="0.22096">
        <ele>2419.39</ele>
        <time>2014-12-04T11:11:41Z</time>
      </trkpt>
      <trkpt lat="42.8951" lon="0.22096">
        <ele>2418.95</ele>
        <time>2014-12-04T11:12:03Z</time>
      </trkpt>
      <trkpt lat="42.8951" lon="0.22096">
        <ele>2418.75</ele>
        <time>2014-12-04T11:12:23Z</time>
      </trkpt>
      <trkpt lat="42.8951" lon="0.22095">
        <ele>2418.69</ele>
        <time>2014-12-04T11:12:45Z</time>
      </trkpt>
      <trkpt lat="42.89511" lon="0.22096">
        <ele>2418.63</ele>
        <time>2014-12-04T11:13:09Z</time>
      </trkpt>
      <trkpt lat="42.89509" lon="0.22094">
        <ele>2418.43</ele>
        <time>2014-12-04T11:13:36Z</time>
      </trkpt>
      <trkpt lat="42.89507" lon="0.22088">
        <ele>2419.07</ele>
        <time>2014-12-04T11:13:57Z</time>
      </trkpt>
      <trkpt lat="42.89504" lon="0.22082">
        <ele>2417.49</ele>
        <time>2014-12-04T11:14:19Z</time>
      </trkpt>
      <trkpt lat="42.89502" lon="0.22079">
        <ele>2416.93</ele>
        <time>2014-12-04T11:14:40Z</time>
      </trkpt>
      <trkpt lat="42.89502" lon="0.22075">
        <ele>2416.66</ele>
        <time>2014-12-04T11:15:05Z</time>
      </trkpt>
      <trkpt lat="42.89505" lon="0.22074">
        <ele>2416.28</ele>
        <time>2014-12-04T11:15:27Z</time>
      </trkpt>
      <trkpt lat="42.89504" lon="0.22073">
        <ele>2415.66</ele>
        <time>2014-12-04T11:15:49Z</time>
      </trkpt>
      <trkpt lat="42.89503" lon="0.22073">
        <ele>2415.91</ele>
        <time>2014-12-04T11:16:14Z</time>
      </trkpt>
      <trkpt lat="42.89503" lon="0.22074">
        <ele>2416.06</ele>
        <time>2014-12-04T11:16:38Z</time>
      </trkpt>
      <trkpt lat="42.89503" lon="0.22076">
        <ele>2415.65</ele>
        <time>2014-12-04T11:17:01Z</time>
      </trkpt>
      <trkpt lat="42.89504" lon="0.22078">
        <ele>2415.12</ele>
        <time>2014-12-04T11:17:22Z</time>
      </trkpt>
      <trkpt lat="42.89502" lon="0.22077">
        <ele>2415.27</ele>
        <time>2014-12-04T11:17:44Z</time>
      </trkpt>
      <trkpt lat="42.89501" lon="0.22077">
        <ele>2415.61</ele>
        <time>2014-12-04T11:18:10Z</time>
      </trkpt>
      <trkpt lat="42.89502" lon="0.22077">
        <ele>2415.52</ele>
        <time>2014-12-04T11:18:33Z</time>
      </trkpt>
      <trkpt lat="42.89503" lon="0.22076">
        <ele>2415.66</ele>
        <time>2014-12-04T11:18:55Z</time>
      </trkpt>
      <trkpt lat="42.89502" lon="0.22076">
        <ele>2415.88</ele>
        <time>2014-12-04T11:19:33Z</time>
      </trkpt>
      <trkpt lat="42.89502" lon="0.22076">
        <ele>2415.85</ele>
        <time>2014-12-04T11:19:56Z</time>
      </trkpt>
      <trkpt lat="42.89502" lon="0.22075">
        <ele>2415.52</ele>
        <time>2014-12-04T11:20:20Z</time>
      </trkpt>
      <trkpt lat="42.89501" lon="0.22076">
        <ele>2415.66</ele>
        <time>2014-12-04T11:20:44Z</time>
      </trkpt>
      <trkpt lat="42.895" lon="0.22076">
        <ele>2416.24</ele>
        <time>2014-12-04T11:21:09Z</time>
      </trkpt>
      <trkpt lat="42.89502" lon="0.22076">
        <ele>2415.57</ele>
        <time>2014-12-04T11:21:35Z</time>
      </trkpt>
      <trkpt lat="42.89503" lon="0.22075">
        <ele>2415.21</ele>
        <time>2014-12-04T11:22:00Z</time>
      </trkpt>
      <trkpt lat="42.89505" lon="0.22076">
        <ele>2415.47</ele>
        <time>2014-12-04T11:22:27Z</time>
      </trkpt>
      <trkpt lat="42.89505" lon="0.22073">
        <ele>2415.71</ele>
        <time>2014-12-04T11:22:44Z</time>
      </trkpt>
      <trkpt lat="42.89504" lon="0.22072">
        <ele>2416.1</ele>
        <time>2014-12-04T11:23:24Z</time>
      </trkpt>
      <trkpt lat="42.89505" lon="0.22073">
        <ele>2416.24</ele>
        <time>2014-12-04T11:23:44Z</time>
      </trkpt>
      <trkpt lat="42.89506" lon="0.22075">
        <ele>2415.93</ele>
        <time>2014-12-04T11:24:02Z</time>
      </trkpt>
      <trkpt lat="42.89506" lon="0.22076">
        <ele>2416.22</ele>
        <time>2014-12-04T11:24:20Z</time>
      </trkpt>
      <trkpt lat="42.89506" lon="0.22075">
        <ele>2416.22</ele>
        <time>2014-12-04T11:24:37Z</time>
      </trkpt>
      <trkpt lat="42.89505" lon="0.22076">
        <ele>2416.21</ele>
        <time>2014-12-04T11:25:07Z</time>
      </trkpt>
      <trkpt lat="42.89505" lon="0.22077">
        <ele>2416.19</ele>
        <time>2014-12-04T11:25:35Z</time>
      </trkpt>
      <trkpt lat="42.89504" lon="0.22077">
        <ele>2416.22</ele>
        <time>2014-12-04T11:26:00Z</time>
      </trkpt>
      <trkpt lat="42.89504" lon="0.22076">
        <ele>2416.41</ele>
        <time>2014-12-04T11:26:27Z</time>
      </trkpt>
      <trkpt lat="42.89503" lon="0.22076">
        <ele>2416.56</ele>
        <time>2014-12-04T11:26:52Z</time>
      </trkpt>
      <trkpt lat="42.89505" lon="0.22076">
        <ele>2416.54</ele>
        <time>2014-12-04T11:27:21Z</time>
      </trkpt>
      <trkpt lat="42.89506" lon="0.22075">
        <ele>2416.5</ele>
        <time>2014-12-04T11:27:45Z</time>
      </trkpt>
      <trkpt lat="42.89506" lon="0.22074">
        <ele>2416.14</ele>
        <time>2014-12-04T11:28:15Z</time>
      </trkpt>
      <trkpt lat="42.89506" lon="0.22074">
        <ele>2416.22</ele>
        <time>2014-12-04T11:28:42Z</time>
      </trkpt>
      <trkpt lat="42.89507" lon="0.22076">
        <ele>2416.11</ele>
        <time>2014-12-04T11:29:07Z</time>
      </trkpt>
      <trkpt lat="42.89506" lon="0.22076">
        <ele>2416.08</ele>
        <time>2014-12-04T11:29:30Z</time>
      </trkpt>
      <trkpt lat="42.89506" lon="0.22074">
        <ele>2416.18</ele>
        <time>2014-12-04T11:29:51Z</time>
      </trkpt>
      <trkpt lat="42.89505" lon="0.22075">
        <ele>2415.94</ele>
        <time>2014-12-04T11:30:17Z</time>
      </trkpt>
      <trkpt lat="42.89505" lon="0.22073">
        <ele>2416.35</ele>
        <time>2014-12-04T11:30:39Z</time>
      </trkpt>
      <trkpt lat="42.89505" lon="0.22073">
        <ele>2416.24</ele>
        <time>2014-12-04T11:31:03Z</time>
      </trkpt>
      <trkpt lat="42.89505" lon="0.22073">
        <ele>2415.92</ele>
        <time>2014-12-04T11:31:29Z</time>
      </trkpt>
      <trkpt lat="42.89504" lon="0.22072">
        <ele>2416.12</ele>
        <time>2014-12-04T11:31:52Z</time>
      </trkpt>
      <trkpt lat="42.89504" lon="0.22072">
        <ele>2416.04</ele>
        <time>2014-12-04T11:32:16Z</time>
      </trkpt>
      <trkpt lat="42.89504" lon="0.22071">
        <ele>2416.18</ele>
        <time>2014-12-04T11:32:47Z</time>
      </trkpt>
      <trkpt lat="42.89504" lon="0.22071">
        <ele>2416.69</ele>
        <time>2014-12-04T11:33:05Z</time>
      </trkpt>
      <trkpt lat="42.89504" lon="0.22071">
        <ele>2416.3</ele>
        <time>2014-12-04T11:33:38Z</time>
      </trkpt>
      <trkpt lat="42.89504" lon="0.2207">
        <ele>2416.66</ele>
        <time>2014-12-04T11:34:17Z</time>
      </trkpt>
      <trkpt lat="42.89504" lon="0.22071">
        <ele>2416.86</ele>
        <time>2014-12-04T11:34:54Z</time>
      </trkpt>
      <trkpt lat="42.89504" lon="0.22071">
        <ele>2416.49</ele>
        <time>2014-12-04T11:35:25Z</time>
      </trkpt>
      <trkpt lat="42.89504" lon="0.22072">
        <ele>2416.64</ele>
        <time>2014-12-04T11:35:53Z</time>
      </trkpt>
      <trkpt lat="42.89504" lon="0.22073">
        <ele>2416.98</ele>
        <time>2014-12-04T11:36:17Z</time>
      </trkpt>
      <trkpt lat="42.89504" lon="0.22072">
        <ele>2416.79</ele>
        <time>2014-12-04T11:36:40Z</time>
      </trkpt>
      <trkpt lat="42.89503" lon="0.22071">
        <ele>2416.78</ele>
        <time>2014-12-04T11:37:24Z</time>
      </trkpt>
      <trkpt lat="42.89505" lon="0.22071">
        <ele>2416.64</ele>
        <time>2014-12-04T11:38:01Z</time>
      </trkpt>
      <trkpt lat="42.89504" lon="0.22071">
        <ele>2416.95</ele>
        <time>2014-12-04T11:38:37Z</time>
      </trkpt>
      <trkpt lat="42.89504" lon="0.22069">
        <ele>2417</ele>
        <time>2014-12-04T11:39:08Z</time>
      </trkpt>
      <trkpt lat="42.89504" lon="0.2207">
        <ele>2416.72</ele>
        <time>2014-12-04T11:39:42Z</time>
      </trkpt>
      <trkpt lat="42.89504" lon="0.22071">
        <ele>2416.42</ele>
        <time>2014-12-04T11:40:12Z</time>
      </trkpt>
      <trkpt lat="42.89504" lon="0.2207">
        <ele>2416.36</ele>
        <time>2014-12-04T11:40:43Z</time>
      </trkpt>
      <trkpt lat="42.89504" lon="0.22069">
        <ele>2416.3</ele>
        <time>2014-12-04T11:41:16Z</time>
      </trkpt>
      <trkpt lat="42.89504" lon="0.22069">
        <ele>2416.59</ele>
        <time>2014-12-04T11:41:51Z</time>
      </trkpt>
      <trkpt lat="42.89504" lon="0.2207">
        <ele>2416.82</ele>
        <time>2014-12-04T11:42:20Z</time>
      </trkpt>
      <trkpt lat="42.89504" lon="0.2207">
        <ele>2416.81</ele>
        <time>2014-12-04T11:42:42Z</time>
      </trkpt>
      <trkpt lat="42.89504" lon="0.22071">
        <ele>2416.6</ele>
        <time>2014-12-04T11:43:05Z</time>
      </trkpt>
      <trkpt lat="42.89504" lon="0.2207">
        <ele>2416.7</ele>
        <time>2014-12-04T11:43:34Z</time>
      </trkpt>
      <trkpt lat="42.89503" lon="0.22069">
        <ele>2416.92</ele>
        <time>2014-12-04T11:43:58Z</time>
      </trkpt>
      <trkpt lat="42.89504" lon="0.22069">
        <ele>2416.96</ele>
        <time>2014-12-04T11:44:28Z</time>
      </trkpt>
      <trkpt lat="42.89504" lon="0.22069">
        <ele>2416.75</ele>
        <time>2014-12-04T11:44:57Z</time>
      </trkpt>
      <trkpt lat="42.89504" lon="0.2207">
        <ele>2416.57</ele>
        <time>2014-12-04T11:45:23Z</time>
      </trkpt>
      <trkpt lat="42.89504" lon="0.22071">
        <ele>2416.89</ele>
        <time>2014-12-04T11:45:44Z</time>
      </trkpt>
      <trkpt lat="42.89503" lon="0.2207">
        <ele>2416.5</ele>
        <time>2014-12-04T11:46:25Z</time>
      </trkpt>
      <trkpt lat="42.89503" lon="0.22071">
        <ele>2416.56</ele>
        <time>2014-12-04T11:46:58Z</time>
      </trkpt>
      <trkpt lat="42.89503" lon="0.22071">
        <ele>2416.63</ele>
        <time>2014-12-04T11:47:27Z</time>
      </trkpt>
      <trkpt lat="42.89503" lon="0.22072">
        <ele>2416.58</ele>
        <time>2014-12-04T11:47:50Z</time>
      </trkpt>
      <trkpt lat="42.89502" lon="0.2207">
        <ele>2416.71</ele>
        <time>2014-12-04T11:48:04Z</time>
      </trkpt>
      <trkpt lat="42.89502" lon="0.22073">
        <ele>2417.41</ele>
        <time>2014-12-04T11:48:26Z</time>
      </trkpt>
      <trkpt lat="42.89502" lon="0.22074">
        <ele>2417.45</ele>
        <time>2014-12-04T11:48:46Z</time>
      </trkpt>
      <trkpt lat="42.89502" lon="0.22074">
        <ele>2417.4</ele>
        <time>2014-12-04T11:49:07Z</time>
      </trkpt>
      <trkpt lat="42.89503" lon="0.22074">
        <ele>2417.51</ele>
        <time>2014-12-04T11:49:29Z</time>
      </trkpt>
      <trkpt lat="42.89503" lon="0.22074">
        <ele>2417.41</ele>
        <time>2014-12-04T11:49:48Z</time>
      </trkpt>
      <trkpt lat="42.89504" lon="0.22071">
        <ele>2416.91</ele>
        <time>2014-12-04T11:50:07Z</time>
      </trkpt>
      <trkpt lat="42.89505" lon="0.22072">
        <ele>2416.63</ele>
        <time>2014-12-04T11:50:31Z</time>
      </trkpt>
      <trkpt lat="42.89505" lon="0.22072">
        <ele>2416.87</ele>
        <time>2014-12-04T11:50:51Z</time>
      </trkpt>
      <trkpt lat="42.89505" lon="0.22073">
        <ele>2416.99</ele>
        <time>2014-12-04T11:51:08Z</time>
      </trkpt>
      <trkpt lat="42.89505" lon="0.22073">
        <ele>2416.81</ele>
        <time>2014-12-04T11:51:32Z</time>
      </trkpt>
      <trkpt lat="42.89504" lon="0.22072">
        <ele>2416.95</ele>
        <time>2014-12-04T11:52:15Z</time>
      </trkpt>
      <trkpt lat="42.89504" lon="0.22072">
        <ele>2416.78</ele>
        <time>2014-12-04T11:52:52Z</time>
      </trkpt>
      <trkpt lat="42.89503" lon="0.22072">
        <ele>2416.91</ele>
        <time>2014-12-04T11:53:12Z</time>
      </trkpt>
      <trkpt lat="42.89504" lon="0.22072">
        <ele>2416.94</ele>
        <time>2014-12-04T11:53:48Z</time>
      </trkpt>
      <trkpt lat="42.89504" lon="0.22071">
        <ele>2417.01</ele>
        <time>2014-12-04T11:54:10Z</time>
      </trkpt>
      <trkpt lat="42.89504" lon="0.22071">
        <ele>2416.98</ele>
        <time>2014-12-04T11:54:46Z</time>
      </trkpt>
      <trkpt lat="42.89505" lon="0.2207">
        <ele>2416.91</ele>
        <time>2014-12-04T11:55:05Z</time>
      </trkpt>
      <trkpt lat="42.89504" lon="0.22073">
        <ele>2417.06</ele>
        <time>2014-12-04T11:55:27Z</time>
      </trkpt>
      <trkpt lat="42.89504" lon="0.22072">
        <ele>2417.19</ele>
        <time>2014-12-04T11:55:45Z</time>
      </trkpt>
      <trkpt lat="42.89504" lon="0.2207">
        <ele>2417.21</ele>
        <time>2014-12-04T11:56:08Z</time>
      </trkpt>
      <trkpt lat="42.89503" lon="0.2207">
        <ele>2417.17</ele>
        <time>2014-12-04T11:56:39Z</time>
      </trkpt>
      <trkpt lat="42.89503" lon="0.2207">
        <ele>2417.13</ele>
        <time>2014-12-04T11:57:14Z</time>
      </trkpt>
      <trkpt lat="42.89502" lon="0.2207">
        <ele>2416.91</ele>
        <time>2014-12-04T11:57:47Z</time>
      </trkpt>
      <trkpt lat="42.89503" lon="0.22071">
        <ele>2416.76</ele>
        <time>2014-12-04T11:58:15Z</time>
      </trkpt>
      <trkpt lat="42.89503" lon="0.22071">
        <ele>2417</ele>
        <time>2014-12-04T11:58:42Z</time>
      </trkpt>
      <trkpt lat="42.89503" lon="0.2207">
        <ele>2417.2</ele>
        <time>2014-12-04T11:59:14Z</time>
      </trkpt>
      <trkpt lat="42.89503" lon="0.22069">
        <ele>2417.51</ele>
        <time>2014-12-04T11:59:47Z</time>
      </trkpt>
      <trkpt lat="42.89503" lon="0.2207">
        <ele>2417.23</ele>
        <time>2014-12-04T12:00:13Z</time>
      </trkpt>
      <trkpt lat="42.89504" lon="0.2207">
        <ele>2417.21</ele>
        <time>2014-12-04T12:00:41Z</time>
      </trkpt>
      <trkpt lat="42.89503" lon="0.2207">
        <ele>2417.33</ele>
        <time>2014-12-04T12:01:07Z</time>
      </trkpt>
      <trkpt lat="42.89503" lon="0.2207">
        <ele>2417.25</ele>
        <time>2014-12-04T12:01:37Z</time>
      </trkpt>
      <trkpt lat="42.89503" lon="0.2207">
        <ele>2417.45</ele>
        <time>2014-12-04T12:02:09Z</time>
      </trkpt>
      <trkpt lat="42.89503" lon="0.22072">
        <ele>2416.75</ele>
        <time>2014-12-04T12:02:38Z</time>
      </trkpt>
      <trkpt lat="42.89504" lon="0.22073">
        <ele>2417.84</ele>
        <time>2014-12-04T12:02:58Z</time>
      </trkpt>
      <trkpt lat="42.89503" lon="0.22072">
        <ele>2418.56</ele>
        <time>2014-12-04T12:03:18Z</time>
      </trkpt>
      <trkpt lat="42.89504" lon="0.22071">
        <ele>2418.1</ele>
        <time>2014-12-04T12:03:42Z</time>
      </trkpt>
      <trkpt lat="42.89503" lon="0.22072">
        <ele>2418.33</ele>
        <time>2014-12-04T12:04:08Z</time>
      </trkpt>
      <trkpt lat="42.89504" lon="0.22069">
        <ele>2417.7</ele>
        <time>2014-12-04T12:04:32Z</time>
      </trkpt>
      <trkpt lat="42.89503" lon="0.22069">
        <ele>2417.69</ele>
        <time>2014-12-04T12:04:35Z</time>
      </trkpt>
      <trkpt lat="42.89501" lon="0.22072">
        <ele>2418.13</ele>
        <time>2014-12-04T12:04:59Z</time>
      </trkpt>
      <trkpt lat="42.89502" lon="0.22073">
        <ele>2418.31</ele>
        <time>2014-12-04T12:05:22Z</time>
      </trkpt>
      <trkpt lat="42.89502" lon="0.22079">
        <ele>2418.76</ele>
        <time>2014-12-04T12:05:41Z</time>
      </trkpt>
      <trkpt lat="42.89506" lon="0.22086">
        <ele>2420.01</ele>
        <time>2014-12-04T12:05:58Z</time>
      </trkpt>
      <trkpt lat="42.89514" lon="0.2209">
        <ele>2420.13</ele>
        <time>2014-12-04T12:06:17Z</time>
      </trkpt>
      <trkpt lat="42.89516" lon="0.22093">
        <ele>2419.75</ele>
        <time>2014-12-04T12:06:38Z</time>
      </trkpt>
      <trkpt lat="42.89518" lon="0.22094">
        <ele>2419.91</ele>
        <time>2014-12-04T12:06:58Z</time>
      </trkpt>
      <trkpt lat="42.89517" lon="0.22094">
        <ele>2420.03</ele>
        <time>2014-12-04T12:07:21Z</time>
      </trkpt>
      <trkpt lat="42.89518" lon="0.22096">
        <ele>2420.25</ele>
        <time>2014-12-04T12:07:45Z</time>
      </trkpt>
      <trkpt lat="42.8952" lon="0.22097">
        <ele>2419.51</ele>
        <time>2014-12-04T12:08:04Z</time>
      </trkpt>
      <trkpt lat="42.89527" lon="0.22094">
        <ele>2418.8</ele>
        <time>2014-12-04T12:08:26Z</time>
      </trkpt>
      <trkpt lat="42.89524" lon="0.2209">
        <ele>2417.43</ele>
        <time>2014-12-04T12:08:45Z</time>
      </trkpt>
      <trkpt lat="42.89523" lon="0.22085">
        <ele>2415.38</ele>
        <time>2014-12-04T12:09:02Z</time>
      </trkpt>
      <trkpt lat="42.89526" lon="0.22082">
        <ele>2413.3</ele>
        <time>2014-12-04T12:09:19Z</time>
      </trkpt>
      <trkpt lat="42.8953" lon="0.22082">
        <ele>2411.49</ele>
        <time>2014-12-04T12:09:38Z</time>
      </trkpt>
      <trkpt lat="42.89531" lon="0.22085">
        <ele>2411.34</ele>
        <time>2014-12-04T12:09:56Z</time>
      </trkpt>
      <trkpt lat="42.89531" lon="0.22087">
        <ele>2410.6</ele>
        <time>2014-12-04T12:10:17Z</time>
      </trkpt>
      <trkpt lat="42.89533" lon="0.22088">
        <ele>2409.94</ele>
        <time>2014-12-04T12:10:38Z</time>
      </trkpt>
      <trkpt lat="42.89537" lon="0.22089">
        <ele>2407.77</ele>
        <time>2014-12-04T12:10:58Z</time>
      </trkpt>
      <trkpt lat="42.89539" lon="0.22088">
        <ele>2406.29</ele>
        <time>2014-12-04T12:11:21Z</time>
      </trkpt>
      <trkpt lat="42.89541" lon="0.22086">
        <ele>2406.44</ele>
        <time>2014-12-04T12:11:40Z</time>
      </trkpt>
      <trkpt lat="42.89539" lon="0.22086">
        <ele>2406.14</ele>
        <time>2014-12-04T12:12:03Z</time>
      </trkpt>
      <trkpt lat="42.8954" lon="0.22087">
        <ele>2405.69</ele>
        <time>2014-12-04T12:12:22Z</time>
      </trkpt>
      <trkpt lat="42.89541" lon="0.2209">
        <ele>2405.18</ele>
        <time>2014-12-04T12:12:42Z</time>
      </trkpt>
      <trkpt lat="42.89545" lon="0.22092">
        <ele>2404.74</ele>
        <time>2014-12-04T12:13:01Z</time>
      </trkpt>
      <trkpt lat="42.89541" lon="0.22092">
        <ele>2404.61</ele>
        <time>2014-12-04T12:13:25Z</time>
      </trkpt>
      <trkpt lat="42.89541" lon="0.22097">
        <ele>2403.47</ele>
        <time>2014-12-04T12:13:43Z</time>
      </trkpt>
      <trkpt lat="42.89539" lon="0.22101">
        <ele>2402.18</ele>
        <time>2014-12-04T12:14:05Z</time>
      </trkpt>
      <trkpt lat="42.89538" lon="0.22105">
        <ele>2401.55</ele>
        <time>2014-12-04T12:14:27Z</time>
      </trkpt>
      <trkpt lat="42.89539" lon="0.22106">
        <ele>2400.81</ele>
        <time>2014-12-04T12:14:47Z</time>
      </trkpt>
      <trkpt lat="42.89544" lon="0.22105">
        <ele>2399.19</ele>
        <time>2014-12-04T12:15:06Z</time>
      </trkpt>
      <trkpt lat="42.89544" lon="0.22105">
        <ele>2397.84</ele>
        <time>2014-12-04T12:15:24Z</time>
      </trkpt>
      <trkpt lat="42.89547" lon="0.22104">
        <ele>2396.52</ele>
        <time>2014-12-04T12:15:42Z</time>
      </trkpt>
      <trkpt lat="42.8955" lon="0.22104">
        <ele>2395.5</ele>
        <time>2014-12-04T12:16:02Z</time>
      </trkpt>
      <trkpt lat="42.8955" lon="0.22105">
        <ele>2394.96</ele>
        <time>2014-12-04T12:16:19Z</time>
      </trkpt>
      <trkpt lat="42.89554" lon="0.22106">
        <ele>2392.63</ele>
        <time>2014-12-04T12:16:36Z</time>
      </trkpt>
      <trkpt lat="42.89558" lon="0.22105">
        <ele>2390.04</ele>
        <time>2014-12-04T12:16:53Z</time>
      </trkpt>
      <trkpt lat="42.89558" lon="0.22104">
        <ele>2389.8</ele>
        <time>2014-12-04T12:16:54Z</time>
      </trkpt>
      <trkpt lat="42.89557" lon="0.221">
        <ele>2388.67</ele>
        <time>2014-12-04T12:17:17Z</time>
      </trkpt>
      <trkpt lat="42.89558" lon="0.221">
        <ele>2388.65</ele>
        <time>2014-12-04T12:17:38Z</time>
      </trkpt>
      <trkpt lat="42.89558" lon="0.221">
        <ele>2388.48</ele>
        <time>2014-12-04T12:17:59Z</time>
      </trkpt>
      <trkpt lat="42.89557" lon="0.221">
        <ele>2388.51</ele>
        <time>2014-12-04T12:18:23Z</time>
      </trkpt>
      <trkpt lat="42.89555" lon="0.221">
        <ele>2388.67</ele>
        <time>2014-12-04T12:18:49Z</time>
      </trkpt>
      <trkpt lat="42.89557" lon="0.22102">
        <ele>2388.05</ele>
        <time>2014-12-04T12:19:11Z</time>
      </trkpt>
      <trkpt lat="42.89558" lon="0.22102">
        <ele>2387.27</ele>
        <time>2014-12-04T12:19:33Z</time>
      </trkpt>
      <trkpt lat="42.89562" lon="0.22103">
        <ele>2386.91</ele>
        <time>2014-12-04T12:19:54Z</time>
      </trkpt>
      <trkpt lat="42.89562" lon="0.22106">
        <ele>2384.64</ele>
        <time>2014-12-04T12:20:13Z</time>
      </trkpt>
      <trkpt lat="42.89566" lon="0.22102">
        <ele>2383.53</ele>
        <time>2014-12-04T12:20:32Z</time>
      </trkpt>
      <trkpt lat="42.89567" lon="0.22102">
        <ele>2383.5</ele>
        <time>2014-12-04T12:20:56Z</time>
      </trkpt>
      <trkpt lat="42.8957" lon="0.22105">
        <ele>2381.33</ele>
        <time>2014-12-04T12:21:15Z</time>
      </trkpt>
      <trkpt lat="42.89571" lon="0.22104">
        <ele>2379.16</ele>
        <time>2014-12-04T12:21:32Z</time>
      </trkpt>
      <trkpt lat="42.89573" lon="0.22102">
        <ele>2377.43</ele>
        <time>2014-12-04T12:21:51Z</time>
      </trkpt>
      <trkpt lat="42.89575" lon="0.22102">
        <ele>2375.55</ele>
        <time>2014-12-04T12:22:12Z</time>
      </trkpt>
      <trkpt lat="42.89579" lon="0.221">
        <ele>2373.7</ele>
        <time>2014-12-04T12:22:35Z</time>
      </trkpt>
      <trkpt lat="42.89579" lon="0.221">
        <ele>2372.88</ele>
        <time>2014-12-04T12:22:57Z</time>
      </trkpt>
      <trkpt lat="42.89581" lon="0.22102">
        <ele>2371.71</ele>
        <time>2014-12-04T12:23:16Z</time>
      </trkpt>
      <trkpt lat="42.89583" lon="0.22108">
        <ele>2370.71</ele>
        <time>2014-12-04T12:23:31Z</time>
      </trkpt>
      <trkpt lat="42.89588" lon="0.22112">
        <ele>2367.75</ele>
        <time>2014-12-04T12:23:49Z</time>
      </trkpt>
      <trkpt lat="42.89592" lon="0.22116">
        <ele>2365.33</ele>
        <time>2014-12-04T12:24:04Z</time>
      </trkpt>
      <trkpt lat="42.89593" lon="0.2212">
        <ele>2363.78</ele>
        <time>2014-12-04T12:24:21Z</time>
      </trkpt>
      <trkpt lat="42.89593" lon="0.2212">
        <ele>2363.78</ele>
        <time>2014-12-04T12:24:40Z</time>
      </trkpt>
      <trkpt lat="42.89592" lon="0.22119">
        <ele>2364.03</ele>
        <time>2014-12-04T12:25:04Z</time>
      </trkpt>
      <trkpt lat="42.89593" lon="0.22118">
        <ele>2364.35</ele>
        <time>2014-12-04T12:25:27Z</time>
      </trkpt>
      <trkpt lat="42.89592" lon="0.22119">
        <ele>2364.14</ele>
        <time>2014-12-04T12:25:48Z</time>
      </trkpt>
      <trkpt lat="42.89593" lon="0.22119">
        <ele>2364</ele>
        <time>2014-12-04T12:26:16Z</time>
      </trkpt>
      <trkpt lat="42.89593" lon="0.22115">
        <ele>2363.91</ele>
        <time>2014-12-04T12:26:49Z</time>
      </trkpt>
      <trkpt lat="42.89591" lon="0.22118">
        <ele>2364.23</ele>
        <time>2014-12-04T12:27:19Z</time>
      </trkpt>
      <trkpt lat="42.89592" lon="0.2212">
        <ele>2364.22</ele>
        <time>2014-12-04T12:27:53Z</time>
      </trkpt>
      <trkpt lat="42.89591" lon="0.22118">
        <ele>2364.15</ele>
        <time>2014-12-04T12:28:23Z</time>
      </trkpt>
      <trkpt lat="42.89594" lon="0.22116">
        <ele>2363.08</ele>
        <time>2014-12-04T12:28:51Z</time>
      </trkpt>
      <trkpt lat="42.89598" lon="0.22115">
        <ele>2360.29</ele>
        <time>2014-12-04T12:29:10Z</time>
      </trkpt>
      <trkpt lat="42.89601" lon="0.22119">
        <ele>2357.75</ele>
        <time>2014-12-04T12:29:26Z</time>
      </trkpt>
      <trkpt lat="42.89603" lon="0.22121">
        <ele>2355.77</ele>
        <time>2014-12-04T12:29:39Z</time>
      </trkpt>
      <trkpt lat="42.89604" lon="0.22125">
        <ele>2353.39</ele>
        <time>2014-12-04T12:29:54Z</time>
      </trkpt>
      <trkpt lat="42.89607" lon="0.22131">
        <ele>2350.26</ele>
        <time>2014-12-04T12:30:11Z</time>
      </trkpt>
      <trkpt lat="42.89614" lon="0.22137">
        <ele>2348.22</ele>
        <time>2014-12-04T12:30:26Z</time>
      </trkpt>
      <trkpt lat="42.89622" lon="0.22147">
        <ele>2346</ele>
        <time>2014-12-04T12:30:46Z</time>
      </trkpt>
      <trkpt lat="42.89627" lon="0.2216">
        <ele>2344.35</ele>
        <time>2014-12-04T12:31:03Z</time>
      </trkpt>
      <trkpt lat="42.89631" lon="0.22169">
        <ele>2342.49</ele>
        <time>2014-12-04T12:31:19Z</time>
      </trkpt>
      <trkpt lat="42.89637" lon="0.22178">
        <ele>2340.49</ele>
        <time>2014-12-04T12:31:37Z</time>
      </trkpt>
      <trkpt lat="42.89641" lon="0.22186">
        <ele>2338.35</ele>
        <time>2014-12-04T12:31:55Z</time>
      </trkpt>
      <trkpt lat="42.89644" lon="0.22192">
        <ele>2338.08</ele>
        <time>2014-12-04T12:32:11Z</time>
      </trkpt>
      <trkpt lat="42.8965" lon="0.22197">
        <ele>2338.42</ele>
        <time>2014-12-04T12:32:26Z</time>
      </trkpt>
      <trkpt lat="42.89656" lon="0.22201">
        <ele>2338.76</ele>
        <time>2014-12-04T12:32:43Z</time>
      </trkpt>
      <trkpt lat="42.89662" lon="0.22206">
        <ele>2339.25</ele>
        <time>2014-12-04T12:32:58Z</time>
      </trkpt>
      <trkpt lat="42.89664" lon="0.22211">
        <ele>2340.42</ele>
        <time>2014-12-04T12:33:16Z</time>
      </trkpt>
      <trkpt lat="42.89666" lon="0.22214">
        <ele>2340.62</ele>
        <time>2014-12-04T12:33:35Z</time>
      </trkpt>
      <trkpt lat="42.89666" lon="0.22216">
        <ele>2340.47</ele>
        <time>2014-12-04T12:33:57Z</time>
      </trkpt>
      <trkpt lat="42.89667" lon="0.22218">
        <ele>2339.56</ele>
        <time>2014-12-04T12:34:18Z</time>
      </trkpt>
      <trkpt lat="42.89668" lon="0.22222">
        <ele>2338.04</ele>
        <time>2014-12-04T12:34:37Z</time>
      </trkpt>
      <trkpt lat="42.8967" lon="0.22224">
        <ele>2337.11</ele>
        <time>2014-12-04T12:34:51Z</time>
      </trkpt>
      <trkpt lat="42.89671" lon="0.22229">
        <ele>2335.73</ele>
        <time>2014-12-04T12:35:07Z</time>
      </trkpt>
      <trkpt lat="42.89675" lon="0.22232">
        <ele>2335.25</ele>
        <time>2014-12-04T12:35:26Z</time>
      </trkpt>
      <trkpt lat="42.89677" lon="0.22232">
        <ele>2335.1</ele>
        <time>2014-12-04T12:35:45Z</time>
      </trkpt>
      <trkpt lat="42.89679" lon="0.22236">
        <ele>2334.22</ele>
        <time>2014-12-04T12:36:03Z</time>
      </trkpt>
      <trkpt lat="42.8968" lon="0.22237">
        <ele>2333.39</ele>
        <time>2014-12-04T12:36:21Z</time>
      </trkpt>
      <trkpt lat="42.89685" lon="0.2224">
        <ele>2332.57</ele>
        <time>2014-12-04T12:36:39Z</time>
      </trkpt>
      <trkpt lat="42.89688" lon="0.22244">
        <ele>2330.04</ele>
        <time>2014-12-04T12:36:56Z</time>
      </trkpt>
      <trkpt lat="42.89689" lon="0.22249">
        <ele>2329</ele>
        <time>2014-12-04T12:37:16Z</time>
      </trkpt>
      <trkpt lat="42.89692" lon="0.22252">
        <ele>2327.16</ele>
        <time>2014-12-04T12:37:33Z</time>
      </trkpt>
      <trkpt lat="42.89696" lon="0.2226">
        <ele>2326.72</ele>
        <time>2014-12-04T12:37:52Z</time>
      </trkpt>
      <trkpt lat="42.89696" lon="0.22265">
        <ele>2325.63</ele>
        <time>2014-12-04T12:38:09Z</time>
      </trkpt>
      <trkpt lat="42.89697" lon="0.22267">
        <ele>2325.38</ele>
        <time>2014-12-04T12:38:28Z</time>
      </trkpt>
      <trkpt lat="42.89697" lon="0.22267">
        <ele>2325.06</ele>
        <time>2014-12-04T12:38:47Z</time>
      </trkpt>
      <trkpt lat="42.89696" lon="0.22268">
        <ele>2324.98</ele>
        <time>2014-12-04T12:39:08Z</time>
      </trkpt>
      <trkpt lat="42.89698" lon="0.22267">
        <ele>2325.3</ele>
        <time>2014-12-04T12:39:30Z</time>
      </trkpt>
      <trkpt lat="42.89698" lon="0.22268">
        <ele>2324.89</ele>
        <time>2014-12-04T12:39:58Z</time>
      </trkpt>
      <trkpt lat="42.89697" lon="0.22268">
        <ele>2325.04</ele>
        <time>2014-12-04T12:40:25Z</time>
      </trkpt>
      <trkpt lat="42.89696" lon="0.22268">
        <ele>2324.73</ele>
        <time>2014-12-04T12:40:48Z</time>
      </trkpt>
      <trkpt lat="42.89698" lon="0.22267">
        <ele>2324.76</ele>
        <time>2014-12-04T12:41:09Z</time>
      </trkpt>
      <trkpt lat="42.89699" lon="0.22271">
        <ele>2324.62</ele>
        <time>2014-12-04T12:41:30Z</time>
      </trkpt>
      <trkpt lat="42.89701" lon="0.22278">
        <ele>2324.67</ele>
        <time>2014-12-04T12:41:47Z</time>
      </trkpt>
      <trkpt lat="42.89707" lon="0.22288">
        <ele>2325.68</ele>
        <time>2014-12-04T12:42:04Z</time>
      </trkpt>
      <trkpt lat="42.89712" lon="0.22297">
        <ele>2326.35</ele>
        <time>2014-12-04T12:42:21Z</time>
      </trkpt>
      <trkpt lat="42.89718" lon="0.2231">
        <ele>2327.3</ele>
        <time>2014-12-04T12:42:41Z</time>
      </trkpt>
      <trkpt lat="42.89723" lon="0.22318">
        <ele>2329.5</ele>
        <time>2014-12-04T12:43:01Z</time>
      </trkpt>
      <trkpt lat="42.89724" lon="0.22326">
        <ele>2332.43</ele>
        <time>2014-12-04T12:43:23Z</time>
      </trkpt>
      <trkpt lat="42.89726" lon="0.22338">
        <ele>2335.52</ele>
        <time>2014-12-04T12:43:43Z</time>
      </trkpt>
      <trkpt lat="42.89729" lon="0.22344">
        <ele>2338.53</ele>
        <time>2014-12-04T12:44:00Z</time>
      </trkpt>
      <trkpt lat="42.89729" lon="0.22348">
        <ele>2340.8</ele>
        <time>2014-12-04T12:44:18Z</time>
      </trkpt>
      <trkpt lat="42.89731" lon="0.2235">
        <ele>2341.58</ele>
        <time>2014-12-04T12:44:38Z</time>
      </trkpt>
      <trkpt lat="42.89732" lon="0.22349">
        <ele>2341.96</ele>
        <time>2014-12-04T12:45:01Z</time>
      </trkpt>
      <trkpt lat="42.89732" lon="0.22348">
        <ele>2342.46</ele>
        <time>2014-12-04T12:45:23Z</time>
      </trkpt>
      <trkpt lat="42.89733" lon="0.22348">
        <ele>2342.38</ele>
        <time>2014-12-04T12:45:46Z</time>
      </trkpt>
      <trkpt lat="42.89733" lon="0.22348">
        <ele>2342.85</ele>
        <time>2014-12-04T12:46:13Z</time>
      </trkpt>
      <trkpt lat="42.89733" lon="0.22348">
        <ele>2342.93</ele>
        <time>2014-12-04T12:46:36Z</time>
      </trkpt>
      <trkpt lat="42.89736" lon="0.2235">
        <ele>2342.81</ele>
        <time>2014-12-04T12:47:00Z</time>
      </trkpt>
      <trkpt lat="42.89736" lon="0.22352">
        <ele>2343.59</ele>
        <time>2014-12-04T12:47:32Z</time>
      </trkpt>
      <trkpt lat="42.89738" lon="0.22353">
        <ele>2344.13</ele>
        <time>2014-12-04T12:47:54Z</time>
      </trkpt>
      <trkpt lat="42.89738" lon="0.22353">
        <ele>2344.14</ele>
        <time>2014-12-04T12:48:25Z</time>
      </trkpt>
      <trkpt lat="42.89738" lon="0.22354">
        <ele>2344.09</ele>
        <time>2014-12-04T12:48:50Z</time>
      </trkpt>
      <trkpt lat="42.89741" lon="0.22355">
        <ele>2344.04</ele>
        <time>2014-12-04T12:49:14Z</time>
      </trkpt>
      <trkpt lat="42.89746" lon="0.22359">
        <ele>2345.33</ele>
        <time>2014-12-04T12:49:33Z</time>
      </trkpt>
      <trkpt lat="42.8975" lon="0.22363">
        <ele>2345.89</ele>
        <time>2014-12-04T12:49:52Z</time>
      </trkpt>
      <trkpt lat="42.89757" lon="0.22366">
        <ele>2343.49</ele>
        <time>2014-12-04T12:50:09Z</time>
      </trkpt>
      <trkpt lat="42.89765" lon="0.22374">
        <ele>2341.21</ele>
        <time>2014-12-04T12:50:27Z</time>
      </trkpt>
      <trkpt lat="42.89773" lon="0.22382">
        <ele>2338.47</ele>
        <time>2014-12-04T12:50:42Z</time>
      </trkpt>
      <trkpt lat="42.89782" lon="0.22388">
        <ele>2337.83</ele>
        <time>2014-12-04T12:50:56Z</time>
      </trkpt>
      <trkpt lat="42.89789" lon="0.22399">
        <ele>2340.58</ele>
        <time>2014-12-04T12:51:13Z</time>
      </trkpt>
      <trkpt lat="42.89798" lon="0.22409">
        <ele>2343.66</ele>
        <time>2014-12-04T12:51:32Z</time>
      </trkpt>
      <trkpt lat="42.89809" lon="0.22414">
        <ele>2343.08</ele>
        <time>2014-12-04T12:51:44Z</time>
      </trkpt>
      <trkpt lat="42.89818" lon="0.22422">
        <ele>2342.35</ele>
        <time>2014-12-04T12:51:56Z</time>
      </trkpt>
      <trkpt lat="42.8982" lon="0.22425">
        <ele>2342.58</ele>
        <time>2014-12-04T12:51:59Z</time>
      </trkpt>
      <trkpt lat="42.89828" lon="0.22438">
        <ele>2343.04</ele>
        <time>2014-12-04T12:52:12Z</time>
      </trkpt>
      <trkpt lat="42.89836" lon="0.22448">
        <ele>2343.81</ele>
        <time>2014-12-04T12:52:26Z</time>
      </trkpt>
      <trkpt lat="42.89845" lon="0.2246">
        <ele>2345.21</ele>
        <time>2014-12-04T12:52:43Z</time>
      </trkpt>
      <trkpt lat="42.89856" lon="0.22473">
        <ele>2347.38</ele>
        <time>2014-12-04T12:53:03Z</time>
      </trkpt>
      <trkpt lat="42.89865" lon="0.22485">
        <ele>2348.9</ele>
        <time>2014-12-04T12:53:19Z</time>
      </trkpt>
      <trkpt lat="42.89874" lon="0.22495">
        <ele>2349.3</ele>
        <time>2014-12-04T12:53:34Z</time>
      </trkpt>
      <trkpt lat="42.89884" lon="0.22504">
        <ele>2351.26</ele>
        <time>2014-12-04T12:53:52Z</time>
      </trkpt>
      <trkpt lat="42.89897" lon="0.22508">
        <ele>2352.91</ele>
        <time>2014-12-04T12:54:11Z</time>
      </trkpt>
      <trkpt lat="42.89912" lon="0.22517">
        <ele>2354.87</ele>
        <time>2014-12-04T12:54:32Z</time>
      </trkpt>
      <trkpt lat="42.8992" lon="0.22528">
        <ele>2357.18</ele>
        <time>2014-12-04T12:54:55Z</time>
      </trkpt>
      <trkpt lat="42.89922" lon="0.2253">
        <ele>2357.79</ele>
        <time>2014-12-04T12:55:14Z</time>
      </trkpt>
      <trkpt lat="42.89924" lon="0.22531">
        <ele>2358</ele>
        <time>2014-12-04T12:55:40Z</time>
      </trkpt>
      <trkpt lat="42.89924" lon="0.2253">
        <ele>2358.43</ele>
        <time>2014-12-04T12:56:09Z</time>
      </trkpt>
      <trkpt lat="42.89929" lon="0.22525">
        <ele>2358.14</ele>
        <time>2014-12-04T12:56:26Z</time>
      </trkpt>
      <trkpt lat="42.8993" lon="0.2252">
        <ele>2356.69</ele>
        <time>2014-12-04T12:56:38Z</time>
      </trkpt>
      <trkpt lat="42.89935" lon="0.22513">
        <ele>2355.8</ele>
        <time>2014-12-04T12:56:52Z</time>
      </trkpt>
      <trkpt lat="42.89937" lon="0.22505">
        <ele>2355.46</ele>
        <time>2014-12-04T12:56:59Z</time>
      </trkpt>
      <trkpt lat="42.89944" lon="0.22494">
        <ele>2354.25</ele>
        <time>2014-12-04T12:57:13Z</time>
      </trkpt>
      <trkpt lat="42.8995" lon="0.22486">
        <ele>2353.36</ele>
        <time>2014-12-04T12:57:32Z</time>
      </trkpt>
      <trkpt lat="42.89953" lon="0.22478">
        <ele>2351.7</ele>
        <time>2014-12-04T12:57:46Z</time>
      </trkpt>
      <trkpt lat="42.89962" lon="0.22472">
        <ele>2349.42</ele>
        <time>2014-12-04T12:58:01Z</time>
      </trkpt>
      <trkpt lat="42.89974" lon="0.2247">
        <ele>2348.6</ele>
        <time>2014-12-04T12:58:17Z</time>
      </trkpt>
      <trkpt lat="42.89976" lon="0.22471">
        <ele>2348.4</ele>
        <time>2014-12-04T12:58:19Z</time>
      </trkpt>
      <trkpt lat="42.89989" lon="0.22469">
        <ele>2347.05</ele>
        <time>2014-12-04T12:58:33Z</time>
      </trkpt>
      <trkpt lat="42.90002" lon="0.22462">
        <ele>2345.67</ele>
        <time>2014-12-04T12:58:47Z</time>
      </trkpt>
      <trkpt lat="42.90014" lon="0.22458">
        <ele>2342.59</ele>
        <time>2014-12-04T12:59:01Z</time>
      </trkpt>
      <trkpt lat="42.90023" lon="0.22461">
        <ele>2339.5</ele>
        <time>2014-12-04T12:59:13Z</time>
      </trkpt>
      <trkpt lat="42.9003" lon="0.22463">
        <ele>2336.39</ele>
        <time>2014-12-04T12:59:26Z</time>
      </trkpt>
      <trkpt lat="42.90041" lon="0.2246">
        <ele>2333.3</ele>
        <time>2014-12-04T12:59:40Z</time>
      </trkpt>
      <trkpt lat="42.90052" lon="0.22462">
        <ele>2330.98</ele>
        <time>2014-12-04T12:59:53Z</time>
      </trkpt>
      <trkpt lat="42.90056" lon="0.22466">
        <ele>2329.16</ele>
        <time>2014-12-04T13:00:06Z</time>
      </trkpt>
      <trkpt lat="42.90059" lon="0.22468">
        <ele>2326.66</ele>
        <time>2014-12-04T13:00:19Z</time>
      </trkpt>
      <trkpt lat="42.90064" lon="0.22464">
        <ele>2323.75</ele>
        <time>2014-12-04T13:00:35Z</time>
      </trkpt>
      <trkpt lat="42.9007" lon="0.22466">
        <ele>2320.85</ele>
        <time>2014-12-04T13:00:51Z</time>
      </trkpt>
      <trkpt lat="42.90075" lon="0.22467">
        <ele>2318.41</ele>
        <time>2014-12-04T13:01:05Z</time>
      </trkpt>
      <trkpt lat="42.9008" lon="0.22465">
        <ele>2316.12</ele>
        <time>2014-12-04T13:01:18Z</time>
      </trkpt>
      <trkpt lat="42.90087" lon="0.22471">
        <ele>2313.69</ele>
        <time>2014-12-04T13:01:34Z</time>
      </trkpt>
      <trkpt lat="42.90093" lon="0.22481">
        <ele>2311.05</ele>
        <time>2014-12-04T13:01:50Z</time>
      </trkpt>
      <trkpt lat="42.90097" lon="0.22494">
        <ele>2308.73</ele>
        <time>2014-12-04T13:02:06Z</time>
      </trkpt>
      <trkpt lat="42.90104" lon="0.22498">
        <ele>2306.7</ele>
        <time>2014-12-04T13:02:19Z</time>
      </trkpt>
      <trkpt lat="42.90111" lon="0.22499">
        <ele>2303.43</ele>
        <time>2014-12-04T13:02:31Z</time>
      </trkpt>
      <trkpt lat="42.90117" lon="0.22503">
        <ele>2300.25</ele>
        <time>2014-12-04T13:02:41Z</time>
      </trkpt>
      <trkpt lat="42.90123" lon="0.22503">
        <ele>2297.38</ele>
        <time>2014-12-04T13:02:53Z</time>
      </trkpt>
      <trkpt lat="42.90131" lon="0.22514">
        <ele>2294.23</ele>
        <time>2014-12-04T13:03:07Z</time>
      </trkpt>
      <trkpt lat="42.90138" lon="0.22524">
        <ele>2291.92</ele>
        <time>2014-12-04T13:03:19Z</time>
      </trkpt>
      <trkpt lat="42.90142" lon="0.22529">
        <ele>2290.27</ele>
        <time>2014-12-04T13:03:33Z</time>
      </trkpt>
      <trkpt lat="42.90143" lon="0.22534">
        <ele>2289.79</ele>
        <time>2014-12-04T13:03:54Z</time>
      </trkpt>
      <trkpt lat="42.90143" lon="0.22536">
        <ele>2289.54</ele>
        <time>2014-12-04T13:04:18Z</time>
      </trkpt>
      <trkpt lat="42.90143" lon="0.22537">
        <ele>2289.19</ele>
        <time>2014-12-04T13:04:42Z</time>
      </trkpt>
      <trkpt lat="42.90144" lon="0.22536">
        <ele>2289.1</ele>
        <time>2014-12-04T13:05:05Z</time>
      </trkpt>
      <trkpt lat="42.90143" lon="0.22534">
        <ele>2289.18</ele>
        <time>2014-12-04T13:05:37Z</time>
      </trkpt>
      <trkpt lat="42.90145" lon="0.22537">
        <ele>2288.46</ele>
        <time>2014-12-04T13:05:58Z</time>
      </trkpt>
      <trkpt lat="42.90152" lon="0.22544">
        <ele>2286.99</ele>
        <time>2014-12-04T13:06:10Z</time>
      </trkpt>
      <trkpt lat="42.90158" lon="0.22546">
        <ele>2284.5</ele>
        <time>2014-12-04T13:06:23Z</time>
      </trkpt>
      <trkpt lat="42.90171" lon="0.22553">
        <ele>2281.3</ele>
        <time>2014-12-04T13:06:39Z</time>
      </trkpt>
      <trkpt lat="42.90174" lon="0.22554">
        <ele>2280</ele>
        <time>2014-12-04T13:06:43Z</time>
      </trkpt>
      <trkpt lat="42.90181" lon="0.22559">
        <ele>2277.76</ele>
        <time>2014-12-04T13:06:56Z</time>
      </trkpt>
      <trkpt lat="42.90182" lon="0.2256">
        <ele>2276.73</ele>
        <time>2014-12-04T13:07:14Z</time>
      </trkpt>
      <trkpt lat="42.90193" lon="0.22566">
        <ele>2275.13</ele>
        <time>2014-12-04T13:07:27Z</time>
      </trkpt>
      <trkpt lat="42.90202" lon="0.22572">
        <ele>2273.07</ele>
        <time>2014-12-04T13:07:38Z</time>
      </trkpt>
      <trkpt lat="42.90211" lon="0.22577">
        <ele>2271.2</ele>
        <time>2014-12-04T13:07:49Z</time>
      </trkpt>
      <trkpt lat="42.90222" lon="0.22582">
        <ele>2269.37</ele>
        <time>2014-12-04T13:08:02Z</time>
      </trkpt>
      <trkpt lat="42.90229" lon="0.22587">
        <ele>2268.31</ele>
        <time>2014-12-04T13:08:12Z</time>
      </trkpt>
      <trkpt lat="42.90239" lon="0.22592">
        <ele>2265.92</ele>
        <time>2014-12-04T13:08:24Z</time>
      </trkpt>
      <trkpt lat="42.90249" lon="0.22597">
        <ele>2263.5</ele>
        <time>2014-12-04T13:08:35Z</time>
      </trkpt>
      <trkpt lat="42.90261" lon="0.22612">
        <ele>2260.92</ele>
        <time>2014-12-04T13:08:50Z</time>
      </trkpt>
      <trkpt lat="42.90269" lon="0.22616">
        <ele>2258.72</ele>
        <time>2014-12-04T13:09:03Z</time>
      </trkpt>
      <trkpt lat="42.90275" lon="0.2262">
        <ele>2257.61</ele>
        <time>2014-12-04T13:09:11Z</time>
      </trkpt>
      <trkpt lat="42.90282" lon="0.22622">
        <ele>2255.55</ele>
        <time>2014-12-04T13:09:23Z</time>
      </trkpt>
      <trkpt lat="42.90289" lon="0.22627">
        <ele>2253.93</ele>
        <time>2014-12-04T13:09:35Z</time>
      </trkpt>
      <trkpt lat="42.90297" lon="0.22633">
        <ele>2251.99</ele>
        <time>2014-12-04T13:09:47Z</time>
      </trkpt>
      <trkpt lat="42.90307" lon="0.22639">
        <ele>2249.79</ele>
        <time>2014-12-04T13:10:00Z</time>
      </trkpt>
      <trkpt lat="42.90319" lon="0.22646">
        <ele>2247.18</ele>
        <time>2014-12-04T13:10:14Z</time>
      </trkpt>
      <trkpt lat="42.90329" lon="0.22655">
        <ele>2244.73</ele>
        <time>2014-12-04T13:10:27Z</time>
      </trkpt>
      <trkpt lat="42.90338" lon="0.22663">
        <ele>2242.52</ele>
        <time>2014-12-04T13:10:39Z</time>
      </trkpt>
      <trkpt lat="42.90348" lon="0.22666">
        <ele>2240.02</ele>
        <time>2014-12-04T13:10:52Z</time>
      </trkpt>
      <trkpt lat="42.90357" lon="0.2267">
        <ele>2237.62</ele>
        <time>2014-12-04T13:11:05Z</time>
      </trkpt>
      <trkpt lat="42.90367" lon="0.22675">
        <ele>2234.6</ele>
        <time>2014-12-04T13:11:17Z</time>
      </trkpt>
      <trkpt lat="42.90376" lon="0.22678">
        <ele>2232.39</ele>
        <time>2014-12-04T13:11:26Z</time>
      </trkpt>
      <trkpt lat="42.90385" lon="0.22677">
        <ele>2228.95</ele>
        <time>2014-12-04T13:11:38Z</time>
      </trkpt>
      <trkpt lat="42.90397" lon="0.22683">
        <ele>2225.73</ele>
        <time>2014-12-04T13:11:50Z</time>
      </trkpt>
      <trkpt lat="42.90404" lon="0.22683">
        <ele>2223.3</ele>
        <time>2014-12-04T13:12:06Z</time>
      </trkpt>
      <trkpt lat="42.90412" lon="0.22689">
        <ele>2222.85</ele>
        <time>2014-12-04T13:12:18Z</time>
      </trkpt>
      <trkpt lat="42.90418" lon="0.2269">
        <ele>2221.14</ele>
        <time>2014-12-04T13:12:30Z</time>
      </trkpt>
      <trkpt lat="42.90427" lon="0.22694">
        <ele>2218.07</ele>
        <time>2014-12-04T13:12:47Z</time>
      </trkpt>
      <trkpt lat="42.90435" lon="0.22695">
        <ele>2214.77</ele>
        <time>2014-12-04T13:13:00Z</time>
      </trkpt>
      <trkpt lat="42.90441" lon="0.22695">
        <ele>2211.74</ele>
        <time>2014-12-04T13:13:10Z</time>
      </trkpt>
      <trkpt lat="42.90446" lon="0.22692">
        <ele>2208.72</ele>
        <time>2014-12-04T13:13:21Z</time>
      </trkpt>
      <trkpt lat="42.90452" lon="0.22691">
        <ele>2205.58</ele>
        <time>2014-12-04T13:13:34Z</time>
      </trkpt>
      <trkpt lat="42.90457" lon="0.22694">
        <ele>2202.51</ele>
        <time>2014-12-04T13:13:45Z</time>
      </trkpt>
      <trkpt lat="42.90462" lon="0.22695">
        <ele>2199.84</ele>
        <time>2014-12-04T13:14:02Z</time>
      </trkpt>
      <trkpt lat="42.90469" lon="0.22693">
        <ele>2197.26</ele>
        <time>2014-12-04T13:14:17Z</time>
      </trkpt>
      <trkpt lat="42.90476" lon="0.22694">
        <ele>2194.22</ele>
        <time>2014-12-04T13:14:29Z</time>
      </trkpt>
      <trkpt lat="42.90481" lon="0.22698">
        <ele>2191.08</ele>
        <time>2014-12-04T13:14:40Z</time>
      </trkpt>
      <trkpt lat="42.90488" lon="0.22701">
        <ele>2187.96</ele>
        <time>2014-12-04T13:14:50Z</time>
      </trkpt>
      <trkpt lat="42.90495" lon="0.22702">
        <ele>2184.8</ele>
        <time>2014-12-04T13:15:01Z</time>
      </trkpt>
      <trkpt lat="42.90503" lon="0.22705">
        <ele>2181.57</ele>
        <time>2014-12-04T13:15:12Z</time>
      </trkpt>
      <trkpt lat="42.90507" lon="0.22713">
        <ele>2178.87</ele>
        <time>2014-12-04T13:15:23Z</time>
      </trkpt>
      <trkpt lat="42.90513" lon="0.22715">
        <ele>2176.99</ele>
        <time>2014-12-04T13:15:35Z</time>
      </trkpt>
      <trkpt lat="42.9052" lon="0.22713">
        <ele>2173.82</ele>
        <time>2014-12-04T13:15:49Z</time>
      </trkpt>
      <trkpt lat="42.90525" lon="0.22717">
        <ele>2170.73</ele>
        <time>2014-12-04T13:16:01Z</time>
      </trkpt>
      <trkpt lat="42.90527" lon="0.22719">
        <ele>2167.73</ele>
        <time>2014-12-04T13:16:10Z</time>
      </trkpt>
      <trkpt lat="42.90528" lon="0.22727">
        <ele>2165.76</ele>
        <time>2014-12-04T13:16:27Z</time>
      </trkpt>
      <trkpt lat="42.90527" lon="0.22734">
        <ele>2165.94</ele>
        <time>2014-12-04T13:17:05Z</time>
      </trkpt>
      <trkpt lat="42.90527" lon="0.22734">
        <ele>2166.31</ele>
        <time>2014-12-04T13:17:26Z</time>
      </trkpt>
      <trkpt lat="42.90534" lon="0.22738">
        <ele>2165.26</ele>
        <time>2014-12-04T13:17:43Z</time>
      </trkpt>
      <trkpt lat="42.90539" lon="0.22734">
        <ele>2162.2</ele>
        <time>2014-12-04T13:17:56Z</time>
      </trkpt>
      <trkpt lat="42.90544" lon="0.22732">
        <ele>2159.15</ele>
        <time>2014-12-04T13:18:11Z</time>
      </trkpt>
      <trkpt lat="42.90549" lon="0.22739">
        <ele>2156.68</ele>
        <time>2014-12-04T13:18:27Z</time>
      </trkpt>
      <trkpt lat="42.90553" lon="0.22739">
        <ele>2153.57</ele>
        <time>2014-12-04T13:18:38Z</time>
      </trkpt>
      <trkpt lat="42.90557" lon="0.22735">
        <ele>2150.42</ele>
        <time>2014-12-04T13:18:49Z</time>
      </trkpt>
      <trkpt lat="42.90563" lon="0.22731">
        <ele>2147.17</ele>
        <time>2014-12-04T13:19:03Z</time>
      </trkpt>
      <trkpt lat="42.90567" lon="0.22724">
        <ele>2144.06</ele>
        <time>2014-12-04T13:19:17Z</time>
      </trkpt>
      <trkpt lat="42.9057" lon="0.22718">
        <ele>2141.72</ele>
        <time>2014-12-04T13:19:35Z</time>
      </trkpt>
      <trkpt lat="42.90575" lon="0.22715">
        <ele>2138.94</ele>
        <time>2014-12-04T13:19:51Z</time>
      </trkpt>
      <trkpt lat="42.90581" lon="0.2272">
        <ele>2135.78</ele>
        <time>2014-12-04T13:20:06Z</time>
      </trkpt>
      <trkpt lat="42.90585" lon="0.22725">
        <ele>2132.75</ele>
        <time>2014-12-04T13:20:17Z</time>
      </trkpt>
      <trkpt lat="42.9059" lon="0.22724">
        <ele>2129.56</ele>
        <time>2014-12-04T13:20:33Z</time>
      </trkpt>
      <trkpt lat="42.90594" lon="0.22725">
        <ele>2126.42</ele>
        <time>2014-12-04T13:20:47Z</time>
      </trkpt>
      <trkpt lat="42.90597" lon="0.22723">
        <ele>2123.24</ele>
        <time>2014-12-04T13:21:00Z</time>
      </trkpt>
      <trkpt lat="42.90603" lon="0.22722">
        <ele>2120.05</ele>
        <time>2014-12-04T13:21:12Z</time>
      </trkpt>
      <trkpt lat="42.90608" lon="0.22726">
        <ele>2116.88</ele>
        <time>2014-12-04T13:21:26Z</time>
      </trkpt>
      <trkpt lat="42.90609" lon="0.22728">
        <ele>2113.67</ele>
        <time>2014-12-04T13:21:40Z</time>
      </trkpt>
      <trkpt lat="42.90613" lon="0.2273">
        <ele>2110.47</ele>
        <time>2014-12-04T13:21:51Z</time>
      </trkpt>
      <trkpt lat="42.90616" lon="0.22723">
        <ele>2107.31</ele>
        <time>2014-12-04T13:22:05Z</time>
      </trkpt>
      <trkpt lat="42.90621" lon="0.22717">
        <ele>2104.15</ele>
        <time>2014-12-04T13:22:18Z</time>
      </trkpt>
      <trkpt lat="42.90627" lon="0.2271">
        <ele>2101.06</ele>
        <time>2014-12-04T13:22:31Z</time>
      </trkpt>
      <trkpt lat="42.90634" lon="0.2271">
        <ele>2097.87</ele>
        <time>2014-12-04T13:22:44Z</time>
      </trkpt>
      <trkpt lat="42.90636" lon="0.22708">
        <ele>2094.89</ele>
        <time>2014-12-04T13:22:59Z</time>
      </trkpt>
      <trkpt lat="42.90637" lon="0.22705">
        <ele>2092.48</ele>
        <time>2014-12-04T13:23:13Z</time>
      </trkpt>
      <trkpt lat="42.90642" lon="0.22705">
        <ele>2089.25</ele>
        <time>2014-12-04T13:23:27Z</time>
      </trkpt>
      <trkpt lat="42.90646" lon="0.22703">
        <ele>2086.14</ele>
        <time>2014-12-04T13:23:43Z</time>
      </trkpt>
      <trkpt lat="42.90652" lon="0.22699">
        <ele>2082.98</ele>
        <time>2014-12-04T13:23:59Z</time>
      </trkpt>
      <trkpt lat="42.90655" lon="0.22697">
        <ele>2079.99</ele>
        <time>2014-12-04T13:24:14Z</time>
      </trkpt>
      <trkpt lat="42.90661" lon="0.22694">
        <ele>2076.82</ele>
        <time>2014-12-04T13:24:26Z</time>
      </trkpt>
      <trkpt lat="42.90666" lon="0.227">
        <ele>2073.65</ele>
        <time>2014-12-04T13:24:39Z</time>
      </trkpt>
      <trkpt lat="42.90671" lon="0.22708">
        <ele>2070.49</ele>
        <time>2014-12-04T13:24:56Z</time>
      </trkpt>
      <trkpt lat="42.90675" lon="0.22715">
        <ele>2067.28</ele>
        <time>2014-12-04T13:25:11Z</time>
      </trkpt>
      <trkpt lat="42.90674" lon="0.2271">
        <ele>2064.36</ele>
        <time>2014-12-04T13:25:28Z</time>
      </trkpt>
      <trkpt lat="42.90674" lon="0.22706">
        <ele>2063.66</ele>
        <time>2014-12-04T13:25:45Z</time>
      </trkpt>
      <trkpt lat="42.90675" lon="0.22708">
        <ele>2063.38</ele>
        <time>2014-12-04T13:26:06Z</time>
      </trkpt>
      <trkpt lat="42.90675" lon="0.22707">
        <ele>2063.13</ele>
        <time>2014-12-04T13:26:35Z</time>
      </trkpt>
      <trkpt lat="42.90678" lon="0.22703">
        <ele>2062.23</ele>
        <time>2014-12-04T13:26:49Z</time>
      </trkpt>
      <trkpt lat="42.90682" lon="0.22696">
        <ele>2059.53</ele>
        <time>2014-12-04T13:27:05Z</time>
      </trkpt>
      <trkpt lat="42.90684" lon="0.22689">
        <ele>2056.47</ele>
        <time>2014-12-04T13:27:19Z</time>
      </trkpt>
      <trkpt lat="42.90691" lon="0.22693">
        <ele>2053.75</ele>
        <time>2014-12-04T13:27:36Z</time>
      </trkpt>
      <trkpt lat="42.90697" lon="0.22699">
        <ele>2050.64</ele>
        <time>2014-12-04T13:27:51Z</time>
      </trkpt>
      <trkpt lat="42.907" lon="0.22707">
        <ele>2047.49</ele>
        <time>2014-12-04T13:28:05Z</time>
      </trkpt>
      <trkpt lat="42.90702" lon="0.22711">
        <ele>2044.27</ele>
        <time>2014-12-04T13:28:19Z</time>
      </trkpt>
      <trkpt lat="42.90706" lon="0.22713">
        <ele>2042.64</ele>
        <time>2014-12-04T13:28:36Z</time>
      </trkpt>
      <trkpt lat="42.90711" lon="0.22714">
        <ele>2040.29</ele>
        <time>2014-12-04T13:28:51Z</time>
      </trkpt>
      <trkpt lat="42.90716" lon="0.2271">
        <ele>2037.19</ele>
        <time>2014-12-04T13:29:03Z</time>
      </trkpt>
      <trkpt lat="42.9072" lon="0.22712">
        <ele>2034.9</ele>
        <time>2014-12-04T13:29:10Z</time>
      </trkpt>
      <trkpt lat="42.90723" lon="0.22706">
        <ele>2031.97</ele>
        <time>2014-12-04T13:29:24Z</time>
      </trkpt>
      <trkpt lat="42.90729" lon="0.2271">
        <ele>2028.94</ele>
        <time>2014-12-04T13:29:40Z</time>
      </trkpt>
      <trkpt lat="42.90733" lon="0.2272">
        <ele>2026.01</ele>
        <time>2014-12-04T13:29:56Z</time>
      </trkpt>
      <trkpt lat="42.90734" lon="0.22724">
        <ele>2023.5</ele>
        <time>2014-12-04T13:30:11Z</time>
      </trkpt>
      <trkpt lat="42.9074" lon="0.22724">
        <ele>2020.53</ele>
        <time>2014-12-04T13:30:26Z</time>
      </trkpt>
      <trkpt lat="42.90744" lon="0.22727">
        <ele>2017.79</ele>
        <time>2014-12-04T13:30:40Z</time>
      </trkpt>
      <trkpt lat="42.90744" lon="0.22728">
        <ele>2015.99</ele>
        <time>2014-12-04T13:30:55Z</time>
      </trkpt>
      <trkpt lat="42.90743" lon="0.22725">
        <ele>2015.72</ele>
        <time>2014-12-04T13:31:16Z</time>
      </trkpt>
      <trkpt lat="42.9074" lon="0.22726">
        <ele>2017.12</ele>
        <time>2014-12-04T13:31:51Z</time>
      </trkpt>
      <trkpt lat="42.90744" lon="0.22723">
        <ele>2015.93</ele>
        <time>2014-12-04T13:32:14Z</time>
      </trkpt>
      <trkpt lat="42.90741" lon="0.22724">
        <ele>2015.87</ele>
        <time>2014-12-04T13:32:38Z</time>
      </trkpt>
      <trkpt lat="42.90742" lon="0.22726">
        <ele>2015.87</ele>
        <time>2014-12-04T13:33:00Z</time>
      </trkpt>
      <trkpt lat="42.90739" lon="0.22724">
        <ele>2016.1</ele>
        <time>2014-12-04T13:33:25Z</time>
      </trkpt>
      <trkpt lat="42.90739" lon="0.22723">
        <ele>2016.16</ele>
        <time>2014-12-04T13:33:49Z</time>
      </trkpt>
      <trkpt lat="42.90739" lon="0.22725">
        <ele>2015.95</ele>
        <time>2014-12-04T13:34:18Z</time>
      </trkpt>
      <trkpt lat="42.90742" lon="0.22724">
        <ele>2016.25</ele>
        <time>2014-12-04T13:34:44Z</time>
      </trkpt>
      <trkpt lat="42.90741" lon="0.22722">
        <ele>2016.18</ele>
        <time>2014-12-04T13:35:12Z</time>
      </trkpt>
      <trkpt lat="42.90742" lon="0.22723">
        <ele>2016.03</ele>
        <time>2014-12-04T13:35:33Z</time>
      </trkpt>
      <trkpt lat="42.90741" lon="0.22723">
        <ele>2015.81</ele>
        <time>2014-12-04T13:36:02Z</time>
      </trkpt>
      <trkpt lat="42.90744" lon="0.22722">
        <ele>2015.87</ele>
        <time>2014-12-04T13:36:32Z</time>
      </trkpt>
      <trkpt lat="42.90743" lon="0.22722">
        <ele>2015.49</ele>
        <time>2014-12-04T13:36:58Z</time>
      </trkpt>
      <trkpt lat="42.90744" lon="0.22721">
        <ele>2015.98</ele>
        <time>2014-12-04T13:37:13Z</time>
      </trkpt>
      <trkpt lat="42.90745" lon="0.22718">
        <ele>2016.44</ele>
        <time>2014-12-04T13:37:17Z</time>
      </trkpt>
      <trkpt lat="42.90742" lon="0.22719">
        <ele>2015.79</ele>
        <time>2014-12-04T13:37:45Z</time>
      </trkpt>
      <trkpt lat="42.90743" lon="0.22722">
        <ele>2015.6</ele>
        <time>2014-12-04T13:38:08Z</time>
      </trkpt>
      <trkpt lat="42.90744" lon="0.22723">
        <ele>2015.64</ele>
        <time>2014-12-04T13:38:30Z</time>
      </trkpt>
      <trkpt lat="42.90748" lon="0.22726">
        <ele>2013.86</ele>
        <time>2014-12-04T13:38:45Z</time>
      </trkpt>
      <trkpt lat="42.90753" lon="0.22724">
        <ele>2010.68</ele>
        <time>2014-12-04T13:38:59Z</time>
      </trkpt>
      <trkpt lat="42.90757" lon="0.22729">
        <ele>2007.46</ele>
        <time>2014-12-04T13:39:12Z</time>
      </trkpt>
      <trkpt lat="42.90761" lon="0.22735">
        <ele>2004.28</ele>
        <time>2014-12-04T13:39:28Z</time>
      </trkpt>
      <trkpt lat="42.90764" lon="0.22739">
        <ele>2001.52</ele>
        <time>2014-12-04T13:39:42Z</time>
      </trkpt>
      <trkpt lat="42.90771" lon="0.22739">
        <ele>1998.47</ele>
        <time>2014-12-04T13:39:55Z</time>
      </trkpt>
      <trkpt lat="42.90776" lon="0.22742">
        <ele>1995.17</ele>
        <time>2014-12-04T13:40:05Z</time>
      </trkpt>
      <trkpt lat="42.90783" lon="0.22749">
        <ele>1991.93</ele>
        <time>2014-12-04T13:40:18Z</time>
      </trkpt>
      <trkpt lat="42.90789" lon="0.22751">
        <ele>1988.77</ele>
        <time>2014-12-04T13:40:32Z</time>
      </trkpt>
      <trkpt lat="42.90796" lon="0.22749">
        <ele>1985.39</ele>
        <time>2014-12-04T13:40:45Z</time>
      </trkpt>
      <trkpt lat="42.90801" lon="0.22747">
        <ele>1982.64</ele>
        <time>2014-12-04T13:41:02Z</time>
      </trkpt>
      <trkpt lat="42.90807" lon="0.22745">
        <ele>1979.6</ele>
        <time>2014-12-04T13:41:17Z</time>
      </trkpt>
      <trkpt lat="42.9081" lon="0.2274">
        <ele>1976.75</ele>
        <time>2014-12-04T13:41:33Z</time>
      </trkpt>
      <trkpt lat="42.90811" lon="0.2274">
        <ele>1975.11</ele>
        <time>2014-12-04T13:41:53Z</time>
      </trkpt>
      <trkpt lat="42.90814" lon="0.2274">
        <ele>1975.2</ele>
        <time>2014-12-04T13:42:14Z</time>
      </trkpt>
      <trkpt lat="42.90816" lon="0.22739">
        <ele>1975.06</ele>
        <time>2014-12-04T13:42:41Z</time>
      </trkpt>
      <trkpt lat="42.90817" lon="0.2274">
        <ele>1974.52</ele>
        <time>2014-12-04T13:43:00Z</time>
      </trkpt>
      <trkpt lat="42.90818" lon="0.2274">
        <ele>1974.15</ele>
        <time>2014-12-04T13:43:21Z</time>
      </trkpt>
      <trkpt lat="42.90818" lon="0.2274">
        <ele>1973.93</ele>
        <time>2014-12-04T13:43:51Z</time>
      </trkpt>
      <trkpt lat="42.90817" lon="0.22741">
        <ele>1973.84</ele>
        <time>2014-12-04T13:44:27Z</time>
      </trkpt>
      <trkpt lat="42.90817" lon="0.22741">
        <ele>1973.74</ele>
        <time>2014-12-04T13:44:57Z</time>
      </trkpt>
      <trkpt lat="42.90818" lon="0.22746">
        <ele>1973.17</ele>
        <time>2014-12-04T13:45:26Z</time>
      </trkpt>
      <trkpt lat="42.90825" lon="0.22747">
        <ele>1970.31</ele>
        <time>2014-12-04T13:45:43Z</time>
      </trkpt>
      <trkpt lat="42.90832" lon="0.22744">
        <ele>1967.23</ele>
        <time>2014-12-04T13:45:57Z</time>
      </trkpt>
      <trkpt lat="42.90838" lon="0.22738">
        <ele>1963.98</ele>
        <time>2014-12-04T13:46:11Z</time>
      </trkpt>
      <trkpt lat="42.90841" lon="0.22735">
        <ele>1961.41</ele>
        <time>2014-12-04T13:46:26Z</time>
      </trkpt>
      <trkpt lat="42.90841" lon="0.22736">
        <ele>1961.44</ele>
        <time>2014-12-04T13:46:55Z</time>
      </trkpt>
      <trkpt lat="42.90843" lon="0.22733">
        <ele>1960.63</ele>
        <time>2014-12-04T13:47:08Z</time>
      </trkpt>
      <trkpt lat="42.90848" lon="0.22728">
        <ele>1957.56</ele>
        <time>2014-12-04T13:47:24Z</time>
      </trkpt>
      <trkpt lat="42.90853" lon="0.22723">
        <ele>1954.34</ele>
        <time>2014-12-04T13:47:37Z</time>
      </trkpt>
      <trkpt lat="42.90859" lon="0.22724">
        <ele>1951.13</ele>
        <time>2014-12-04T13:47:50Z</time>
      </trkpt>
      <trkpt lat="42.90866" lon="0.22728">
        <ele>1947.95</ele>
        <time>2014-12-04T13:48:01Z</time>
      </trkpt>
      <trkpt lat="42.90871" lon="0.22725">
        <ele>1944.88</ele>
        <time>2014-12-04T13:48:15Z</time>
      </trkpt>
      <trkpt lat="42.90878" lon="0.22728">
        <ele>1942.11</ele>
        <time>2014-12-04T13:48:27Z</time>
      </trkpt>
      <trkpt lat="42.90886" lon="0.22735">
        <ele>1939.02</ele>
        <time>2014-12-04T13:48:40Z</time>
      </trkpt>
      <trkpt lat="42.90891" lon="0.22739">
        <ele>1935.89</ele>
        <time>2014-12-04T13:48:52Z</time>
      </trkpt>
      <trkpt lat="42.90897" lon="0.2274">
        <ele>1932.86</ele>
        <time>2014-12-04T13:49:04Z</time>
      </trkpt>
      <trkpt lat="42.90904" lon="0.22742">
        <ele>1929.63</ele>
        <time>2014-12-04T13:49:15Z</time>
      </trkpt>
      <trkpt lat="42.9091" lon="0.22741">
        <ele>1926.54</ele>
        <time>2014-12-04T13:49:27Z</time>
      </trkpt>
      <trkpt lat="42.90918" lon="0.22739">
        <ele>1923.53</ele>
        <time>2014-12-04T13:49:38Z</time>
      </trkpt>
      <trkpt lat="42.90922" lon="0.22738">
        <ele>1920.5</ele>
        <time>2014-12-04T13:49:48Z</time>
      </trkpt>
      <trkpt lat="42.90926" lon="0.22735">
        <ele>1917.54</ele>
        <time>2014-12-04T13:50:01Z</time>
      </trkpt>
      <trkpt lat="42.9093" lon="0.22735">
        <ele>1914.36</ele>
        <time>2014-12-04T13:50:13Z</time>
      </trkpt>
      <trkpt lat="42.90936" lon="0.2274">
        <ele>1911.25</ele>
        <time>2014-12-04T13:50:25Z</time>
      </trkpt>
      <trkpt lat="42.90941" lon="0.22741">
        <ele>1908.21</ele>
        <time>2014-12-04T13:50:35Z</time>
      </trkpt>
      <trkpt lat="42.90947" lon="0.22741">
        <ele>1905.07</ele>
        <time>2014-12-04T13:50:46Z</time>
      </trkpt>
      <trkpt lat="42.90955" lon="0.22739">
        <ele>1901.87</ele>
        <time>2014-12-04T13:50:58Z</time>
      </trkpt>
      <trkpt lat="42.90961" lon="0.22737">
        <ele>1898.72</ele>
        <time>2014-12-04T13:51:09Z</time>
      </trkpt>
      <trkpt lat="42.90971" lon="0.22734">
        <ele>1895.67</ele>
        <time>2014-12-04T13:51:24Z</time>
      </trkpt>
      <trkpt lat="42.90982" lon="0.22738">
        <ele>1892.61</ele>
        <time>2014-12-04T13:51:36Z</time>
      </trkpt>
      <trkpt lat="42.90992" lon="0.22741">
        <ele>1889.76</ele>
        <time>2014-12-04T13:51:48Z</time>
      </trkpt>
      <trkpt lat="42.90997" lon="0.22744">
        <ele>1887.93</ele>
        <time>2014-12-04T13:51:53Z</time>
      </trkpt>
      <trkpt lat="42.91008" lon="0.22742">
        <ele>1884.74</ele>
        <time>2014-12-04T13:52:05Z</time>
      </trkpt>
      <trkpt lat="42.91017" lon="0.22743">
        <ele>1881.71</ele>
        <time>2014-12-04T13:52:14Z</time>
      </trkpt>
      <trkpt lat="42.91024" lon="0.22747">
        <ele>1878.67</ele>
        <time>2014-12-04T13:52:22Z</time>
      </trkpt>
      <trkpt lat="42.91036" lon="0.22756">
        <ele>1875.17</ele>
        <time>2014-12-04T13:52:36Z</time>
      </trkpt>
      <trkpt lat="42.91047" lon="0.22764">
        <ele>1871.92</ele>
        <time>2014-12-04T13:52:49Z</time>
      </trkpt>
      <trkpt lat="42.91053" lon="0.22773">
        <ele>1869.37</ele>
        <time>2014-12-04T13:53:00Z</time>
      </trkpt>
      <trkpt lat="42.91062" lon="0.22775">
        <ele>1867.09</ele>
        <time>2014-12-04T13:53:13Z</time>
      </trkpt>
      <trkpt lat="42.91072" lon="0.22784">
        <ele>1863.96</ele>
        <time>2014-12-04T13:53:28Z</time>
      </trkpt>
      <trkpt lat="42.91078" lon="0.22793">
        <ele>1860.78</ele>
        <time>2014-12-04T13:53:40Z</time>
      </trkpt>
      <trkpt lat="42.91085" lon="0.22801">
        <ele>1857.77</ele>
        <time>2014-12-04T13:53:52Z</time>
      </trkpt>
      <trkpt lat="42.9109" lon="0.22806">
        <ele>1854.71</ele>
        <time>2014-12-04T13:54:01Z</time>
      </trkpt>
      <trkpt lat="42.9109" lon="0.22807">
        <ele>1853.12</ele>
        <time>2014-12-04T13:54:17Z</time>
      </trkpt>
      <trkpt lat="42.91089" lon="0.22808">
        <ele>1853.37</ele>
        <time>2014-12-04T13:54:55Z</time>
      </trkpt>
      <trkpt lat="42.91091" lon="0.22807">
        <ele>1853.07</ele>
        <time>2014-12-04T13:55:28Z</time>
      </trkpt>
      <trkpt lat="42.91091" lon="0.22808">
        <ele>1852.99</ele>
        <time>2014-12-04T13:55:53Z</time>
      </trkpt>
      <trkpt lat="42.91097" lon="0.22806">
        <ele>1851.45</ele>
        <time>2014-12-04T13:56:07Z</time>
      </trkpt>
      <trkpt lat="42.91101" lon="0.22796">
        <ele>1850.25</ele>
        <time>2014-12-04T13:56:17Z</time>
      </trkpt>
      <trkpt lat="42.91104" lon="0.22787">
        <ele>1849.39</ele>
        <time>2014-12-04T13:56:31Z</time>
      </trkpt>
      <trkpt lat="42.91103" lon="0.22785">
        <ele>1849.26</ele>
        <time>2014-12-04T13:56:53Z</time>
      </trkpt>
      <trkpt lat="42.91107" lon="0.22767">
        <ele>1849.77</ele>
        <time>2014-12-04T13:57:08Z</time>
      </trkpt>
      <trkpt lat="42.91111" lon="0.22748">
        <ele>1849.65</ele>
        <time>2014-12-04T13:57:20Z</time>
      </trkpt>
      <trkpt lat="42.91116" lon="0.2273">
        <ele>1849.39</ele>
        <time>2014-12-04T13:57:32Z</time>
      </trkpt>
      <trkpt lat="42.91123" lon="0.22705">
        <ele>1850.1</ele>
        <time>2014-12-04T13:57:48Z</time>
      </trkpt>
      <trkpt lat="42.9113" lon="0.22688">
        <ele>1850.41</ele>
        <time>2014-12-04T13:58:00Z</time>
      </trkpt>
      <trkpt lat="42.91137" lon="0.22674">
        <ele>1850.89</ele>
        <time>2014-12-04T13:58:12Z</time>
      </trkpt>
      <trkpt lat="42.9114" lon="0.22666">
        <ele>1851.39</ele>
        <time>2014-12-04T13:58:18Z</time>
      </trkpt>
      <trkpt lat="42.9115" lon="0.22653">
        <ele>1851.89</ele>
        <time>2014-12-04T13:58:29Z</time>
      </trkpt>
      <trkpt lat="42.91156" lon="0.22639">
        <ele>1852.99</ele>
        <time>2014-12-04T13:58:41Z</time>
      </trkpt>
      <trkpt lat="42.91158" lon="0.22626">
        <ele>1854.08</ele>
        <time>2014-12-04T13:58:52Z</time>
      </trkpt>
      <trkpt lat="42.9116" lon="0.22607">
        <ele>1854.68</ele>
        <time>2014-12-04T13:59:05Z</time>
      </trkpt>
      <trkpt lat="42.91161" lon="0.22598">
        <ele>1854.72</ele>
        <time>2014-12-04T13:59:11Z</time>
      </trkpt>
      <trkpt lat="42.91158" lon="0.22583">
        <ele>1854.11</ele>
        <time>2014-12-04T13:59:21Z</time>
      </trkpt>
      <trkpt lat="42.91155" lon="0.22567">
        <ele>1852.72</ele>
        <time>2014-12-04T13:59:32Z</time>
      </trkpt>
      <trkpt lat="42.91151" lon="0.22556">
        <ele>1851.22</ele>
        <time>2014-12-04T13:59:40Z</time>
      </trkpt>
      <trkpt lat="42.91145" lon="0.22541">
        <ele>1848.45</ele>
        <time>2014-12-04T13:59:52Z</time>
      </trkpt>
      <trkpt lat="42.91143" lon="0.22523">
        <ele>1845.36</ele>
        <time>2014-12-04T14:00:04Z</time>
      </trkpt>
      <trkpt lat="42.91143" lon="0.22508">
        <ele>1842.98</ele>
        <time>2014-12-04T14:00:14Z</time>
      </trkpt>
      <trkpt lat="42.91143" lon="0.22503">
        <ele>1841.82</ele>
        <time>2014-12-04T14:00:18Z</time>
      </trkpt>
      <trkpt lat="42.91145" lon="0.22496">
        <ele>1839.32</ele>
        <time>2014-12-04T14:00:25Z</time>
      </trkpt>
      <trkpt lat="42.91145" lon="0.22492">
        <ele>1838.51</ele>
        <time>2014-12-04T14:00:28Z</time>
      </trkpt>
      <trkpt lat="42.91152" lon="0.2248">
        <ele>1835.46</ele>
        <time>2014-12-04T14:00:40Z</time>
      </trkpt>
      <trkpt lat="42.91157" lon="0.22471">
        <ele>1832.32</ele>
        <time>2014-12-04T14:00:51Z</time>
      </trkpt>
      <trkpt lat="42.91162" lon="0.22466">
        <ele>1830.65</ele>
        <time>2014-12-04T14:00:58Z</time>
      </trkpt>
      <trkpt lat="42.91174" lon="0.2246">
        <ele>1828.36</ele>
        <time>2014-12-04T14:01:14Z</time>
      </trkpt>
      <trkpt lat="42.91183" lon="0.22455">
        <ele>1825.83</ele>
        <time>2014-12-04T14:01:27Z</time>
      </trkpt>
      <trkpt lat="42.91193" lon="0.22448">
        <ele>1822.77</ele>
        <time>2014-12-04T14:01:42Z</time>
      </trkpt>
      <trkpt lat="42.91202" lon="0.2244">
        <ele>1819.75</ele>
        <time>2014-12-04T14:01:56Z</time>
      </trkpt>
      <trkpt lat="42.91209" lon="0.22432">
        <ele>1817.19</ele>
        <time>2014-12-04T14:02:08Z</time>
      </trkpt>
      <trkpt lat="42.91218" lon="0.22426">
        <ele>1813.94</ele>
        <time>2014-12-04T14:02:21Z</time>
      </trkpt>
      <trkpt lat="42.91225" lon="0.22423">
        <ele>1812.63</ele>
        <time>2014-12-04T14:02:29Z</time>
      </trkpt>
      <trkpt lat="42.91242" lon="0.22416">
        <ele>1809.88</ele>
        <time>2014-12-04T14:02:44Z</time>
      </trkpt>
      <trkpt lat="42.91249" lon="0.22411">
        <ele>1806.71</ele>
        <time>2014-12-04T14:02:57Z</time>
      </trkpt>
      <trkpt lat="42.91257" lon="0.22402">
        <ele>1803.49</ele>
        <time>2014-12-04T14:03:11Z</time>
      </trkpt>
      <trkpt lat="42.91266" lon="0.22394">
        <ele>1800.27</ele>
        <time>2014-12-04T14:03:22Z</time>
      </trkpt>
      <trkpt lat="42.91276" lon="0.22389">
        <ele>1797.15</ele>
        <time>2014-12-04T14:03:35Z</time>
      </trkpt>
      <trkpt lat="42.91287" lon="0.22382">
        <ele>1794.15</ele>
        <time>2014-12-04T14:03:49Z</time>
      </trkpt>
      <trkpt lat="42.91299" lon="0.22379">
        <ele>1791.46</ele>
        <time>2014-12-04T14:04:02Z</time>
      </trkpt>
      <trkpt lat="42.91311" lon="0.22379">
        <ele>1790.11</ele>
        <time>2014-12-04T14:04:12Z</time>
      </trkpt>
      <trkpt lat="42.91325" lon="0.22379">
        <ele>1789.18</ele>
        <time>2014-12-04T14:04:24Z</time>
      </trkpt>
      <trkpt lat="42.91337" lon="0.22381">
        <ele>1788.22</ele>
        <time>2014-12-04T14:04:37Z</time>
      </trkpt>
      <trkpt lat="42.9134" lon="0.22382">
        <ele>1788.01</ele>
        <time>2014-12-04T14:04:41Z</time>
      </trkpt>
      <trkpt lat="42.91357" lon="0.22386">
        <ele>1788.27</ele>
        <time>2014-12-04T14:04:56Z</time>
      </trkpt>
      <trkpt lat="42.9137" lon="0.22387">
        <ele>1788.4</ele>
        <time>2014-12-04T14:05:08Z</time>
      </trkpt>
      <trkpt lat="42.91381" lon="0.22388">
        <ele>1788.44</ele>
        <time>2014-12-04T14:05:18Z</time>
      </trkpt>
      <trkpt lat="42.91391" lon="0.22387">
        <ele>1788.76</ele>
        <time>2014-12-04T14:05:29Z</time>
      </trkpt>
      <trkpt lat="42.91401" lon="0.22387">
        <ele>1788.94</ele>
        <time>2014-12-04T14:05:41Z</time>
      </trkpt>
      <trkpt lat="42.91416" lon="0.22387">
        <ele>1789.33</ele>
        <time>2014-12-04T14:05:55Z</time>
      </trkpt>
      <trkpt lat="42.91428" lon="0.22388">
        <ele>1789.1</ele>
        <time>2014-12-04T14:06:09Z</time>
      </trkpt>
      <trkpt lat="42.91436" lon="0.22389">
        <ele>1787.74</ele>
        <time>2014-12-04T14:06:19Z</time>
      </trkpt>
      <trkpt lat="42.91436" lon="0.22389">
        <ele>1787.59</ele>
        <time>2014-12-04T14:06:20Z</time>
      </trkpt>
      <trkpt lat="42.91446" lon="0.22389">
        <ele>1786.97</ele>
        <time>2014-12-04T14:06:32Z</time>
      </trkpt>
      <trkpt lat="42.9145" lon="0.22391">
        <ele>1786.78</ele>
        <time>2014-12-04T14:06:37Z</time>
      </trkpt>
      <trkpt lat="42.9146" lon="0.22397">
        <ele>1786.47</ele>
        <time>2014-12-04T14:06:51Z</time>
      </trkpt>
      <trkpt lat="42.9147" lon="0.224">
        <ele>1786.22</ele>
        <time>2014-12-04T14:07:01Z</time>
      </trkpt>
      <trkpt lat="42.91484" lon="0.22403">
        <ele>1786.26</ele>
        <time>2014-12-04T14:07:14Z</time>
      </trkpt>
      <trkpt lat="42.91498" lon="0.22406">
        <ele>1786.27</ele>
        <time>2014-12-04T14:07:27Z</time>
      </trkpt>
      <trkpt lat="42.91511" lon="0.22406">
        <ele>1786.26</ele>
        <time>2014-12-04T14:07:39Z</time>
      </trkpt>
      <trkpt lat="42.91528" lon="0.22407">
        <ele>1786.4</ele>
        <time>2014-12-04T14:07:53Z</time>
      </trkpt>
      <trkpt lat="42.91543" lon="0.22407">
        <ele>1786.37</ele>
        <time>2014-12-04T14:08:07Z</time>
      </trkpt>
      <trkpt lat="42.91557" lon="0.22408">
        <ele>1786.05</ele>
        <time>2014-12-04T14:08:19Z</time>
      </trkpt>
      <trkpt lat="42.91571" lon="0.22409">
        <ele>1786.14</ele>
        <time>2014-12-04T14:08:31Z</time>
      </trkpt>
      <trkpt lat="42.91579" lon="0.2241">
        <ele>1786.23</ele>
        <time>2014-12-04T14:08:38Z</time>
      </trkpt>
      <trkpt lat="42.91592" lon="0.22416">
        <ele>1786.58</ele>
        <time>2014-12-04T14:08:50Z</time>
      </trkpt>
      <trkpt lat="42.91595" lon="0.22416">
        <ele>1786.69</ele>
        <time>2014-12-04T14:08:54Z</time>
      </trkpt>
      <trkpt lat="42.91609" lon="0.22421">
        <ele>1785.67</ele>
        <time>2014-12-04T14:09:06Z</time>
      </trkpt>
      <trkpt lat="42.91622" lon="0.22428">
        <ele>1785.18</ele>
        <time>2014-12-04T14:09:18Z</time>
      </trkpt>
      <trkpt lat="42.91632" lon="0.22433">
        <ele>1784.95</ele>
        <time>2014-12-04T14:09:29Z</time>
      </trkpt>
      <trkpt lat="42.91643" lon="0.22435">
        <ele>1784.75</ele>
        <time>2014-12-04T14:09:40Z</time>
      </trkpt>
      <trkpt lat="42.91658" lon="0.22435">
        <ele>1783.17</ele>
        <time>2014-12-04T14:09:54Z</time>
      </trkpt>
      <trkpt lat="42.91673" lon="0.22432">
        <ele>1781.78</ele>
        <time>2014-12-04T14:10:07Z</time>
      </trkpt>
      <trkpt lat="42.91676" lon="0.22432">
        <ele>1781.61</ele>
        <time>2014-12-04T14:10:10Z</time>
      </trkpt>
      <trkpt lat="42.91691" lon="0.22429">
        <ele>1781.14</ele>
        <time>2014-12-04T14:10:24Z</time>
      </trkpt>
      <trkpt lat="42.91706" lon="0.22425">
        <ele>1781.7</ele>
        <time>2014-12-04T14:10:37Z</time>
      </trkpt>
      <trkpt lat="42.91716" lon="0.22423">
        <ele>1781.74</ele>
        <time>2014-12-04T14:10:47Z</time>
      </trkpt>
      <trkpt lat="42.91726" lon="0.22422">
        <ele>1782.34</ele>
        <time>2014-12-04T14:10:57Z</time>
      </trkpt>
      <trkpt lat="42.91736" lon="0.22415">
        <ele>1783.72</ele>
        <time>2014-12-04T14:11:08Z</time>
      </trkpt>
      <trkpt lat="42.91746" lon="0.22409">
        <ele>1785.19</ele>
        <time>2014-12-04T14:11:19Z</time>
      </trkpt>
      <trkpt lat="42.91748" lon="0.22408">
        <ele>1785.44</ele>
        <time>2014-12-04T14:11:21Z</time>
      </trkpt>
      <trkpt lat="42.91759" lon="0.224">
        <ele>1786.43</ele>
        <time>2014-12-04T14:11:34Z</time>
      </trkpt>
      <trkpt lat="42.91769" lon="0.22392">
        <ele>1787.26</ele>
        <time>2014-12-04T14:11:46Z</time>
      </trkpt>
      <trkpt lat="42.91772" lon="0.22388">
        <ele>1787.41</ele>
        <time>2014-12-04T14:11:55Z</time>
      </trkpt>
      <trkpt lat="42.91775" lon="0.22383">
        <ele>1787.15</ele>
        <time>2014-12-04T14:12:00Z</time>
      </trkpt>
      <trkpt lat="42.91785" lon="0.22371">
        <ele>1785.76</ele>
        <time>2014-12-04T14:12:14Z</time>
      </trkpt>
      <trkpt lat="42.91795" lon="0.22362">
        <ele>1783.87</ele>
        <time>2014-12-04T14:12:25Z</time>
      </trkpt>
      <trkpt lat="42.91797" lon="0.2236">
        <ele>1783.71</ele>
        <time>2014-12-04T14:12:27Z</time>
      </trkpt>
      <trkpt lat="42.91806" lon="0.22343">
        <ele>1781.9</ele>
        <time>2014-12-04T14:12:42Z</time>
      </trkpt>
      <trkpt lat="42.91806" lon="0.22341">
        <ele>1781.49</ele>
        <time>2014-12-04T14:12:44Z</time>
      </trkpt>
      <trkpt lat="42.91808" lon="0.2233">
        <ele>1779.55</ele>
        <time>2014-12-04T14:12:52Z</time>
      </trkpt>
      <trkpt lat="42.91807" lon="0.22325">
        <ele>1778.39</ele>
        <time>2014-12-04T14:12:56Z</time>
      </trkpt>
      <trkpt lat="42.91806" lon="0.22314">
        <ele>1776.52</ele>
        <time>2014-12-04T14:13:04Z</time>
      </trkpt>
      <trkpt lat="42.91803" lon="0.22299">
        <ele>1773.18</ele>
        <time>2014-12-04T14:13:17Z</time>
      </trkpt>
      <trkpt lat="42.91802" lon="0.22296">
        <ele>1772.42</ele>
        <time>2014-12-04T14:13:20Z</time>
      </trkpt>
      <trkpt lat="42.91794" lon="0.22286">
        <ele>1770.05</ele>
        <time>2014-12-04T14:13:31Z</time>
      </trkpt>
      <trkpt lat="42.91785" lon="0.22272">
        <ele>1767.71</ele>
        <time>2014-12-04T14:13:45Z</time>
      </trkpt>
      <trkpt lat="42.91776" lon="0.22264">
        <ele>1764.9</ele>
        <time>2014-12-04T14:13:58Z</time>
      </trkpt>
      <trkpt lat="42.9177" lon="0.22259">
        <ele>1762.82</ele>
        <time>2014-12-04T14:14:12Z</time>
      </trkpt>
      <trkpt lat="42.9177" lon="0.2226">
        <ele>1762.57</ele>
        <time>2014-12-04T14:14:34Z</time>
      </trkpt>
      <trkpt lat="42.91769" lon="0.22254">
        <ele>1761.95</ele>
        <time>2014-12-04T14:14:56Z</time>
      </trkpt>
      <trkpt lat="42.91764" lon="0.22239">
        <ele>1758.72</ele>
        <time>2014-12-04T14:15:08Z</time>
      </trkpt>
      <trkpt lat="42.91763" lon="0.22229">
        <ele>1756.33</ele>
        <time>2014-12-04T14:15:16Z</time>
      </trkpt>
      <trkpt lat="42.91759" lon="0.22219">
        <ele>1752.73</ele>
        <time>2014-12-04T14:15:26Z</time>
      </trkpt>
      <trkpt lat="42.91756" lon="0.22207">
        <ele>1749.44</ele>
        <time>2014-12-04T14:15:37Z</time>
      </trkpt>
      <trkpt lat="42.91751" lon="0.22197">
        <ele>1746.37</ele>
        <time>2014-12-04T14:15:46Z</time>
      </trkpt>
      <trkpt lat="42.91749" lon="0.22184">
        <ele>1743.33</ele>
        <time>2014-12-04T14:15:58Z</time>
      </trkpt>
      <trkpt lat="42.91745" lon="0.22175">
        <ele>1740.18</ele>
        <time>2014-12-04T14:16:07Z</time>
      </trkpt>
      <trkpt lat="42.91742" lon="0.22166">
        <ele>1737.08</ele>
        <time>2014-12-04T14:16:16Z</time>
      </trkpt>
      <trkpt lat="42.91737" lon="0.22156">
        <ele>1733.94</ele>
        <time>2014-12-04T14:16:26Z</time>
      </trkpt>
      <trkpt lat="42.91733" lon="0.22148">
        <ele>1730.79</ele>
        <time>2014-12-04T14:16:36Z</time>
      </trkpt>
      <trkpt lat="42.91729" lon="0.2214">
        <ele>1727.54</ele>
        <time>2014-12-04T14:16:46Z</time>
      </trkpt>
      <trkpt lat="42.91725" lon="0.22132">
        <ele>1724.29</ele>
        <time>2014-12-04T14:16:55Z</time>
      </trkpt>
      <trkpt lat="42.91724" lon="0.22124">
        <ele>1721.27</ele>
        <time>2014-12-04T14:17:04Z</time>
      </trkpt>
      <trkpt lat="42.91721" lon="0.22117">
        <ele>1718.06</ele>
        <time>2014-12-04T14:17:16Z</time>
      </trkpt>
      <trkpt lat="42.91718" lon="0.22109">
        <ele>1715.05</ele>
        <time>2014-12-04T14:17:26Z</time>
      </trkpt>
      <trkpt lat="42.91713" lon="0.22101">
        <ele>1711.88</ele>
        <time>2014-12-04T14:17:35Z</time>
      </trkpt>
      <trkpt lat="42.9171" lon="0.22094">
        <ele>1708.63</ele>
        <time>2014-12-04T14:17:45Z</time>
      </trkpt>
      <trkpt lat="42.91706" lon="0.22088">
        <ele>1705.45</ele>
        <time>2014-12-04T14:17:53Z</time>
      </trkpt>
      <trkpt lat="42.91701" lon="0.22085">
        <ele>1702.39</ele>
        <time>2014-12-04T14:18:03Z</time>
      </trkpt>
      <trkpt lat="42.91693" lon="0.22083">
        <ele>1699.38</ele>
        <time>2014-12-04T14:18:12Z</time>
      </trkpt>
      <trkpt lat="42.91687" lon="0.22083">
        <ele>1696.28</ele>
        <time>2014-12-04T14:18:22Z</time>
      </trkpt>
      <trkpt lat="42.91677" lon="0.22085">
        <ele>1693.22</ele>
        <time>2014-12-04T14:18:38Z</time>
      </trkpt>
      <trkpt lat="42.91667" lon="0.22088">
        <ele>1691.93</ele>
        <time>2014-12-04T14:18:54Z</time>
      </trkpt>
      <trkpt lat="42.91663" lon="0.22091">
        <ele>1692.05</ele>
        <time>2014-12-04T14:19:11Z</time>
      </trkpt>
      <trkpt lat="42.91662" lon="0.22093">
        <ele>1691.77</ele>
        <time>2014-12-04T14:19:36Z</time>
      </trkpt>
      <trkpt lat="42.9165" lon="0.22093">
        <ele>1688.72</ele>
        <time>2014-12-04T14:19:51Z</time>
      </trkpt>
      <trkpt lat="42.91644" lon="0.22093">
        <ele>1686.28</ele>
        <time>2014-12-04T14:20:05Z</time>
      </trkpt>
      <trkpt lat="42.91641" lon="0.22094">
        <ele>1684.9</ele>
        <time>2014-12-04T14:20:11Z</time>
      </trkpt>
      <trkpt lat="42.91634" lon="0.22093">
        <ele>1681.62</ele>
        <time>2014-12-04T14:20:20Z</time>
      </trkpt>
      <trkpt lat="42.91626" lon="0.22089">
        <ele>1678.38</ele>
        <time>2014-12-04T14:20:30Z</time>
      </trkpt>
      <trkpt lat="42.9162" lon="0.22089">
        <ele>1676.43</ele>
        <time>2014-12-04T14:20:35Z</time>
      </trkpt>
      <trkpt lat="42.91611" lon="0.2209">
        <ele>1672.85</ele>
        <time>2014-12-04T14:20:44Z</time>
      </trkpt>
      <trkpt lat="42.91592" lon="0.22093">
        <ele>1672.04</ele>
        <time>2014-12-04T14:21:01Z</time>
      </trkpt>
      <trkpt lat="42.91577" lon="0.22092">
        <ele>1672.19</ele>
        <time>2014-12-04T14:21:14Z</time>
      </trkpt>
      <trkpt lat="42.91566" lon="0.22094">
        <ele>1672.65</ele>
        <time>2014-12-04T14:21:29Z</time>
      </trkpt>
      <trkpt lat="42.91561" lon="0.22092">
        <ele>1671.39</ele>
        <time>2014-12-04T14:21:44Z</time>
      </trkpt>
      <trkpt lat="42.91552" lon="0.22087">
        <ele>1668.29</ele>
        <time>2014-12-04T14:21:55Z</time>
      </trkpt>
      <trkpt lat="42.91541" lon="0.22082">
        <ele>1665.29</ele>
        <time>2014-12-04T14:22:07Z</time>
      </trkpt>
      <trkpt lat="42.91532" lon="0.22082">
        <ele>1662.16</ele>
        <time>2014-12-04T14:22:18Z</time>
      </trkpt>
      <trkpt lat="42.91523" lon="0.22084">
        <ele>1659.11</ele>
        <time>2014-12-04T14:22:30Z</time>
      </trkpt>
      <trkpt lat="42.91516" lon="0.22086">
        <ele>1657.98</ele>
        <time>2014-12-04T14:22:39Z</time>
      </trkpt>
      <trkpt lat="42.91506" lon="0.22083">
        <ele>1655.67</ele>
        <time>2014-12-04T14:22:50Z</time>
      </trkpt>
      <trkpt lat="42.915" lon="0.22077">
        <ele>1652.33</ele>
        <time>2014-12-04T14:23:00Z</time>
      </trkpt>
      <trkpt lat="42.91498" lon="0.22073">
        <ele>1649.19</ele>
        <time>2014-12-04T14:23:12Z</time>
      </trkpt>
      <trkpt lat="42.91501" lon="0.22063">
        <ele>1646</ele>
        <time>2014-12-04T14:23:25Z</time>
      </trkpt>
      <trkpt lat="42.91499" lon="0.22059">
        <ele>1642.95</ele>
        <time>2014-12-04T14:23:35Z</time>
      </trkpt>
      <trkpt lat="42.91492" lon="0.22051">
        <ele>1639.77</ele>
        <time>2014-12-04T14:23:47Z</time>
      </trkpt>
      <trkpt lat="42.9149" lon="0.22041">
        <ele>1636.5</ele>
        <time>2014-12-04T14:23:56Z</time>
      </trkpt>
      <trkpt lat="42.91489" lon="0.22034">
        <ele>1633.29</ele>
        <time>2014-12-04T14:24:06Z</time>
      </trkpt>
      <trkpt lat="42.91491" lon="0.22028">
        <ele>1630.21</ele>
        <time>2014-12-04T14:24:15Z</time>
      </trkpt>
      <trkpt lat="42.9149" lon="0.22023">
        <ele>1627.14</ele>
        <time>2014-12-04T14:24:22Z</time>
      </trkpt>
      <trkpt lat="42.91491" lon="0.22011">
        <ele>1623.8</ele>
        <time>2014-12-04T14:24:31Z</time>
      </trkpt>
      <trkpt lat="42.91502" lon="0.22003">
        <ele>1620.47</ele>
        <time>2014-12-04T14:24:42Z</time>
      </trkpt>
      <trkpt lat="42.91507" lon="0.21997">
        <ele>1617.37</ele>
        <time>2014-12-04T14:24:50Z</time>
      </trkpt>
      <trkpt lat="42.91509" lon="0.21992">
        <ele>1614.23</ele>
        <time>2014-12-04T14:24:59Z</time>
      </trkpt>
      <trkpt lat="42.91507" lon="0.2199">
        <ele>1612.25</ele>
        <time>2014-12-04T14:25:14Z</time>
      </trkpt>
      <trkpt lat="42.91507" lon="0.21994">
        <ele>1612.25</ele>
        <time>2014-12-04T14:25:31Z</time>
      </trkpt>
      <trkpt lat="42.91505" lon="0.21992">
        <ele>1611.78</ele>
        <time>2014-12-04T14:25:35Z</time>
      </trkpt>
      <trkpt lat="42.91502" lon="0.21982">
        <ele>1608.59</ele>
        <time>2014-12-04T14:25:47Z</time>
      </trkpt>
      <trkpt lat="42.91504" lon="0.21977">
        <ele>1605.46</ele>
        <time>2014-12-04T14:25:57Z</time>
      </trkpt>
      <trkpt lat="42.91507" lon="0.21972">
        <ele>1602.29</ele>
        <time>2014-12-04T14:26:11Z</time>
      </trkpt>
      <trkpt lat="42.91503" lon="0.21964">
        <ele>1598.83</ele>
        <time>2014-12-04T14:26:23Z</time>
      </trkpt>
      <trkpt lat="42.91507" lon="0.21963">
        <ele>1595.5</ele>
        <time>2014-12-04T14:26:32Z</time>
      </trkpt>
      <trkpt lat="42.9151" lon="0.21954">
        <ele>1592.3</ele>
        <time>2014-12-04T14:26:41Z</time>
      </trkpt>
      <trkpt lat="42.91511" lon="0.21948">
        <ele>1588.78</ele>
        <time>2014-12-04T14:26:51Z</time>
      </trkpt>
      <trkpt lat="42.91515" lon="0.21936">
        <ele>1585.55</ele>
        <time>2014-12-04T14:27:02Z</time>
      </trkpt>
      <trkpt lat="42.91524" lon="0.21924">
        <ele>1582.35</ele>
        <time>2014-12-04T14:27:13Z</time>
      </trkpt>
      <trkpt lat="42.91526" lon="0.2192">
        <ele>1580.14</ele>
        <time>2014-12-04T14:27:20Z</time>
      </trkpt>
      <trkpt lat="42.9153" lon="0.21913">
        <ele>1576.98</ele>
        <time>2014-12-04T14:27:34Z</time>
      </trkpt>
      <trkpt lat="42.91533" lon="0.21908">
        <ele>1574.33</ele>
        <time>2014-12-04T14:27:48Z</time>
      </trkpt>
      <trkpt lat="42.91536" lon="0.21909">
        <ele>1572.79</ele>
        <time>2014-12-04T14:27:54Z</time>
      </trkpt>
      <trkpt lat="42.91543" lon="0.21904">
        <ele>1569.34</ele>
        <time>2014-12-04T14:28:06Z</time>
      </trkpt>
      <trkpt lat="42.91544" lon="0.219">
        <ele>1566.3</ele>
        <time>2014-12-04T14:28:17Z</time>
      </trkpt>
      <trkpt lat="42.91536" lon="0.21888">
        <ele>1563.69</ele>
        <time>2014-12-04T14:28:25Z</time>
      </trkpt>
      <trkpt lat="42.91529" lon="0.21874">
        <ele>1560.11</ele>
        <time>2014-12-04T14:28:36Z</time>
      </trkpt>
      <trkpt lat="42.91521" lon="0.2186">
        <ele>1556.73</ele>
        <time>2014-12-04T14:28:47Z</time>
      </trkpt>
      <trkpt lat="42.91514" lon="0.21848">
        <ele>1553.31</ele>
        <time>2014-12-04T14:28:56Z</time>
      </trkpt>
      <trkpt lat="42.91509" lon="0.21836">
        <ele>1550.02</ele>
        <time>2014-12-04T14:29:03Z</time>
      </trkpt>
      <trkpt lat="42.91505" lon="0.21821">
        <ele>1546.59</ele>
        <time>2014-12-04T14:29:10Z</time>
      </trkpt>
      <trkpt lat="42.91502" lon="0.21808">
        <ele>1543.4</ele>
        <time>2014-12-04T14:29:18Z</time>
      </trkpt>
      <trkpt lat="42.91501" lon="0.21801">
        <ele>1541.59</ele>
        <time>2014-12-04T14:29:22Z</time>
      </trkpt>
      <trkpt lat="42.91502" lon="0.21786">
        <ele>1538.59</ele>
        <time>2014-12-04T14:29:32Z</time>
      </trkpt>
      <trkpt lat="42.91502" lon="0.21781">
        <ele>1537.64</ele>
        <time>2014-12-04T14:29:36Z</time>
      </trkpt>
      <trkpt lat="42.91506" lon="0.21763">
        <ele>1535.11</ele>
        <time>2014-12-04T14:29:48Z</time>
      </trkpt>
      <trkpt lat="42.91507" lon="0.2176">
        <ele>1534.8</ele>
        <time>2014-12-04T14:29:50Z</time>
      </trkpt>
      <trkpt lat="42.91503" lon="0.21747">
        <ele>1533.69</ele>
        <time>2014-12-04T14:30:00Z</time>
      </trkpt>
      <trkpt lat="42.91495" lon="0.2173">
        <ele>1532.57</ele>
        <time>2014-12-04T14:30:11Z</time>
      </trkpt>
      <trkpt lat="42.91492" lon="0.21716">
        <ele>1531.99</ele>
        <time>2014-12-04T14:30:20Z</time>
      </trkpt>
      <trkpt lat="42.91494" lon="0.21707">
        <ele>1531.53</ele>
        <time>2014-12-04T14:30:26Z</time>
      </trkpt>
      <trkpt lat="42.91496" lon="0.21698">
        <ele>1531.87</ele>
        <time>2014-12-04T14:30:42Z</time>
      </trkpt>
      <trkpt lat="42.91503" lon="0.21686">
        <ele>1532.52</ele>
        <time>2014-12-04T14:30:57Z</time>
      </trkpt>
      <trkpt lat="42.91506" lon="0.21673">
        <ele>1532.11</ele>
        <time>2014-12-04T14:31:09Z</time>
      </trkpt>
      <trkpt lat="42.91509" lon="0.21664">
        <ele>1532.3</ele>
        <time>2014-12-04T14:31:16Z</time>
      </trkpt>
      <trkpt lat="42.91511" lon="0.2166">
        <ele>1532.37</ele>
        <time>2014-12-04T14:31:19Z</time>
      </trkpt>
      <trkpt lat="42.91513" lon="0.21654">
        <ele>1532.75</ele>
        <time>2014-12-04T14:31:24Z</time>
      </trkpt>
      <trkpt lat="42.91519" lon="0.2163">
        <ele>1533.45</ele>
        <time>2014-12-04T14:31:37Z</time>
      </trkpt>
      <trkpt lat="42.91523" lon="0.21617">
        <ele>1534.57</ele>
        <time>2014-12-04T14:31:48Z</time>
      </trkpt>
      <trkpt lat="42.91525" lon="0.21598">
        <ele>1535.54</ele>
        <time>2014-12-04T14:31:59Z</time>
      </trkpt>
      <trkpt lat="42.91528" lon="0.21583">
        <ele>1535.64</ele>
        <time>2014-12-04T14:32:11Z</time>
      </trkpt>
      <trkpt lat="42.91529" lon="0.21579">
        <ele>1535.5</ele>
        <time>2014-12-04T14:32:14Z</time>
      </trkpt>
      <trkpt lat="42.91539" lon="0.21567">
        <ele>1534.84</ele>
        <time>2014-12-04T14:32:24Z</time>
      </trkpt>
      <trkpt lat="42.91545" lon="0.21549">
        <ele>1534.16</ele>
        <time>2014-12-04T14:32:37Z</time>
      </trkpt>
      <trkpt lat="42.91547" lon="0.21544">
        <ele>1533.89</ele>
        <time>2014-12-04T14:32:40Z</time>
      </trkpt>
      <trkpt lat="42.91552" lon="0.21534">
        <ele>1533.04</ele>
        <time>2014-12-04T14:32:49Z</time>
      </trkpt>
      <trkpt lat="42.91555" lon="0.21525">
        <ele>1531.91</ele>
        <time>2014-12-04T14:32:57Z</time>
      </trkpt>
      <trkpt lat="42.9156" lon="0.21511">
        <ele>1530.52</ele>
        <time>2014-12-04T14:33:06Z</time>
      </trkpt>
      <trkpt lat="42.91562" lon="0.21507">
        <ele>1530.29</ele>
        <time>2014-12-04T14:33:08Z</time>
      </trkpt>
      <trkpt lat="42.91568" lon="0.21488">
        <ele>1529.44</ele>
        <time>2014-12-04T14:33:21Z</time>
      </trkpt>
      <trkpt lat="42.91572" lon="0.21475">
        <ele>1528.79</ele>
        <time>2014-12-04T14:33:33Z</time>
      </trkpt>
      <trkpt lat="42.91575" lon="0.21462">
        <ele>1528.11</ele>
        <time>2014-12-04T14:33:44Z</time>
      </trkpt>
      <trkpt lat="42.91576" lon="0.21453">
        <ele>1527.08</ele>
        <time>2014-12-04T14:33:58Z</time>
      </trkpt>
      <trkpt lat="42.91576" lon="0.21453">
        <ele>1526.67</ele>
        <time>2014-12-04T14:34:15Z</time>
      </trkpt>
      <trkpt lat="42.91578" lon="0.21449">
        <ele>1526.15</ele>
        <time>2014-12-04T14:34:38Z</time>
      </trkpt>
      <trkpt lat="42.91578" lon="0.21451">
        <ele>1526.01</ele>
        <time>2014-12-04T14:34:55Z</time>
      </trkpt>
      <trkpt lat="42.91576" lon="0.21447">
        <ele>1525.68</ele>
        <time>2014-12-04T14:35:15Z</time>
      </trkpt>
      <trkpt lat="42.91579" lon="0.21451">
        <ele>1525.92</ele>
        <time>2014-12-04T14:35:33Z</time>
      </trkpt>
      <trkpt lat="42.9158" lon="0.21448">
        <ele>1525.86</ele>
        <time>2014-12-04T14:35:56Z</time>
      </trkpt>
      <trkpt lat="42.91582" lon="0.2145">
        <ele>1525.94</ele>
        <time>2014-12-04T14:36:19Z</time>
      </trkpt>
      <trkpt lat="42.91579" lon="0.21447">
        <ele>1525.98</ele>
        <time>2014-12-04T14:36:39Z</time>
      </trkpt>
      <trkpt lat="42.91576" lon="0.21449">
        <ele>1525.89</ele>
        <time>2014-12-04T14:36:55Z</time>
      </trkpt>
      <trkpt lat="42.91575" lon="0.21448">
        <ele>1526.04</ele>
        <time>2014-12-04T14:37:16Z</time>
      </trkpt>
      <trkpt lat="42.9158" lon="0.21446">
        <ele>1525.8</ele>
        <time>2014-12-04T14:37:32Z</time>
      </trkpt>
      <trkpt lat="42.9158" lon="0.21446">
        <ele>1525.1</ele>
        <time>2014-12-04T14:37:49Z</time>
      </trkpt>
      <trkpt lat="42.91581" lon="0.21446">
        <ele>1524.79</ele>
        <time>2014-12-04T14:38:02Z</time>
      </trkpt>
      <trkpt lat="42.91579" lon="0.21443">
        <ele>1524.86</ele>
        <time>2014-12-04T14:38:22Z</time>
      </trkpt>
      <trkpt lat="42.91582" lon="0.21445">
        <ele>1524.81</ele>
        <time>2014-12-04T14:38:40Z</time>
      </trkpt>
      <trkpt lat="42.91582" lon="0.21442">
        <ele>1524.53</ele>
        <time>2014-12-04T14:38:55Z</time>
      </trkpt>
      <trkpt lat="42.91581" lon="0.21442">
        <ele>1524.68</ele>
        <time>2014-12-04T14:39:13Z</time>
      </trkpt>
      <trkpt lat="42.91581" lon="0.21444">
        <ele>1524.6</ele>
        <time>2014-12-04T14:39:27Z</time>
      </trkpt>
      <trkpt lat="42.91584" lon="0.21448">
        <ele>1524.69</ele>
        <time>2014-12-04T14:39:42Z</time>
      </trkpt>
      <trkpt lat="42.91581" lon="0.21447">
        <ele>1524.88</ele>
        <time>2014-12-04T14:39:59Z</time>
      </trkpt>
      <trkpt lat="42.91578" lon="0.2145">
        <ele>1525.14</ele>
        <time>2014-12-04T14:40:13Z</time>
      </trkpt>
      <trkpt lat="42.91579" lon="0.21448">
        <ele>1524.96</ele>
        <time>2014-12-04T14:40:31Z</time>
      </trkpt>
      <trkpt lat="42.91579" lon="0.21444">
        <ele>1524.84</ele>
        <time>2014-12-04T14:41:06Z</time>
      </trkpt>
      <trkpt lat="42.9158" lon="0.21442">
        <ele>1525.11</ele>
        <time>2014-12-04T14:41:44Z</time>
      </trkpt>
      <trkpt lat="42.91578" lon="0.21441">
        <ele>1524.42</ele>
        <time>2014-12-04T14:42:09Z</time>
      </trkpt>
      <trkpt lat="42.9158" lon="0.2143">
        <ele>1523.76</ele>
        <time>2014-12-04T14:42:23Z</time>
      </trkpt>
      <trkpt lat="42.91585" lon="0.21414">
        <ele>1520.67</ele>
        <time>2014-12-04T14:42:39Z</time>
      </trkpt>
      <trkpt lat="42.91589" lon="0.21403">
        <ele>1517.57</ele>
        <time>2014-12-04T14:42:52Z</time>
      </trkpt>
      <trkpt lat="42.9159" lon="0.21395">
        <ele>1514.47</ele>
        <time>2014-12-04T14:43:03Z</time>
      </trkpt>
      <trkpt lat="42.91593" lon="0.21387">
        <ele>1511.29</ele>
        <time>2014-12-04T14:43:16Z</time>
      </trkpt>
      <trkpt lat="42.91594" lon="0.21377">
        <ele>1508.17</ele>
        <time>2014-12-04T14:43:29Z</time>
      </trkpt>
      <trkpt lat="42.91589" lon="0.21369">
        <ele>1505.51</ele>
        <time>2014-12-04T14:43:42Z</time>
      </trkpt>
      <trkpt lat="42.91591" lon="0.21362">
        <ele>1502.45</ele>
        <time>2014-12-04T14:43:54Z</time>
      </trkpt>
      <trkpt lat="42.91586" lon="0.21352">
        <ele>1499.42</ele>
        <time>2014-12-04T14:44:08Z</time>
      </trkpt>
      <trkpt lat="42.91587" lon="0.21348">
        <ele>1497.15</ele>
        <time>2014-12-04T14:44:18Z</time>
      </trkpt>
      <trkpt lat="42.91591" lon="0.21342">
        <ele>1494.1</ele>
        <time>2014-12-04T14:44:32Z</time>
      </trkpt>
      <trkpt lat="42.9159" lon="0.21333">
        <ele>1490.98</ele>
        <time>2014-12-04T14:44:44Z</time>
      </trkpt>
      <trkpt lat="42.91591" lon="0.21326">
        <ele>1487.94</ele>
        <time>2014-12-04T14:44:55Z</time>
      </trkpt>
      <trkpt lat="42.91587" lon="0.21319">
        <ele>1484.83</ele>
        <time>2014-12-04T14:45:07Z</time>
      </trkpt>
      <trkpt lat="42.91581" lon="0.21311">
        <ele>1481.77</ele>
        <time>2014-12-04T14:45:18Z</time>
      </trkpt>
      <trkpt lat="42.91575" lon="0.21303">
        <ele>1478.65</ele>
        <time>2014-12-04T14:45:30Z</time>
      </trkpt>
      <trkpt lat="42.91568" lon="0.21292">
        <ele>1475.67</ele>
        <time>2014-12-04T14:45:43Z</time>
      </trkpt>
      <trkpt lat="42.91566" lon="0.21282">
        <ele>1472.51</ele>
        <time>2014-12-04T14:45:55Z</time>
      </trkpt>
      <trkpt lat="42.91562" lon="0.21269">
        <ele>1469.43</ele>
        <time>2014-12-04T14:46:06Z</time>
      </trkpt>
      <trkpt lat="42.91559" lon="0.21255">
        <ele>1466.39</ele>
        <time>2014-12-04T14:46:19Z</time>
      </trkpt>
      <trkpt lat="42.91561" lon="0.21243">
        <ele>1464.12</ele>
        <time>2014-12-04T14:46:31Z</time>
      </trkpt>
      <trkpt lat="42.91564" lon="0.2124">
        <ele>1463.06</ele>
        <time>2014-12-04T14:46:36Z</time>
      </trkpt>
      <trkpt lat="42.91572" lon="0.21236">
        <ele>1460.71</ele>
        <time>2014-12-04T14:46:45Z</time>
      </trkpt>
      <trkpt lat="42.91574" lon="0.21227">
        <ele>1457.87</ele>
        <time>2014-12-04T14:46:57Z</time>
      </trkpt>
      <trkpt lat="42.91572" lon="0.21216">
        <ele>1455.19</ele>
        <time>2014-12-04T14:47:08Z</time>
      </trkpt>
      <trkpt lat="42.91568" lon="0.21206">
        <ele>1452.03</ele>
        <time>2014-12-04T14:47:24Z</time>
      </trkpt>
      <trkpt lat="42.9157" lon="0.21199">
        <ele>1448.92</ele>
        <time>2014-12-04T14:47:38Z</time>
      </trkpt>
      <trkpt lat="42.91572" lon="0.21191">
        <ele>1445.59</ele>
        <time>2014-12-04T14:47:53Z</time>
      </trkpt>
      <trkpt lat="42.91564" lon="0.21179">
        <ele>1442.57</ele>
        <time>2014-12-04T14:48:09Z</time>
      </trkpt>
      <trkpt lat="42.91568" lon="0.21168">
        <ele>1439.46</ele>
        <time>2014-12-04T14:48:24Z</time>
      </trkpt>
      <trkpt lat="42.9157" lon="0.2116">
        <ele>1436.46</ele>
        <time>2014-12-04T14:48:34Z</time>
      </trkpt>
      <trkpt lat="42.91575" lon="0.21155">
        <ele>1433.39</ele>
        <time>2014-12-04T14:48:46Z</time>
      </trkpt>
      <trkpt lat="42.91578" lon="0.21149">
        <ele>1430.37</ele>
        <time>2014-12-04T14:48:56Z</time>
      </trkpt>
      <trkpt lat="42.91581" lon="0.21141">
        <ele>1427.31</ele>
        <time>2014-12-04T14:49:05Z</time>
      </trkpt>
      <trkpt lat="42.91586" lon="0.21133">
        <ele>1424.18</ele>
        <time>2014-12-04T14:49:19Z</time>
      </trkpt>
      <trkpt lat="42.91593" lon="0.21127">
        <ele>1421.04</ele>
        <time>2014-12-04T14:49:31Z</time>
      </trkpt>
      <trkpt lat="42.91595" lon="0.2112">
        <ele>1417.84</ele>
        <time>2014-12-04T14:49:40Z</time>
      </trkpt>
      <trkpt lat="42.916" lon="0.21109">
        <ele>1415.87</ele>
        <time>2014-12-04T14:49:49Z</time>
      </trkpt>
      <trkpt lat="42.91605" lon="0.21094">
        <ele>1412.65</ele>
        <time>2014-12-04T14:50:02Z</time>
      </trkpt>
      <trkpt lat="42.91605" lon="0.21088">
        <ele>1411.7</ele>
        <time>2014-12-04T14:50:06Z</time>
      </trkpt>
      <trkpt lat="42.91605" lon="0.21069">
        <ele>1409.05</ele>
        <time>2014-12-04T14:50:19Z</time>
      </trkpt>
      <trkpt lat="42.91608" lon="0.21054">
        <ele>1405.86</ele>
        <time>2014-12-04T14:50:32Z</time>
      </trkpt>
      <trkpt lat="42.91611" lon="0.21043">
        <ele>1404.49</ele>
        <time>2014-12-04T14:50:39Z</time>
      </trkpt>
      <trkpt lat="42.91611" lon="0.21037">
        <ele>1403.89</ele>
        <time>2014-12-04T14:50:42Z</time>
      </trkpt>
      <trkpt lat="42.91612" lon="0.21035">
        <ele>1403.56</ele>
        <time>2014-12-04T14:50:44Z</time>
      </trkpt>
      <trkpt lat="42.91615" lon="0.2102">
        <ele>1401.98</ele>
        <time>2014-12-04T14:50:54Z</time>
      </trkpt>
      <trkpt lat="42.91624" lon="0.21011">
        <ele>1402.44</ele>
        <time>2014-12-04T14:51:07Z</time>
      </trkpt>
      <trkpt lat="42.91627" lon="0.21001">
        <ele>1402.18</ele>
        <time>2014-12-04T14:51:19Z</time>
      </trkpt>
      <trkpt lat="42.91631" lon="0.20999">
        <ele>1401.13</ele>
        <time>2014-12-04T14:51:25Z</time>
      </trkpt>
      <trkpt lat="42.91638" lon="0.20998">
        <ele>1398.43</ele>
        <time>2014-12-04T14:51:38Z</time>
      </trkpt>
      <trkpt lat="42.9164" lon="0.20984">
        <ele>1395.74</ele>
        <time>2014-12-04T14:51:55Z</time>
      </trkpt>
      <trkpt lat="42.91645" lon="0.20971">
        <ele>1392.76</ele>
        <time>2014-12-04T14:52:07Z</time>
      </trkpt>
      <trkpt lat="42.91655" lon="0.20962">
        <ele>1391.15</ele>
        <time>2014-12-04T14:52:20Z</time>
      </trkpt>
      <trkpt lat="42.91656" lon="0.20945">
        <ele>1392.94</ele>
        <time>2014-12-04T14:52:35Z</time>
      </trkpt>
      <trkpt lat="42.91657" lon="0.20932">
        <ele>1395.23</ele>
        <time>2014-12-04T14:52:48Z</time>
      </trkpt>
      <trkpt lat="42.91663" lon="0.2093">
        <ele>1397.32</ele>
        <time>2014-12-04T14:53:03Z</time>
      </trkpt>
      <trkpt lat="42.91666" lon="0.20937">
        <ele>1400.39</ele>
        <time>2014-12-04T14:53:18Z</time>
      </trkpt>
      <trkpt lat="42.91667" lon="0.20949">
        <ele>1402.57</ele>
        <time>2014-12-04T14:53:30Z</time>
      </trkpt>
      <trkpt lat="42.91675" lon="0.20952">
        <ele>1402.72</ele>
        <time>2014-12-04T14:53:45Z</time>
      </trkpt>
      <trkpt lat="42.91676" lon="0.20951">
        <ele>1402.72</ele>
        <time>2014-12-04T14:53:50Z</time>
      </trkpt>
      <trkpt lat="42.91678" lon="0.20952">
        <ele>1402.83</ele>
        <time>2014-12-04T14:53:59Z</time>
      </trkpt>
      <trkpt lat="42.91677" lon="0.20953">
        <ele>1402.93</ele>
        <time>2014-12-04T14:54:07Z</time>
      </trkpt>
    </trkseg>
  </trk>
</gpx>